<?xml version="1.0" encoding="UTF-8" standalone="no" ?>
<gpx xmlns="http://www.topografix.com/GPX/1/1" xmlns:xsi="http://www.w3.org/2001/XMLSchema-instance" xsi:schemaLocation="http://www.topografix.com/GPX/1/1 http://www.topografix.com/GPX/1/1/gpx.xsd" version="1.1" creator="VisuGPX - https://www.visugpx.com">
  <metadata>
    <name>Boucle FRESPECH-BEAUVILLE</name>
    <desc><![CDATA[Randonnée pédestre de 21 km en pays de Serres
(Lot et Garonne)]]></desc>
  </metadata>
  <trk>
    <name><![CDATA[FrespechBeauville]]></name>
    <trkseg>
      <trkpt lat="44.30931" lon="0.82488">
        <ele>216.91</ele>
        <time>2009-10-11T11:04:19Z</time>
      </trkpt>
      <trkpt lat="44.30931" lon="0.82488">
        <ele>213.55</ele>
        <time>2009-10-11T11:04:42Z</time>
      </trkpt>
      <trkpt lat="44.30931" lon="0.82488">
        <ele>216.43</ele>
        <time>2009-10-11T11:04:47Z</time>
      </trkpt>
      <trkpt lat="44.30931" lon="0.82487">
        <ele>217.4</ele>
        <time>2009-10-11T11:05:44Z</time>
      </trkpt>
      <trkpt lat="44.30932" lon="0.82489">
        <ele>216.43</ele>
        <time>2009-10-11T11:06:05Z</time>
      </trkpt>
      <trkpt lat="44.30932" lon="0.8249">
        <ele>216.43</ele>
        <time>2009-10-11T11:06:39Z</time>
      </trkpt>
      <trkpt lat="44.30933" lon="0.82491">
        <ele>216.43</ele>
        <time>2009-10-11T11:06:52Z</time>
      </trkpt>
      <trkpt lat="44.3095" lon="0.82501">
        <ele>215.95</ele>
        <time>2009-10-11T11:07:08Z</time>
      </trkpt>
      <trkpt lat="44.30955" lon="0.82503">
        <ele>214.99</ele>
        <time>2009-10-11T11:07:12Z</time>
      </trkpt>
      <trkpt lat="44.30958" lon="0.82504">
        <ele>216.43</ele>
        <time>2009-10-11T11:07:15Z</time>
      </trkpt>
      <trkpt lat="44.30967" lon="0.82507">
        <ele>215.47</ele>
        <time>2009-10-11T11:07:24Z</time>
      </trkpt>
      <trkpt lat="44.30986" lon="0.82508">
        <ele>216.43</ele>
        <time>2009-10-11T11:07:39Z</time>
      </trkpt>
      <trkpt lat="44.30987" lon="0.82508">
        <ele>216.43</ele>
        <time>2009-10-11T11:07:40Z</time>
      </trkpt>
      <trkpt lat="44.31004" lon="0.82507">
        <ele>214.51</ele>
        <time>2009-10-11T11:07:55Z</time>
      </trkpt>
      <trkpt lat="44.31005" lon="0.82506">
        <ele>218.84</ele>
        <time>2009-10-11T11:07:56Z</time>
      </trkpt>
      <trkpt lat="44.31023" lon="0.82512">
        <ele>215.95</ele>
        <time>2009-10-11T11:08:11Z</time>
      </trkpt>
      <trkpt lat="44.31031" lon="0.82518">
        <ele>215.47</ele>
        <time>2009-10-11T11:08:18Z</time>
      </trkpt>
      <trkpt lat="44.31046" lon="0.82526">
        <ele>215.47</ele>
        <time>2009-10-11T11:08:30Z</time>
      </trkpt>
      <trkpt lat="44.31053" lon="0.82533">
        <ele>214.99</ele>
        <time>2009-10-11T11:08:38Z</time>
      </trkpt>
      <trkpt lat="44.31062" lon="0.82532">
        <ele>214.03</ele>
        <time>2009-10-11T11:08:44Z</time>
      </trkpt>
      <trkpt lat="44.31074" lon="0.82529">
        <ele>213.55</ele>
        <time>2009-10-11T11:08:56Z</time>
      </trkpt>
      <trkpt lat="44.31077" lon="0.82539">
        <ele>213.55</ele>
        <time>2009-10-11T11:09:00Z</time>
      </trkpt>
      <trkpt lat="44.31092" lon="0.82551">
        <ele>212.11</ele>
        <time>2009-10-11T11:09:11Z</time>
      </trkpt>
      <trkpt lat="44.31093" lon="0.82551">
        <ele>212.59</ele>
        <time>2009-10-11T11:09:12Z</time>
      </trkpt>
      <trkpt lat="44.31098" lon="0.82554">
        <ele>212.11</ele>
        <time>2009-10-11T11:09:16Z</time>
      </trkpt>
      <trkpt lat="44.31104" lon="0.82565">
        <ele>210.19</ele>
        <time>2009-10-11T11:09:29Z</time>
      </trkpt>
      <trkpt lat="44.31108" lon="0.8257">
        <ele>208.26</ele>
        <time>2009-10-11T11:09:35Z</time>
      </trkpt>
      <trkpt lat="44.31112" lon="0.82577">
        <ele>207.3</ele>
        <time>2009-10-11T11:09:42Z</time>
      </trkpt>
      <trkpt lat="44.31126" lon="0.82576">
        <ele>205.38</ele>
        <time>2009-10-11T11:09:52Z</time>
      </trkpt>
      <trkpt lat="44.31141" lon="0.82575">
        <ele>203.46</ele>
        <time>2009-10-11T11:10:01Z</time>
      </trkpt>
      <trkpt lat="44.3115" lon="0.82572">
        <ele>202.98</ele>
        <time>2009-10-11T11:10:07Z</time>
      </trkpt>
      <trkpt lat="44.31168" lon="0.82571">
        <ele>202.01</ele>
        <time>2009-10-11T11:10:19Z</time>
      </trkpt>
      <trkpt lat="44.31181" lon="0.82576">
        <ele>202.01</ele>
        <time>2009-10-11T11:10:28Z</time>
      </trkpt>
      <trkpt lat="44.31191" lon="0.82582">
        <ele>200.57</ele>
        <time>2009-10-11T11:10:37Z</time>
      </trkpt>
      <trkpt lat="44.31191" lon="0.82587">
        <ele>200.57</ele>
        <time>2009-10-11T11:10:40Z</time>
      </trkpt>
      <trkpt lat="44.31188" lon="0.82594">
        <ele>199.61</ele>
        <time>2009-10-11T11:10:54Z</time>
      </trkpt>
      <trkpt lat="44.31188" lon="0.82595">
        <ele>199.61</ele>
        <time>2009-10-11T11:11:21Z</time>
      </trkpt>
      <trkpt lat="44.31177" lon="0.82599">
        <ele>199.13</ele>
        <time>2009-10-11T11:11:31Z</time>
      </trkpt>
      <trkpt lat="44.31165" lon="0.82596">
        <ele>199.13</ele>
        <time>2009-10-11T11:11:40Z</time>
      </trkpt>
      <trkpt lat="44.31151" lon="0.82601">
        <ele>199.61</ele>
        <time>2009-10-11T11:11:54Z</time>
      </trkpt>
      <trkpt lat="44.31146" lon="0.8261">
        <ele>199.13</ele>
        <time>2009-10-11T11:11:58Z</time>
      </trkpt>
      <trkpt lat="44.31139" lon="0.8262">
        <ele>199.13</ele>
        <time>2009-10-11T11:12:12Z</time>
      </trkpt>
      <trkpt lat="44.31137" lon="0.82618">
        <ele>195.77</ele>
        <time>2009-10-11T11:12:25Z</time>
      </trkpt>
      <trkpt lat="44.31135" lon="0.82619">
        <ele>195.77</ele>
        <time>2009-10-11T11:12:26Z</time>
      </trkpt>
      <trkpt lat="44.3113" lon="0.82623">
        <ele>193.84</ele>
        <time>2009-10-11T11:12:32Z</time>
      </trkpt>
      <trkpt lat="44.31128" lon="0.82626">
        <ele>192.88</ele>
        <time>2009-10-11T11:12:36Z</time>
      </trkpt>
      <trkpt lat="44.31121" lon="0.82628">
        <ele>192.4</ele>
        <time>2009-10-11T11:12:40Z</time>
      </trkpt>
      <trkpt lat="44.31109" lon="0.82632">
        <ele>189.52</ele>
        <time>2009-10-11T11:12:47Z</time>
      </trkpt>
      <trkpt lat="44.31076" lon="0.82659">
        <ele>189.04</ele>
        <time>2009-10-11T11:12:58Z</time>
      </trkpt>
      <trkpt lat="44.31071" lon="0.82674">
        <ele>185.67</ele>
        <time>2009-10-11T11:13:08Z</time>
      </trkpt>
      <trkpt lat="44.31067" lon="0.82687">
        <ele>184.71</ele>
        <time>2009-10-11T11:13:18Z</time>
      </trkpt>
      <trkpt lat="44.31065" lon="0.827">
        <ele>183.27</ele>
        <time>2009-10-11T11:13:28Z</time>
      </trkpt>
      <trkpt lat="44.31058" lon="0.82718">
        <ele>181.35</ele>
        <time>2009-10-11T11:13:39Z</time>
      </trkpt>
      <trkpt lat="44.31055" lon="0.82723">
        <ele>182.31</ele>
        <time>2009-10-11T11:13:42Z</time>
      </trkpt>
      <trkpt lat="44.31043" lon="0.82748">
        <ele>179.42</ele>
        <time>2009-10-11T11:14:00Z</time>
      </trkpt>
      <trkpt lat="44.31035" lon="0.8277">
        <ele>177.02</ele>
        <time>2009-10-11T11:14:16Z</time>
      </trkpt>
      <trkpt lat="44.31032" lon="0.82779">
        <ele>176.06</ele>
        <time>2009-10-11T11:14:35Z</time>
      </trkpt>
      <trkpt lat="44.31019" lon="0.82797">
        <ele>173.66</ele>
        <time>2009-10-11T11:14:48Z</time>
      </trkpt>
      <trkpt lat="44.31016" lon="0.82803">
        <ele>172.69</ele>
        <time>2009-10-11T11:14:52Z</time>
      </trkpt>
      <trkpt lat="44.31014" lon="0.82807">
        <ele>170.77</ele>
        <time>2009-10-11T11:14:55Z</time>
      </trkpt>
      <trkpt lat="44.31006" lon="0.82824">
        <ele>167.41</ele>
        <time>2009-10-11T11:15:05Z</time>
      </trkpt>
      <trkpt lat="44.31" lon="0.82838">
        <ele>164.04</ele>
        <time>2009-10-11T11:15:14Z</time>
      </trkpt>
      <trkpt lat="44.31" lon="0.82839">
        <ele>164.04</ele>
        <time>2009-10-11T11:15:15Z</time>
      </trkpt>
      <trkpt lat="44.30996" lon="0.82851">
        <ele>162.6</ele>
        <time>2009-10-11T11:15:22Z</time>
      </trkpt>
      <trkpt lat="44.30989" lon="0.82866">
        <ele>159.24</ele>
        <time>2009-10-11T11:15:32Z</time>
      </trkpt>
      <trkpt lat="44.30989" lon="0.82868">
        <ele>159.24</ele>
        <time>2009-10-11T11:15:33Z</time>
      </trkpt>
      <trkpt lat="44.30984" lon="0.82882">
        <ele>155.87</ele>
        <time>2009-10-11T11:15:42Z</time>
      </trkpt>
      <trkpt lat="44.30983" lon="0.82884">
        <ele>155.39</ele>
        <time>2009-10-11T11:15:43Z</time>
      </trkpt>
      <trkpt lat="44.30981" lon="0.82889">
        <ele>155.87</ele>
        <time>2009-10-11T11:15:46Z</time>
      </trkpt>
      <trkpt lat="44.30974" lon="0.82908">
        <ele>151.54</ele>
        <time>2009-10-11T11:15:58Z</time>
      </trkpt>
      <trkpt lat="44.30971" lon="0.82915">
        <ele>150.58</ele>
        <time>2009-10-11T11:16:03Z</time>
      </trkpt>
      <trkpt lat="44.30963" lon="0.82935">
        <ele>147.22</ele>
        <time>2009-10-11T11:16:16Z</time>
      </trkpt>
      <trkpt lat="44.30959" lon="0.82944">
        <ele>146.26</ele>
        <time>2009-10-11T11:16:23Z</time>
      </trkpt>
      <trkpt lat="44.30955" lon="0.82965">
        <ele>143.37</ele>
        <time>2009-10-11T11:16:36Z</time>
      </trkpt>
      <trkpt lat="44.3095" lon="0.82991">
        <ele>140.01</ele>
        <time>2009-10-11T11:16:51Z</time>
      </trkpt>
      <trkpt lat="44.30948" lon="0.82996">
        <ele>139.53</ele>
        <time>2009-10-11T11:16:54Z</time>
      </trkpt>
      <trkpt lat="44.30943" lon="0.83019">
        <ele>136.64</ele>
        <time>2009-10-11T11:17:06Z</time>
      </trkpt>
      <trkpt lat="44.30938" lon="0.83047">
        <ele>134.72</ele>
        <time>2009-10-11T11:17:20Z</time>
      </trkpt>
      <trkpt lat="44.30935" lon="0.8306">
        <ele>131.36</ele>
        <time>2009-10-11T11:17:27Z</time>
      </trkpt>
      <trkpt lat="44.30934" lon="0.83072">
        <ele>130.88</ele>
        <time>2009-10-11T11:17:33Z</time>
      </trkpt>
      <trkpt lat="44.30929" lon="0.83095">
        <ele>127.51</ele>
        <time>2009-10-11T11:17:45Z</time>
      </trkpt>
      <trkpt lat="44.30925" lon="0.83107">
        <ele>126.07</ele>
        <time>2009-10-11T11:17:52Z</time>
      </trkpt>
      <trkpt lat="44.30912" lon="0.83131">
        <ele>124.15</ele>
        <time>2009-10-11T11:18:06Z</time>
      </trkpt>
      <trkpt lat="44.30898" lon="0.83148">
        <ele>123.67</ele>
        <time>2009-10-11T11:18:19Z</time>
      </trkpt>
      <trkpt lat="44.30893" lon="0.83158">
        <ele>124.63</ele>
        <time>2009-10-11T11:18:25Z</time>
      </trkpt>
      <trkpt lat="44.30887" lon="0.83169">
        <ele>124.63</ele>
        <time>2009-10-11T11:18:32Z</time>
      </trkpt>
      <trkpt lat="44.30875" lon="0.83199">
        <ele>125.11</ele>
        <time>2009-10-11T11:18:47Z</time>
      </trkpt>
      <trkpt lat="44.3087" lon="0.83215">
        <ele>127.03</ele>
        <time>2009-10-11T11:18:58Z</time>
      </trkpt>
      <trkpt lat="44.30867" lon="0.83226">
        <ele>127.99</ele>
        <time>2009-10-11T11:19:05Z</time>
      </trkpt>
      <trkpt lat="44.30859" lon="0.83252">
        <ele>130.4</ele>
        <time>2009-10-11T11:19:20Z</time>
      </trkpt>
      <trkpt lat="44.30858" lon="0.83255">
        <ele>130.88</ele>
        <time>2009-10-11T11:19:22Z</time>
      </trkpt>
      <trkpt lat="44.30849" lon="0.83277">
        <ele>133.76</ele>
        <time>2009-10-11T11:19:37Z</time>
      </trkpt>
      <trkpt lat="44.30837" lon="0.83308">
        <ele>137.13</ele>
        <time>2009-10-11T11:19:56Z</time>
      </trkpt>
      <trkpt lat="44.30837" lon="0.83311">
        <ele>137.13</ele>
        <time>2009-10-11T11:19:58Z</time>
      </trkpt>
      <trkpt lat="44.30833" lon="0.83319">
        <ele>137.61</ele>
        <time>2009-10-11T11:20:02Z</time>
      </trkpt>
      <trkpt lat="44.3083" lon="0.83328">
        <ele>138.57</ele>
        <time>2009-10-11T11:20:10Z</time>
      </trkpt>
      <trkpt lat="44.30813" lon="0.83325">
        <ele>140.01</ele>
        <time>2009-10-11T11:20:24Z</time>
      </trkpt>
      <trkpt lat="44.30804" lon="0.83324">
        <ele>141.93</ele>
        <time>2009-10-11T11:20:31Z</time>
      </trkpt>
      <trkpt lat="44.30798" lon="0.83319">
        <ele>141.93</ele>
        <time>2009-10-11T11:20:37Z</time>
      </trkpt>
      <trkpt lat="44.30796" lon="0.8332">
        <ele>141.93</ele>
        <time>2009-10-11T11:20:39Z</time>
      </trkpt>
      <trkpt lat="44.30792" lon="0.83318">
        <ele>142.41</ele>
        <time>2009-10-11T11:20:42Z</time>
      </trkpt>
      <trkpt lat="44.3078" lon="0.83317">
        <ele>145.3</ele>
        <time>2009-10-11T11:20:53Z</time>
      </trkpt>
      <trkpt lat="44.30764" lon="0.83315">
        <ele>147.7</ele>
        <time>2009-10-11T11:21:06Z</time>
      </trkpt>
      <trkpt lat="44.30755" lon="0.83316">
        <ele>148.66</ele>
        <time>2009-10-11T11:21:14Z</time>
      </trkpt>
      <trkpt lat="44.30755" lon="0.83315">
        <ele>149.62</ele>
        <time>2009-10-11T11:21:15Z</time>
      </trkpt>
      <trkpt lat="44.30753" lon="0.83316">
        <ele>149.14</ele>
        <time>2009-10-11T11:21:18Z</time>
      </trkpt>
      <trkpt lat="44.3074" lon="0.83322">
        <ele>152.03</ele>
        <time>2009-10-11T11:21:29Z</time>
      </trkpt>
      <trkpt lat="44.30734" lon="0.83325">
        <ele>152.99</ele>
        <time>2009-10-11T11:21:34Z</time>
      </trkpt>
      <trkpt lat="44.30729" lon="0.83327">
        <ele>152.51</ele>
        <time>2009-10-11T11:21:38Z</time>
      </trkpt>
      <trkpt lat="44.30714" lon="0.83334">
        <ele>153.47</ele>
        <time>2009-10-11T11:21:50Z</time>
      </trkpt>
      <trkpt lat="44.30709" lon="0.83338">
        <ele>154.43</ele>
        <time>2009-10-11T11:22:02Z</time>
      </trkpt>
      <trkpt lat="44.30691" lon="0.83341">
        <ele>155.87</ele>
        <time>2009-10-11T11:22:15Z</time>
      </trkpt>
      <trkpt lat="44.30672" lon="0.8335">
        <ele>157.79</ele>
        <time>2009-10-11T11:22:29Z</time>
      </trkpt>
      <trkpt lat="44.30651" lon="0.83371">
        <ele>158.75</ele>
        <time>2009-10-11T11:22:47Z</time>
      </trkpt>
      <trkpt lat="44.30638" lon="0.83386">
        <ele>158.75</ele>
        <time>2009-10-11T11:23:00Z</time>
      </trkpt>
      <trkpt lat="44.30636" lon="0.8339">
        <ele>159.72</ele>
        <time>2009-10-11T11:23:03Z</time>
      </trkpt>
      <trkpt lat="44.30626" lon="0.83403">
        <ele>159.24</ele>
        <time>2009-10-11T11:23:12Z</time>
      </trkpt>
      <trkpt lat="44.30625" lon="0.83406">
        <ele>158.27</ele>
        <time>2009-10-11T11:23:14Z</time>
      </trkpt>
      <trkpt lat="44.30611" lon="0.8343">
        <ele>159.24</ele>
        <time>2009-10-11T11:23:29Z</time>
      </trkpt>
      <trkpt lat="44.30605" lon="0.83438">
        <ele>159.24</ele>
        <time>2009-10-11T11:23:34Z</time>
      </trkpt>
      <trkpt lat="44.30587" lon="0.8346">
        <ele>159.72</ele>
        <time>2009-10-11T11:23:50Z</time>
      </trkpt>
      <trkpt lat="44.30574" lon="0.83481">
        <ele>160.68</ele>
        <time>2009-10-11T11:24:03Z</time>
      </trkpt>
      <trkpt lat="44.30567" lon="0.83497">
        <ele>160.68</ele>
        <time>2009-10-11T11:24:13Z</time>
      </trkpt>
      <trkpt lat="44.30565" lon="0.83504">
        <ele>162.12</ele>
        <time>2009-10-11T11:24:17Z</time>
      </trkpt>
      <trkpt lat="44.30553" lon="0.83528">
        <ele>163.08</ele>
        <time>2009-10-11T11:24:30Z</time>
      </trkpt>
      <trkpt lat="44.30536" lon="0.83553">
        <ele>165.48</ele>
        <time>2009-10-11T11:24:46Z</time>
      </trkpt>
      <trkpt lat="44.30534" lon="0.83556">
        <ele>165.96</ele>
        <time>2009-10-11T11:24:48Z</time>
      </trkpt>
      <trkpt lat="44.30513" lon="0.83571">
        <ele>167.41</ele>
        <time>2009-10-11T11:25:04Z</time>
      </trkpt>
      <trkpt lat="44.30493" lon="0.83586">
        <ele>170.29</ele>
        <time>2009-10-11T11:25:19Z</time>
      </trkpt>
      <trkpt lat="44.30475" lon="0.83595">
        <ele>172.21</ele>
        <time>2009-10-11T11:25:32Z</time>
      </trkpt>
      <trkpt lat="44.30453" lon="0.83608">
        <ele>174.14</ele>
        <time>2009-10-11T11:25:49Z</time>
      </trkpt>
      <trkpt lat="44.30443" lon="0.83613">
        <ele>176.06</ele>
        <time>2009-10-11T11:25:56Z</time>
      </trkpt>
      <trkpt lat="44.30441" lon="0.83616">
        <ele>175.58</ele>
        <time>2009-10-11T11:25:58Z</time>
      </trkpt>
      <trkpt lat="44.30424" lon="0.83626">
        <ele>177.5</ele>
        <time>2009-10-11T11:26:11Z</time>
      </trkpt>
      <trkpt lat="44.30408" lon="0.83639">
        <ele>178.94</ele>
        <time>2009-10-11T11:26:24Z</time>
      </trkpt>
      <trkpt lat="44.30395" lon="0.83654">
        <ele>178.94</ele>
        <time>2009-10-11T11:26:35Z</time>
      </trkpt>
      <trkpt lat="44.30377" lon="0.83668">
        <ele>179.9</ele>
        <time>2009-10-11T11:26:47Z</time>
      </trkpt>
      <trkpt lat="44.30366" lon="0.83678">
        <ele>181.35</ele>
        <time>2009-10-11T11:26:54Z</time>
      </trkpt>
      <trkpt lat="44.30362" lon="0.83693">
        <ele>182.79</ele>
        <time>2009-10-11T11:27:02Z</time>
      </trkpt>
      <trkpt lat="44.30361" lon="0.83695">
        <ele>181.83</ele>
        <time>2009-10-11T11:27:03Z</time>
      </trkpt>
      <trkpt lat="44.30359" lon="0.83713">
        <ele>182.79</ele>
        <time>2009-10-11T11:27:12Z</time>
      </trkpt>
      <trkpt lat="44.30358" lon="0.83722">
        <ele>182.79</ele>
        <time>2009-10-11T11:27:17Z</time>
      </trkpt>
      <trkpt lat="44.3035" lon="0.83746">
        <ele>184.71</ele>
        <time>2009-10-11T11:27:29Z</time>
      </trkpt>
      <trkpt lat="44.30342" lon="0.83765">
        <ele>186.63</ele>
        <time>2009-10-11T11:27:40Z</time>
      </trkpt>
      <trkpt lat="44.3034" lon="0.83768">
        <ele>188.08</ele>
        <time>2009-10-11T11:27:42Z</time>
      </trkpt>
      <trkpt lat="44.30332" lon="0.83787">
        <ele>190.48</ele>
        <time>2009-10-11T11:27:53Z</time>
      </trkpt>
      <trkpt lat="44.30325" lon="0.83808">
        <ele>192.88</ele>
        <time>2009-10-11T11:28:05Z</time>
      </trkpt>
      <trkpt lat="44.30317" lon="0.83831">
        <ele>195.77</ele>
        <time>2009-10-11T11:28:19Z</time>
      </trkpt>
      <trkpt lat="44.30312" lon="0.83857">
        <ele>198.17</ele>
        <time>2009-10-11T11:28:32Z</time>
      </trkpt>
      <trkpt lat="44.30311" lon="0.83866">
        <ele>199.61</ele>
        <time>2009-10-11T11:28:35Z</time>
      </trkpt>
      <trkpt lat="44.30314" lon="0.83874">
        <ele>200.57</ele>
        <time>2009-10-11T11:28:40Z</time>
      </trkpt>
      <trkpt lat="44.30316" lon="0.83877">
        <ele>200.09</ele>
        <time>2009-10-11T11:28:42Z</time>
      </trkpt>
      <trkpt lat="44.30319" lon="0.83881">
        <ele>200.09</ele>
        <time>2009-10-11T11:28:45Z</time>
      </trkpt>
      <trkpt lat="44.30331" lon="0.83897">
        <ele>201.05</ele>
        <time>2009-10-11T11:28:56Z</time>
      </trkpt>
      <trkpt lat="44.30337" lon="0.83909">
        <ele>201.05</ele>
        <time>2009-10-11T11:29:03Z</time>
      </trkpt>
      <trkpt lat="44.30344" lon="0.83919">
        <ele>201.53</ele>
        <time>2009-10-11T11:29:10Z</time>
      </trkpt>
      <trkpt lat="44.30346" lon="0.83923">
        <ele>201.53</ele>
        <time>2009-10-11T11:29:15Z</time>
      </trkpt>
      <trkpt lat="44.30346" lon="0.8393">
        <ele>201.53</ele>
        <time>2009-10-11T11:29:22Z</time>
      </trkpt>
      <trkpt lat="44.30331" lon="0.8395">
        <ele>202.98</ele>
        <time>2009-10-11T11:29:39Z</time>
      </trkpt>
      <trkpt lat="44.30329" lon="0.83952">
        <ele>203.94</ele>
        <time>2009-10-11T11:29:41Z</time>
      </trkpt>
      <trkpt lat="44.30321" lon="0.8396">
        <ele>203.94</ele>
        <time>2009-10-11T11:29:47Z</time>
      </trkpt>
      <trkpt lat="44.30307" lon="0.83987">
        <ele>205.86</ele>
        <time>2009-10-11T11:30:03Z</time>
      </trkpt>
      <trkpt lat="44.30296" lon="0.84013">
        <ele>207.3</ele>
        <time>2009-10-11T11:30:19Z</time>
      </trkpt>
      <trkpt lat="44.30288" lon="0.84045">
        <ele>208.74</ele>
        <time>2009-10-11T11:30:36Z</time>
      </trkpt>
      <trkpt lat="44.30276" lon="0.84071">
        <ele>209.7</ele>
        <time>2009-10-11T11:30:53Z</time>
      </trkpt>
      <trkpt lat="44.30263" lon="0.84089">
        <ele>211.63</ele>
        <time>2009-10-11T11:31:05Z</time>
      </trkpt>
      <trkpt lat="44.30247" lon="0.84113">
        <ele>212.59</ele>
        <time>2009-10-11T11:31:21Z</time>
      </trkpt>
      <trkpt lat="44.30229" lon="0.84139">
        <ele>213.07</ele>
        <time>2009-10-11T11:31:39Z</time>
      </trkpt>
      <trkpt lat="44.30215" lon="0.8416">
        <ele>214.99</ele>
        <time>2009-10-11T11:31:55Z</time>
      </trkpt>
      <trkpt lat="44.30207" lon="0.8417">
        <ele>215.47</ele>
        <time>2009-10-11T11:32:03Z</time>
      </trkpt>
      <trkpt lat="44.30188" lon="0.84204">
        <ele>215.95</ele>
        <time>2009-10-11T11:32:24Z</time>
      </trkpt>
      <trkpt lat="44.30168" lon="0.84229">
        <ele>217.88</ele>
        <time>2009-10-11T11:32:43Z</time>
      </trkpt>
      <trkpt lat="44.30149" lon="0.84254">
        <ele>217.4</ele>
        <time>2009-10-11T11:33:00Z</time>
      </trkpt>
      <trkpt lat="44.30131" lon="0.84281">
        <ele>215.95</ele>
        <time>2009-10-11T11:33:17Z</time>
      </trkpt>
      <trkpt lat="44.30117" lon="0.843">
        <ele>215.47</ele>
        <time>2009-10-11T11:33:30Z</time>
      </trkpt>
      <trkpt lat="44.30111" lon="0.84307">
        <ele>214.99</ele>
        <time>2009-10-11T11:33:35Z</time>
      </trkpt>
      <trkpt lat="44.30104" lon="0.84318">
        <ele>214.03</ele>
        <time>2009-10-11T11:33:43Z</time>
      </trkpt>
      <trkpt lat="44.30087" lon="0.84309">
        <ele>213.55</ele>
        <time>2009-10-11T11:33:57Z</time>
      </trkpt>
      <trkpt lat="44.30079" lon="0.84294">
        <ele>213.55</ele>
        <time>2009-10-11T11:34:08Z</time>
      </trkpt>
      <trkpt lat="44.30069" lon="0.84296">
        <ele>213.07</ele>
        <time>2009-10-11T11:34:15Z</time>
      </trkpt>
      <trkpt lat="44.3005" lon="0.84313">
        <ele>210.67</ele>
        <time>2009-10-11T11:34:32Z</time>
      </trkpt>
      <trkpt lat="44.30046" lon="0.84318">
        <ele>209.22</ele>
        <time>2009-10-11T11:34:36Z</time>
      </trkpt>
      <trkpt lat="44.30032" lon="0.84332">
        <ele>207.3</ele>
        <time>2009-10-11T11:34:50Z</time>
      </trkpt>
      <trkpt lat="44.3003" lon="0.8434">
        <ele>205.38</ele>
        <time>2009-10-11T11:34:54Z</time>
      </trkpt>
      <trkpt lat="44.30031" lon="0.84354">
        <ele>204.9</ele>
        <time>2009-10-11T11:35:01Z</time>
      </trkpt>
      <trkpt lat="44.30032" lon="0.84362">
        <ele>203.94</ele>
        <time>2009-10-11T11:35:05Z</time>
      </trkpt>
      <trkpt lat="44.3003" lon="0.84369">
        <ele>202.98</ele>
        <time>2009-10-11T11:35:09Z</time>
      </trkpt>
      <trkpt lat="44.30028" lon="0.84381">
        <ele>201.53</ele>
        <time>2009-10-11T11:35:16Z</time>
      </trkpt>
      <trkpt lat="44.30028" lon="0.84397">
        <ele>198.17</ele>
        <time>2009-10-11T11:35:24Z</time>
      </trkpt>
      <trkpt lat="44.30029" lon="0.84405">
        <ele>197.21</ele>
        <time>2009-10-11T11:35:28Z</time>
      </trkpt>
      <trkpt lat="44.30033" lon="0.84412">
        <ele>195.28</ele>
        <time>2009-10-11T11:35:34Z</time>
      </trkpt>
      <trkpt lat="44.30035" lon="0.84421">
        <ele>194.32</ele>
        <time>2009-10-11T11:35:39Z</time>
      </trkpt>
      <trkpt lat="44.30041" lon="0.84441">
        <ele>191.44</ele>
        <time>2009-10-11T11:35:51Z</time>
      </trkpt>
      <trkpt lat="44.30044" lon="0.84454">
        <ele>189.52</ele>
        <time>2009-10-11T11:35:57Z</time>
      </trkpt>
      <trkpt lat="44.30044" lon="0.84461">
        <ele>189.04</ele>
        <time>2009-10-11T11:36:01Z</time>
      </trkpt>
      <trkpt lat="44.30041" lon="0.8447">
        <ele>187.11</ele>
        <time>2009-10-11T11:36:11Z</time>
      </trkpt>
      <trkpt lat="44.3004" lon="0.84469">
        <ele>186.15</ele>
        <time>2009-10-11T11:36:13Z</time>
      </trkpt>
      <trkpt lat="44.30031" lon="0.84466">
        <ele>186.15</ele>
        <time>2009-10-11T11:36:20Z</time>
      </trkpt>
      <trkpt lat="44.30026" lon="0.84466">
        <ele>185.19</ele>
        <time>2009-10-11T11:36:23Z</time>
      </trkpt>
      <trkpt lat="44.30024" lon="0.8448">
        <ele>183.27</ele>
        <time>2009-10-11T11:36:33Z</time>
      </trkpt>
      <trkpt lat="44.30022" lon="0.84488">
        <ele>182.31</ele>
        <time>2009-10-11T11:36:37Z</time>
      </trkpt>
      <trkpt lat="44.30017" lon="0.84515">
        <ele>178.94</ele>
        <time>2009-10-11T11:36:52Z</time>
      </trkpt>
      <trkpt lat="44.30015" lon="0.84522">
        <ele>177.02</ele>
        <time>2009-10-11T11:36:56Z</time>
      </trkpt>
      <trkpt lat="44.30013" lon="0.84531">
        <ele>175.58</ele>
        <time>2009-10-11T11:37:01Z</time>
      </trkpt>
      <trkpt lat="44.30012" lon="0.84535">
        <ele>176.06</ele>
        <time>2009-10-11T11:37:03Z</time>
      </trkpt>
      <trkpt lat="44.30009" lon="0.84555">
        <ele>173.17</ele>
        <time>2009-10-11T11:37:14Z</time>
      </trkpt>
      <trkpt lat="44.30009" lon="0.84563">
        <ele>171.73</ele>
        <time>2009-10-11T11:37:19Z</time>
      </trkpt>
      <trkpt lat="44.30007" lon="0.84579">
        <ele>170.29</ele>
        <time>2009-10-11T11:37:29Z</time>
      </trkpt>
      <trkpt lat="44.29998" lon="0.84599">
        <ele>167.41</ele>
        <time>2009-10-11T11:37:42Z</time>
      </trkpt>
      <trkpt lat="44.29992" lon="0.84612">
        <ele>166.45</ele>
        <time>2009-10-11T11:37:50Z</time>
      </trkpt>
      <trkpt lat="44.29981" lon="0.84644">
        <ele>165</ele>
        <time>2009-10-11T11:38:07Z</time>
      </trkpt>
      <trkpt lat="44.29974" lon="0.84659">
        <ele>163.08</ele>
        <time>2009-10-11T11:38:16Z</time>
      </trkpt>
      <trkpt lat="44.29972" lon="0.84666">
        <ele>161.64</ele>
        <time>2009-10-11T11:38:20Z</time>
      </trkpt>
      <trkpt lat="44.29969" lon="0.84673">
        <ele>161.64</ele>
        <time>2009-10-11T11:38:24Z</time>
      </trkpt>
      <trkpt lat="44.29965" lon="0.84679">
        <ele>161.64</ele>
        <time>2009-10-11T11:38:29Z</time>
      </trkpt>
      <trkpt lat="44.29955" lon="0.84693">
        <ele>160.68</ele>
        <time>2009-10-11T11:38:41Z</time>
      </trkpt>
      <trkpt lat="44.29941" lon="0.84707">
        <ele>158.27</ele>
        <time>2009-10-11T11:38:54Z</time>
      </trkpt>
      <trkpt lat="44.29924" lon="0.8472">
        <ele>155.87</ele>
        <time>2009-10-11T11:39:06Z</time>
      </trkpt>
      <trkpt lat="44.29915" lon="0.84727">
        <ele>155.87</ele>
        <time>2009-10-11T11:39:13Z</time>
      </trkpt>
      <trkpt lat="44.29913" lon="0.84729">
        <ele>156.35</ele>
        <time>2009-10-11T11:39:15Z</time>
      </trkpt>
      <trkpt lat="44.29908" lon="0.84734">
        <ele>156.83</ele>
        <time>2009-10-11T11:39:20Z</time>
      </trkpt>
      <trkpt lat="44.29897" lon="0.84758">
        <ele>154.43</ele>
        <time>2009-10-11T11:39:35Z</time>
      </trkpt>
      <trkpt lat="44.29888" lon="0.84783">
        <ele>153.95</ele>
        <time>2009-10-11T11:39:48Z</time>
      </trkpt>
      <trkpt lat="44.29883" lon="0.84806">
        <ele>152.51</ele>
        <time>2009-10-11T11:40:01Z</time>
      </trkpt>
      <trkpt lat="44.29877" lon="0.84825">
        <ele>152.03</ele>
        <time>2009-10-11T11:40:11Z</time>
      </trkpt>
      <trkpt lat="44.29869" lon="0.84863">
        <ele>151.06</ele>
        <time>2009-10-11T11:40:26Z</time>
      </trkpt>
      <trkpt lat="44.29868" lon="0.84865">
        <ele>151.06</ele>
        <time>2009-10-11T11:40:27Z</time>
      </trkpt>
      <trkpt lat="44.29866" lon="0.84872">
        <ele>151.06</ele>
        <time>2009-10-11T11:40:30Z</time>
      </trkpt>
      <trkpt lat="44.29859" lon="0.84908">
        <ele>149.62</ele>
        <time>2009-10-11T11:40:47Z</time>
      </trkpt>
      <trkpt lat="44.29851" lon="0.84923">
        <ele>149.14</ele>
        <time>2009-10-11T11:40:57Z</time>
      </trkpt>
      <trkpt lat="44.29834" lon="0.84937">
        <ele>148.18</ele>
        <time>2009-10-11T11:41:11Z</time>
      </trkpt>
      <trkpt lat="44.29826" lon="0.8494">
        <ele>147.22</ele>
        <time>2009-10-11T11:41:17Z</time>
      </trkpt>
      <trkpt lat="44.29808" lon="0.84942">
        <ele>147.22</ele>
        <time>2009-10-11T11:41:30Z</time>
      </trkpt>
      <trkpt lat="44.29787" lon="0.84942">
        <ele>145.3</ele>
        <time>2009-10-11T11:41:45Z</time>
      </trkpt>
      <trkpt lat="44.29763" lon="0.84943">
        <ele>144.82</ele>
        <time>2009-10-11T11:41:59Z</time>
      </trkpt>
      <trkpt lat="44.29758" lon="0.84945">
        <ele>144.34</ele>
        <time>2009-10-11T11:42:03Z</time>
      </trkpt>
      <trkpt lat="44.29752" lon="0.84947">
        <ele>143.37</ele>
        <time>2009-10-11T11:42:07Z</time>
      </trkpt>
      <trkpt lat="44.29741" lon="0.84948">
        <ele>141.93</ele>
        <time>2009-10-11T11:42:15Z</time>
      </trkpt>
      <trkpt lat="44.29719" lon="0.84954">
        <ele>141.45</ele>
        <time>2009-10-11T11:42:29Z</time>
      </trkpt>
      <trkpt lat="44.29699" lon="0.84963">
        <ele>140.49</ele>
        <time>2009-10-11T11:42:43Z</time>
      </trkpt>
      <trkpt lat="44.29681" lon="0.84973">
        <ele>139.53</ele>
        <time>2009-10-11T11:42:55Z</time>
      </trkpt>
      <trkpt lat="44.2966" lon="0.84984">
        <ele>139.05</ele>
        <time>2009-10-11T11:43:10Z</time>
      </trkpt>
      <trkpt lat="44.29658" lon="0.84985">
        <ele>138.57</ele>
        <time>2009-10-11T11:43:11Z</time>
      </trkpt>
      <trkpt lat="44.2965" lon="0.84988">
        <ele>138.09</ele>
        <time>2009-10-11T11:43:16Z</time>
      </trkpt>
      <trkpt lat="44.29634" lon="0.84996">
        <ele>138.09</ele>
        <time>2009-10-11T11:43:27Z</time>
      </trkpt>
      <trkpt lat="44.29616" lon="0.85011">
        <ele>136.16</ele>
        <time>2009-10-11T11:43:41Z</time>
      </trkpt>
      <trkpt lat="44.29594" lon="0.8503">
        <ele>135.2</ele>
        <time>2009-10-11T11:44:00Z</time>
      </trkpt>
      <trkpt lat="44.29587" lon="0.85037">
        <ele>134.24</ele>
        <time>2009-10-11T11:44:07Z</time>
      </trkpt>
      <trkpt lat="44.29566" lon="0.85053">
        <ele>133.76</ele>
        <time>2009-10-11T11:44:23Z</time>
      </trkpt>
      <trkpt lat="44.29552" lon="0.85065">
        <ele>131.36</ele>
        <time>2009-10-11T11:44:35Z</time>
      </trkpt>
      <trkpt lat="44.29534" lon="0.85081">
        <ele>130.4</ele>
        <time>2009-10-11T11:44:51Z</time>
      </trkpt>
      <trkpt lat="44.29518" lon="0.85097">
        <ele>130.88</ele>
        <time>2009-10-11T11:45:05Z</time>
      </trkpt>
      <trkpt lat="44.29511" lon="0.85108">
        <ele>130.4</ele>
        <time>2009-10-11T11:45:12Z</time>
      </trkpt>
      <trkpt lat="44.29498" lon="0.85132">
        <ele>130.88</ele>
        <time>2009-10-11T11:45:28Z</time>
      </trkpt>
      <trkpt lat="44.29489" lon="0.85164">
        <ele>129.92</ele>
        <time>2009-10-11T11:45:43Z</time>
      </trkpt>
      <trkpt lat="44.29489" lon="0.85166">
        <ele>130.88</ele>
        <time>2009-10-11T11:45:44Z</time>
      </trkpt>
      <trkpt lat="44.29488" lon="0.85174">
        <ele>130.88</ele>
        <time>2009-10-11T11:45:49Z</time>
      </trkpt>
      <trkpt lat="44.29484" lon="0.852">
        <ele>130.88</ele>
        <time>2009-10-11T11:46:03Z</time>
      </trkpt>
      <trkpt lat="44.29478" lon="0.85222">
        <ele>130.88</ele>
        <time>2009-10-11T11:46:16Z</time>
      </trkpt>
      <trkpt lat="44.29471" lon="0.85252">
        <ele>130.88</ele>
        <time>2009-10-11T11:46:32Z</time>
      </trkpt>
      <trkpt lat="44.29467" lon="0.85277">
        <ele>131.84</ele>
        <time>2009-10-11T11:46:46Z</time>
      </trkpt>
      <trkpt lat="44.29448" lon="0.8531">
        <ele>131.36</ele>
        <time>2009-10-11T11:47:05Z</time>
      </trkpt>
      <trkpt lat="44.29429" lon="0.85325">
        <ele>129.92</ele>
        <time>2009-10-11T11:47:19Z</time>
      </trkpt>
      <trkpt lat="44.29416" lon="0.8534">
        <ele>128.95</ele>
        <time>2009-10-11T11:47:34Z</time>
      </trkpt>
      <trkpt lat="44.29412" lon="0.85346">
        <ele>127.51</ele>
        <time>2009-10-11T11:47:39Z</time>
      </trkpt>
      <trkpt lat="44.29408" lon="0.85349">
        <ele>128.47</ele>
        <time>2009-10-11T11:47:43Z</time>
      </trkpt>
      <trkpt lat="44.29408" lon="0.85353">
        <ele>128.95</ele>
        <time>2009-10-11T11:47:46Z</time>
      </trkpt>
      <trkpt lat="44.29404" lon="0.85367">
        <ele>128.95</ele>
        <time>2009-10-11T11:47:56Z</time>
      </trkpt>
      <trkpt lat="44.29396" lon="0.85393">
        <ele>128.95</ele>
        <time>2009-10-11T11:48:10Z</time>
      </trkpt>
      <trkpt lat="44.2939" lon="0.85408">
        <ele>129.92</ele>
        <time>2009-10-11T11:48:20Z</time>
      </trkpt>
      <trkpt lat="44.29353" lon="0.85492">
        <ele>128.95</ele>
        <time>2009-10-11T11:56:10Z</time>
      </trkpt>
      <trkpt lat="44.29331" lon="0.85512">
        <ele>127.99</ele>
        <time>2009-10-11T11:56:26Z</time>
      </trkpt>
      <trkpt lat="44.2933" lon="0.85513">
        <ele>127.99</ele>
        <time>2009-10-11T11:56:27Z</time>
      </trkpt>
      <trkpt lat="44.29318" lon="0.85525">
        <ele>127.99</ele>
        <time>2009-10-11T11:56:37Z</time>
      </trkpt>
      <trkpt lat="44.29312" lon="0.8553">
        <ele>127.51</ele>
        <time>2009-10-11T11:56:42Z</time>
      </trkpt>
      <trkpt lat="44.29304" lon="0.85538">
        <ele>127.51</ele>
        <time>2009-10-11T11:56:47Z</time>
      </trkpt>
      <trkpt lat="44.29289" lon="0.85555">
        <ele>128.47</ele>
        <time>2009-10-11T11:56:59Z</time>
      </trkpt>
      <trkpt lat="44.29277" lon="0.85575">
        <ele>127.99</ele>
        <time>2009-10-11T11:57:13Z</time>
      </trkpt>
      <trkpt lat="44.2927" lon="0.8558">
        <ele>127.99</ele>
        <time>2009-10-11T11:57:33Z</time>
      </trkpt>
      <trkpt lat="44.29266" lon="0.85582">
        <ele>128.47</ele>
        <time>2009-10-11T11:57:36Z</time>
      </trkpt>
      <trkpt lat="44.29262" lon="0.85584">
        <ele>127.99</ele>
        <time>2009-10-11T11:57:40Z</time>
      </trkpt>
      <trkpt lat="44.29257" lon="0.85589">
        <ele>125.11</ele>
        <time>2009-10-11T11:57:45Z</time>
      </trkpt>
      <trkpt lat="44.2925" lon="0.85595">
        <ele>126.07</ele>
        <time>2009-10-11T11:57:51Z</time>
      </trkpt>
      <trkpt lat="44.29247" lon="0.85601">
        <ele>125.59</ele>
        <time>2009-10-11T11:57:55Z</time>
      </trkpt>
      <trkpt lat="44.29239" lon="0.85616">
        <ele>125.11</ele>
        <time>2009-10-11T11:58:06Z</time>
      </trkpt>
      <trkpt lat="44.29233" lon="0.85634">
        <ele>127.99</ele>
        <time>2009-10-11T11:58:17Z</time>
      </trkpt>
      <trkpt lat="44.29231" lon="0.85636">
        <ele>127.99</ele>
        <time>2009-10-11T11:58:19Z</time>
      </trkpt>
      <trkpt lat="44.29216" lon="0.85651">
        <ele>127.51</ele>
        <time>2009-10-11T11:58:32Z</time>
      </trkpt>
      <trkpt lat="44.29211" lon="0.85656">
        <ele>127.99</ele>
        <time>2009-10-11T11:58:36Z</time>
      </trkpt>
      <trkpt lat="44.29202" lon="0.85665">
        <ele>127.51</ele>
        <time>2009-10-11T11:58:43Z</time>
      </trkpt>
      <trkpt lat="44.29184" lon="0.85691">
        <ele>127.03</ele>
        <time>2009-10-11T11:58:59Z</time>
      </trkpt>
      <trkpt lat="44.29168" lon="0.8571">
        <ele>126.07</ele>
        <time>2009-10-11T11:59:13Z</time>
      </trkpt>
      <trkpt lat="44.29153" lon="0.85725">
        <ele>125.11</ele>
        <time>2009-10-11T11:59:27Z</time>
      </trkpt>
      <trkpt lat="44.29138" lon="0.85743">
        <ele>125.11</ele>
        <time>2009-10-11T11:59:41Z</time>
      </trkpt>
      <trkpt lat="44.29133" lon="0.85748">
        <ele>124.63</ele>
        <time>2009-10-11T11:59:45Z</time>
      </trkpt>
      <trkpt lat="44.29129" lon="0.85758">
        <ele>125.11</ele>
        <time>2009-10-11T11:59:52Z</time>
      </trkpt>
      <trkpt lat="44.29127" lon="0.85761">
        <ele>124.63</ele>
        <time>2009-10-11T11:59:54Z</time>
      </trkpt>
      <trkpt lat="44.29118" lon="0.85776">
        <ele>125.11</ele>
        <time>2009-10-11T12:00:05Z</time>
      </trkpt>
      <trkpt lat="44.29117" lon="0.85777">
        <ele>125.59</ele>
        <time>2009-10-11T12:00:06Z</time>
      </trkpt>
      <trkpt lat="44.2911" lon="0.85799">
        <ele>124.63</ele>
        <time>2009-10-11T12:00:18Z</time>
      </trkpt>
      <trkpt lat="44.29101" lon="0.85812">
        <ele>124.63</ele>
        <time>2009-10-11T12:00:27Z</time>
      </trkpt>
      <trkpt lat="44.29096" lon="0.85822">
        <ele>123.67</ele>
        <time>2009-10-11T12:00:32Z</time>
      </trkpt>
      <trkpt lat="44.29082" lon="0.85847">
        <ele>124.15</ele>
        <time>2009-10-11T12:04:56Z</time>
      </trkpt>
      <trkpt lat="44.29074" lon="0.85855">
        <ele>122.71</ele>
        <time>2009-10-11T12:05:02Z</time>
      </trkpt>
      <trkpt lat="44.29073" lon="0.85858">
        <ele>123.19</ele>
        <time>2009-10-11T12:05:03Z</time>
      </trkpt>
      <trkpt lat="44.29064" lon="0.8588">
        <ele>120.78</ele>
        <time>2009-10-11T12:05:17Z</time>
      </trkpt>
      <trkpt lat="44.29052" lon="0.85899">
        <ele>118.38</ele>
        <time>2009-10-11T12:05:31Z</time>
      </trkpt>
      <trkpt lat="44.29035" lon="0.85931">
        <ele>117.9</ele>
        <time>2009-10-11T12:05:50Z</time>
      </trkpt>
      <trkpt lat="44.2903" lon="0.8594">
        <ele>117.42</ele>
        <time>2009-10-11T12:05:55Z</time>
      </trkpt>
      <trkpt lat="44.29018" lon="0.85957">
        <ele>116.46</ele>
        <time>2009-10-11T12:06:05Z</time>
      </trkpt>
      <trkpt lat="44.29001" lon="0.8598">
        <ele>113.57</ele>
        <time>2009-10-11T12:06:19Z</time>
      </trkpt>
      <trkpt lat="44.28992" lon="0.86005">
        <ele>112.61</ele>
        <time>2009-10-11T12:06:33Z</time>
      </trkpt>
      <trkpt lat="44.28981" lon="0.86027">
        <ele>112.13</ele>
        <time>2009-10-11T12:06:46Z</time>
      </trkpt>
      <trkpt lat="44.28975" lon="0.86038">
        <ele>111.65</ele>
        <time>2009-10-11T12:07:04Z</time>
      </trkpt>
      <trkpt lat="44.28966" lon="0.86055">
        <ele>111.17</ele>
        <time>2009-10-11T12:07:24Z</time>
      </trkpt>
      <trkpt lat="44.28962" lon="0.8606">
        <ele>110.21</ele>
        <time>2009-10-11T12:07:28Z</time>
      </trkpt>
      <trkpt lat="44.28945" lon="0.8608">
        <ele>109.73</ele>
        <time>2009-10-11T12:07:44Z</time>
      </trkpt>
      <trkpt lat="44.2894" lon="0.86085">
        <ele>109.25</ele>
        <time>2009-10-11T12:07:59Z</time>
      </trkpt>
      <trkpt lat="44.28939" lon="0.86086">
        <ele>109.25</ele>
        <time>2009-10-11T12:08:12Z</time>
      </trkpt>
      <trkpt lat="44.28936" lon="0.86091">
        <ele>110.21</ele>
        <time>2009-10-11T12:08:16Z</time>
      </trkpt>
      <trkpt lat="44.2893" lon="0.86102">
        <ele>109.73</ele>
        <time>2009-10-11T12:08:27Z</time>
      </trkpt>
      <trkpt lat="44.28928" lon="0.86104">
        <ele>109.25</ele>
        <time>2009-10-11T12:08:30Z</time>
      </trkpt>
      <trkpt lat="44.28921" lon="0.8611">
        <ele>109.25</ele>
        <time>2009-10-11T12:08:37Z</time>
      </trkpt>
      <trkpt lat="44.2891" lon="0.86125">
        <ele>109.25</ele>
        <time>2009-10-11T12:08:47Z</time>
      </trkpt>
      <trkpt lat="44.28907" lon="0.86129">
        <ele>108.77</ele>
        <time>2009-10-11T12:08:51Z</time>
      </trkpt>
      <trkpt lat="44.28905" lon="0.86133">
        <ele>108.77</ele>
        <time>2009-10-11T12:08:54Z</time>
      </trkpt>
      <trkpt lat="44.28901" lon="0.86138">
        <ele>108.77</ele>
        <time>2009-10-11T12:08:58Z</time>
      </trkpt>
      <trkpt lat="44.28896" lon="0.86164">
        <ele>109.25</ele>
        <time>2009-10-11T12:09:15Z</time>
      </trkpt>
      <trkpt lat="44.28896" lon="0.86174">
        <ele>110.69</ele>
        <time>2009-10-11T12:10:04Z</time>
      </trkpt>
      <trkpt lat="44.28894" lon="0.86193">
        <ele>112.61</ele>
        <time>2009-10-11T12:10:17Z</time>
      </trkpt>
      <trkpt lat="44.28891" lon="0.86209">
        <ele>113.57</ele>
        <time>2009-10-11T12:10:27Z</time>
      </trkpt>
      <trkpt lat="44.2889" lon="0.86223">
        <ele>115.01</ele>
        <time>2009-10-11T12:10:34Z</time>
      </trkpt>
      <trkpt lat="44.2889" lon="0.86231">
        <ele>116.94</ele>
        <time>2009-10-11T12:10:38Z</time>
      </trkpt>
      <trkpt lat="44.28891" lon="0.86252">
        <ele>120.3</ele>
        <time>2009-10-11T12:10:51Z</time>
      </trkpt>
      <trkpt lat="44.28893" lon="0.86266">
        <ele>121.74</ele>
        <time>2009-10-11T12:10:59Z</time>
      </trkpt>
      <trkpt lat="44.28895" lon="0.86275">
        <ele>122.71</ele>
        <time>2009-10-11T12:11:04Z</time>
      </trkpt>
      <trkpt lat="44.28897" lon="0.86281">
        <ele>124.15</ele>
        <time>2009-10-11T12:11:08Z</time>
      </trkpt>
      <trkpt lat="44.28899" lon="0.86285">
        <ele>124.63</ele>
        <time>2009-10-11T12:11:11Z</time>
      </trkpt>
      <trkpt lat="44.28898" lon="0.86301">
        <ele>126.55</ele>
        <time>2009-10-11T12:11:21Z</time>
      </trkpt>
      <trkpt lat="44.28898" lon="0.86306">
        <ele>127.51</ele>
        <time>2009-10-11T12:11:24Z</time>
      </trkpt>
      <trkpt lat="44.289" lon="0.86318">
        <ele>129.43</ele>
        <time>2009-10-11T12:11:32Z</time>
      </trkpt>
      <trkpt lat="44.28899" lon="0.86325">
        <ele>128.47</ele>
        <time>2009-10-11T12:11:37Z</time>
      </trkpt>
      <trkpt lat="44.289" lon="0.86327">
        <ele>129.92</ele>
        <time>2009-10-11T12:11:39Z</time>
      </trkpt>
      <trkpt lat="44.28902" lon="0.86334">
        <ele>132.32</ele>
        <time>2009-10-11T12:11:46Z</time>
      </trkpt>
      <trkpt lat="44.28902" lon="0.86339">
        <ele>131.84</ele>
        <time>2009-10-11T12:11:58Z</time>
      </trkpt>
      <trkpt lat="44.28902" lon="0.86347">
        <ele>132.8</ele>
        <time>2009-10-11T12:12:06Z</time>
      </trkpt>
      <trkpt lat="44.28897" lon="0.86368">
        <ele>133.28</ele>
        <time>2009-10-11T12:12:20Z</time>
      </trkpt>
      <trkpt lat="44.28895" lon="0.86377">
        <ele>133.76</ele>
        <time>2009-10-11T12:12:26Z</time>
      </trkpt>
      <trkpt lat="44.28896" lon="0.86382">
        <ele>133.76</ele>
        <time>2009-10-11T12:12:29Z</time>
      </trkpt>
      <trkpt lat="44.28897" lon="0.86395">
        <ele>132.32</ele>
        <time>2009-10-11T12:12:44Z</time>
      </trkpt>
      <trkpt lat="44.28897" lon="0.86395">
        <ele>133.76</ele>
        <time>2009-10-11T12:12:46Z</time>
      </trkpt>
      <trkpt lat="44.28899" lon="0.86399">
        <ele>133.28</ele>
        <time>2009-10-11T12:12:52Z</time>
      </trkpt>
      <trkpt lat="44.28896" lon="0.86404">
        <ele>132.8</ele>
        <time>2009-10-11T12:13:05Z</time>
      </trkpt>
      <trkpt lat="44.28914" lon="0.8641">
        <ele>133.76</ele>
        <time>2009-10-11T12:13:19Z</time>
      </trkpt>
      <trkpt lat="44.28917" lon="0.86412">
        <ele>134.24</ele>
        <time>2009-10-11T12:13:21Z</time>
      </trkpt>
      <trkpt lat="44.2893" lon="0.86421">
        <ele>132.8</ele>
        <time>2009-10-11T12:13:31Z</time>
      </trkpt>
      <trkpt lat="44.28934" lon="0.86425">
        <ele>134.24</ele>
        <time>2009-10-11T12:13:35Z</time>
      </trkpt>
      <trkpt lat="44.28951" lon="0.86443">
        <ele>134.24</ele>
        <time>2009-10-11T12:13:50Z</time>
      </trkpt>
      <trkpt lat="44.28964" lon="0.86461">
        <ele>134.24</ele>
        <time>2009-10-11T12:14:03Z</time>
      </trkpt>
      <trkpt lat="44.28977" lon="0.86484">
        <ele>135.2</ele>
        <time>2009-10-11T12:14:17Z</time>
      </trkpt>
      <trkpt lat="44.28981" lon="0.8649">
        <ele>135.2</ele>
        <time>2009-10-11T12:14:21Z</time>
      </trkpt>
      <trkpt lat="44.28986" lon="0.86494">
        <ele>136.16</ele>
        <time>2009-10-11T12:14:36Z</time>
      </trkpt>
      <trkpt lat="44.28997" lon="0.8651">
        <ele>136.64</ele>
        <time>2009-10-11T12:14:51Z</time>
      </trkpt>
      <trkpt lat="44.29004" lon="0.8652">
        <ele>136.64</ele>
        <time>2009-10-11T12:14:58Z</time>
      </trkpt>
      <trkpt lat="44.29022" lon="0.86534">
        <ele>137.13</ele>
        <time>2009-10-11T12:15:13Z</time>
      </trkpt>
      <trkpt lat="44.29025" lon="0.86542">
        <ele>137.61</ele>
        <time>2009-10-11T12:15:18Z</time>
      </trkpt>
      <trkpt lat="44.29026" lon="0.86549">
        <ele>138.57</ele>
        <time>2009-10-11T12:15:23Z</time>
      </trkpt>
      <trkpt lat="44.29033" lon="0.86559">
        <ele>139.05</ele>
        <time>2009-10-11T12:15:31Z</time>
      </trkpt>
      <trkpt lat="44.29035" lon="0.86568">
        <ele>140.01</ele>
        <time>2009-10-11T12:15:43Z</time>
      </trkpt>
      <trkpt lat="44.29039" lon="0.8659">
        <ele>140.97</ele>
        <time>2009-10-11T12:15:54Z</time>
      </trkpt>
      <trkpt lat="44.29043" lon="0.86611">
        <ele>140.97</ele>
        <time>2009-10-11T12:16:05Z</time>
      </trkpt>
      <trkpt lat="44.29054" lon="0.8664">
        <ele>141.45</ele>
        <time>2009-10-11T12:16:19Z</time>
      </trkpt>
      <trkpt lat="44.2906" lon="0.8667">
        <ele>141.45</ele>
        <time>2009-10-11T12:16:35Z</time>
      </trkpt>
      <trkpt lat="44.29068" lon="0.86693">
        <ele>141.45</ele>
        <time>2009-10-11T12:16:47Z</time>
      </trkpt>
      <trkpt lat="44.29074" lon="0.86706">
        <ele>142.89</ele>
        <time>2009-10-11T12:16:55Z</time>
      </trkpt>
      <trkpt lat="44.29078" lon="0.86731">
        <ele>143.85</ele>
        <time>2009-10-11T12:17:08Z</time>
      </trkpt>
      <trkpt lat="44.29082" lon="0.86748">
        <ele>147.22</ele>
        <time>2009-10-11T12:17:22Z</time>
      </trkpt>
      <trkpt lat="44.29098" lon="0.86767">
        <ele>148.18</ele>
        <time>2009-10-11T12:17:35Z</time>
      </trkpt>
      <trkpt lat="44.29109" lon="0.86787">
        <ele>149.62</ele>
        <time>2009-10-11T12:17:47Z</time>
      </trkpt>
      <trkpt lat="44.29121" lon="0.86801">
        <ele>148.18</ele>
        <time>2009-10-11T12:18:00Z</time>
      </trkpt>
      <trkpt lat="44.29138" lon="0.86822">
        <ele>146.26</ele>
        <time>2009-10-11T12:18:14Z</time>
      </trkpt>
      <trkpt lat="44.29151" lon="0.86836">
        <ele>144.82</ele>
        <time>2009-10-11T12:18:28Z</time>
      </trkpt>
      <trkpt lat="44.29152" lon="0.86837">
        <ele>144.34</ele>
        <time>2009-10-11T12:18:29Z</time>
      </trkpt>
      <trkpt lat="44.29159" lon="0.86846">
        <ele>142.41</ele>
        <time>2009-10-11T12:18:36Z</time>
      </trkpt>
      <trkpt lat="44.29175" lon="0.86873">
        <ele>140.49</ele>
        <time>2009-10-11T12:18:53Z</time>
      </trkpt>
      <trkpt lat="44.29177" lon="0.86876">
        <ele>139.53</ele>
        <time>2009-10-11T12:18:55Z</time>
      </trkpt>
      <trkpt lat="44.29188" lon="0.86894">
        <ele>137.61</ele>
        <time>2009-10-11T12:19:09Z</time>
      </trkpt>
      <trkpt lat="44.29194" lon="0.86902">
        <ele>137.61</ele>
        <time>2009-10-11T12:19:13Z</time>
      </trkpt>
      <trkpt lat="44.29193" lon="0.86909">
        <ele>137.61</ele>
        <time>2009-10-11T12:19:17Z</time>
      </trkpt>
      <trkpt lat="44.2918" lon="0.86919">
        <ele>136.16</ele>
        <time>2009-10-11T12:19:32Z</time>
      </trkpt>
      <trkpt lat="44.29176" lon="0.86922">
        <ele>136.16</ele>
        <time>2009-10-11T12:19:47Z</time>
      </trkpt>
      <trkpt lat="44.29176" lon="0.86922">
        <ele>136.16</ele>
        <time>2009-10-11T12:19:48Z</time>
      </trkpt>
      <trkpt lat="44.29146" lon="0.86934">
        <ele>135.2</ele>
        <time>2009-10-11T12:20:08Z</time>
      </trkpt>
      <trkpt lat="44.2913" lon="0.86943">
        <ele>135.2</ele>
        <time>2009-10-11T12:20:19Z</time>
      </trkpt>
      <trkpt lat="44.29109" lon="0.8696">
        <ele>133.76</ele>
        <time>2009-10-11T12:20:36Z</time>
      </trkpt>
      <trkpt lat="44.2909" lon="0.86972">
        <ele>132.32</ele>
        <time>2009-10-11T12:20:49Z</time>
      </trkpt>
      <trkpt lat="44.29069" lon="0.86983">
        <ele>130.88</ele>
        <time>2009-10-11T12:21:05Z</time>
      </trkpt>
      <trkpt lat="44.2906" lon="0.86987">
        <ele>130.88</ele>
        <time>2009-10-11T12:21:12Z</time>
      </trkpt>
      <trkpt lat="44.29054" lon="0.86992">
        <ele>129.43</ele>
        <time>2009-10-11T12:21:16Z</time>
      </trkpt>
      <trkpt lat="44.29042" lon="0.86994">
        <ele>129.43</ele>
        <time>2009-10-11T12:21:23Z</time>
      </trkpt>
      <trkpt lat="44.29021" lon="0.87006">
        <ele>128.47</ele>
        <time>2009-10-11T12:21:37Z</time>
      </trkpt>
      <trkpt lat="44.29005" lon="0.87015">
        <ele>127.03</ele>
        <time>2009-10-11T12:21:48Z</time>
      </trkpt>
      <trkpt lat="44.28989" lon="0.87022">
        <ele>125.11</ele>
        <time>2009-10-11T12:21:59Z</time>
      </trkpt>
      <trkpt lat="44.28974" lon="0.87028">
        <ele>124.63</ele>
        <time>2009-10-11T12:22:09Z</time>
      </trkpt>
      <trkpt lat="44.28952" lon="0.87035">
        <ele>123.19</ele>
        <time>2009-10-11T12:22:23Z</time>
      </trkpt>
      <trkpt lat="44.2893" lon="0.87037">
        <ele>122.22</ele>
        <time>2009-10-11T12:22:35Z</time>
      </trkpt>
      <trkpt lat="44.28922" lon="0.87043">
        <ele>121.26</ele>
        <time>2009-10-11T12:22:42Z</time>
      </trkpt>
      <trkpt lat="44.28906" lon="0.87044">
        <ele>120.78</ele>
        <time>2009-10-11T12:22:52Z</time>
      </trkpt>
      <trkpt lat="44.289" lon="0.87045">
        <ele>120.78</ele>
        <time>2009-10-11T12:22:56Z</time>
      </trkpt>
      <trkpt lat="44.28892" lon="0.87048">
        <ele>120.3</ele>
        <time>2009-10-11T12:23:01Z</time>
      </trkpt>
      <trkpt lat="44.28868" lon="0.87052">
        <ele>117.42</ele>
        <time>2009-10-11T12:23:15Z</time>
      </trkpt>
      <trkpt lat="44.2885" lon="0.87051">
        <ele>116.46</ele>
        <time>2009-10-11T12:23:25Z</time>
      </trkpt>
      <trkpt lat="44.28835" lon="0.87059">
        <ele>115.5</ele>
        <time>2009-10-11T12:23:39Z</time>
      </trkpt>
      <trkpt lat="44.2883" lon="0.8706">
        <ele>114.53</ele>
        <time>2009-10-11T12:23:43Z</time>
      </trkpt>
      <trkpt lat="44.28812" lon="0.87059">
        <ele>114.05</ele>
        <time>2009-10-11T12:23:54Z</time>
      </trkpt>
      <trkpt lat="44.28796" lon="0.8706">
        <ele>111.65</ele>
        <time>2009-10-11T12:24:05Z</time>
      </trkpt>
      <trkpt lat="44.28795" lon="0.8706">
        <ele>112.13</ele>
        <time>2009-10-11T12:24:06Z</time>
      </trkpt>
      <trkpt lat="44.28789" lon="0.87059">
        <ele>111.17</ele>
        <time>2009-10-11T12:24:09Z</time>
      </trkpt>
      <trkpt lat="44.28772" lon="0.87052">
        <ele>110.21</ele>
        <time>2009-10-11T12:24:18Z</time>
      </trkpt>
      <trkpt lat="44.28769" lon="0.87052">
        <ele>109.25</ele>
        <time>2009-10-11T12:24:20Z</time>
      </trkpt>
      <trkpt lat="44.2875" lon="0.87051">
        <ele>107.81</ele>
        <time>2009-10-11T12:24:31Z</time>
      </trkpt>
      <trkpt lat="44.28748" lon="0.87051">
        <ele>107.32</ele>
        <time>2009-10-11T12:24:32Z</time>
      </trkpt>
      <trkpt lat="44.2873" lon="0.8705">
        <ele>106.36</ele>
        <time>2009-10-11T12:24:43Z</time>
      </trkpt>
      <trkpt lat="44.28724" lon="0.87049">
        <ele>106.36</ele>
        <time>2009-10-11T12:24:47Z</time>
      </trkpt>
      <trkpt lat="44.28716" lon="0.8705">
        <ele>105.4</ele>
        <time>2009-10-11T12:24:52Z</time>
      </trkpt>
      <trkpt lat="44.28694" lon="0.87056">
        <ele>104.44</ele>
        <time>2009-10-11T12:25:06Z</time>
      </trkpt>
      <trkpt lat="44.28674" lon="0.87064">
        <ele>102.52</ele>
        <time>2009-10-11T12:25:19Z</time>
      </trkpt>
      <trkpt lat="44.28664" lon="0.87066">
        <ele>102.04</ele>
        <time>2009-10-11T12:25:25Z</time>
      </trkpt>
      <trkpt lat="44.28658" lon="0.87071">
        <ele>101.08</ele>
        <time>2009-10-11T12:25:30Z</time>
      </trkpt>
      <trkpt lat="44.28632" lon="0.87081">
        <ele>99.63</ele>
        <time>2009-10-11T12:25:46Z</time>
      </trkpt>
      <trkpt lat="44.28609" lon="0.87093">
        <ele>98.67</ele>
        <time>2009-10-11T12:26:01Z</time>
      </trkpt>
      <trkpt lat="44.28587" lon="0.87103">
        <ele>97.23</ele>
        <time>2009-10-11T12:26:17Z</time>
      </trkpt>
      <trkpt lat="44.28576" lon="0.87104">
        <ele>97.23</ele>
        <time>2009-10-11T12:26:25Z</time>
      </trkpt>
      <trkpt lat="44.28551" lon="0.87099">
        <ele>95.79</ele>
        <time>2009-10-11T12:26:40Z</time>
      </trkpt>
      <trkpt lat="44.28539" lon="0.87097">
        <ele>96.27</ele>
        <time>2009-10-11T12:26:48Z</time>
      </trkpt>
      <trkpt lat="44.28529" lon="0.87094">
        <ele>95.31</ele>
        <time>2009-10-11T12:26:55Z</time>
      </trkpt>
      <trkpt lat="44.28511" lon="0.87075">
        <ele>94.35</ele>
        <time>2009-10-11T12:27:09Z</time>
      </trkpt>
      <trkpt lat="44.28507" lon="0.87064">
        <ele>94.35</ele>
        <time>2009-10-11T12:27:15Z</time>
      </trkpt>
      <trkpt lat="44.28496" lon="0.87043">
        <ele>94.83</ele>
        <time>2009-10-11T12:27:27Z</time>
      </trkpt>
      <trkpt lat="44.28488" lon="0.87024">
        <ele>94.35</ele>
        <time>2009-10-11T12:27:38Z</time>
      </trkpt>
      <trkpt lat="44.2848" lon="0.87002">
        <ele>94.83</ele>
        <time>2009-10-11T12:27:50Z</time>
      </trkpt>
      <trkpt lat="44.28479" lon="0.87">
        <ele>94.35</ele>
        <time>2009-10-11T12:27:51Z</time>
      </trkpt>
      <trkpt lat="44.28461" lon="0.86972">
        <ele>94.83</ele>
        <time>2009-10-11T12:28:07Z</time>
      </trkpt>
      <trkpt lat="44.28455" lon="0.86968">
        <ele>93.87</ele>
        <time>2009-10-11T12:28:11Z</time>
      </trkpt>
      <trkpt lat="44.28433" lon="0.86972">
        <ele>94.35</ele>
        <time>2009-10-11T12:28:24Z</time>
      </trkpt>
      <trkpt lat="44.28414" lon="0.86981">
        <ele>93.39</ele>
        <time>2009-10-11T12:28:37Z</time>
      </trkpt>
      <trkpt lat="44.28395" lon="0.86986">
        <ele>93.39</ele>
        <time>2009-10-11T12:28:49Z</time>
      </trkpt>
      <trkpt lat="44.28375" lon="0.86993">
        <ele>93.39</ele>
        <time>2009-10-11T12:29:02Z</time>
      </trkpt>
      <trkpt lat="44.28358" lon="0.87001">
        <ele>92.9</ele>
        <time>2009-10-11T12:29:15Z</time>
      </trkpt>
      <trkpt lat="44.28348" lon="0.87003">
        <ele>92.42</ele>
        <time>2009-10-11T12:29:21Z</time>
      </trkpt>
      <trkpt lat="44.28338" lon="0.87007">
        <ele>92.9</ele>
        <time>2009-10-11T12:29:27Z</time>
      </trkpt>
      <trkpt lat="44.2832" lon="0.87018">
        <ele>93.39</ele>
        <time>2009-10-11T12:29:41Z</time>
      </trkpt>
      <trkpt lat="44.28304" lon="0.87024">
        <ele>92.42</ele>
        <time>2009-10-11T12:29:51Z</time>
      </trkpt>
      <trkpt lat="44.28281" lon="0.87032">
        <ele>93.39</ele>
        <time>2009-10-11T12:30:06Z</time>
      </trkpt>
      <trkpt lat="44.28258" lon="0.87034">
        <ele>92.42</ele>
        <time>2009-10-11T12:30:21Z</time>
      </trkpt>
      <trkpt lat="44.28235" lon="0.87035">
        <ele>92.42</ele>
        <time>2009-10-11T12:30:36Z</time>
      </trkpt>
      <trkpt lat="44.28216" lon="0.87035">
        <ele>93.39</ele>
        <time>2009-10-11T12:30:49Z</time>
      </trkpt>
      <trkpt lat="44.28198" lon="0.87034">
        <ele>92.9</ele>
        <time>2009-10-11T12:31:02Z</time>
      </trkpt>
      <trkpt lat="44.28195" lon="0.87033">
        <ele>93.39</ele>
        <time>2009-10-11T12:31:03Z</time>
      </trkpt>
      <trkpt lat="44.28185" lon="0.87032">
        <ele>92.42</ele>
        <time>2009-10-11T12:31:09Z</time>
      </trkpt>
      <trkpt lat="44.28163" lon="0.8703">
        <ele>92.9</ele>
        <time>2009-10-11T12:31:24Z</time>
      </trkpt>
      <trkpt lat="44.28161" lon="0.8703">
        <ele>92.9</ele>
        <time>2009-10-11T12:31:25Z</time>
      </trkpt>
      <trkpt lat="44.2814" lon="0.87023">
        <ele>91.94</ele>
        <time>2009-10-11T12:31:36Z</time>
      </trkpt>
      <trkpt lat="44.28135" lon="0.87022">
        <ele>93.39</ele>
        <time>2009-10-11T12:31:40Z</time>
      </trkpt>
      <trkpt lat="44.28125" lon="0.87022">
        <ele>92.9</ele>
        <time>2009-10-11T12:31:46Z</time>
      </trkpt>
      <trkpt lat="44.28116" lon="0.87023">
        <ele>92.42</ele>
        <time>2009-10-11T12:31:53Z</time>
      </trkpt>
      <trkpt lat="44.28108" lon="0.87024">
        <ele>93.39</ele>
        <time>2009-10-11T12:31:58Z</time>
      </trkpt>
      <trkpt lat="44.28087" lon="0.87025">
        <ele>92.9</ele>
        <time>2009-10-11T12:32:10Z</time>
      </trkpt>
      <trkpt lat="44.28074" lon="0.87035">
        <ele>92.9</ele>
        <time>2009-10-11T12:32:20Z</time>
      </trkpt>
      <trkpt lat="44.2807" lon="0.87037">
        <ele>92.9</ele>
        <time>2009-10-11T12:32:23Z</time>
      </trkpt>
      <trkpt lat="44.28052" lon="0.87048">
        <ele>93.39</ele>
        <time>2009-10-11T12:32:35Z</time>
      </trkpt>
      <trkpt lat="44.28034" lon="0.87062">
        <ele>93.87</ele>
        <time>2009-10-11T12:32:48Z</time>
      </trkpt>
      <trkpt lat="44.28018" lon="0.87071">
        <ele>93.87</ele>
        <time>2009-10-11T12:33:00Z</time>
      </trkpt>
      <trkpt lat="44.28012" lon="0.87077">
        <ele>94.35</ele>
        <time>2009-10-11T12:33:06Z</time>
      </trkpt>
      <trkpt lat="44.2801" lon="0.87079">
        <ele>94.35</ele>
        <time>2009-10-11T12:33:08Z</time>
      </trkpt>
      <trkpt lat="44.27992" lon="0.871">
        <ele>96.27</ele>
        <time>2009-10-11T12:33:24Z</time>
      </trkpt>
      <trkpt lat="44.27985" lon="0.87133">
        <ele>96.27</ele>
        <time>2009-10-11T12:33:40Z</time>
      </trkpt>
      <trkpt lat="44.27982" lon="0.87145">
        <ele>96.75</ele>
        <time>2009-10-11T12:33:46Z</time>
      </trkpt>
      <trkpt lat="44.2798" lon="0.87153">
        <ele>96.75</ele>
        <time>2009-10-11T12:33:50Z</time>
      </trkpt>
      <trkpt lat="44.27979" lon="0.87156">
        <ele>96.75</ele>
        <time>2009-10-11T12:33:52Z</time>
      </trkpt>
      <trkpt lat="44.27976" lon="0.87172">
        <ele>98.19</ele>
        <time>2009-10-11T12:34:01Z</time>
      </trkpt>
      <trkpt lat="44.27975" lon="0.87178">
        <ele>98.67</ele>
        <time>2009-10-11T12:34:04Z</time>
      </trkpt>
      <trkpt lat="44.27975" lon="0.87182">
        <ele>98.67</ele>
        <time>2009-10-11T12:34:07Z</time>
      </trkpt>
      <trkpt lat="44.27973" lon="0.87186">
        <ele>99.15</ele>
        <time>2009-10-11T12:34:10Z</time>
      </trkpt>
      <trkpt lat="44.27969" lon="0.87211">
        <ele>100.11</ele>
        <time>2009-10-11T12:34:22Z</time>
      </trkpt>
      <trkpt lat="44.27967" lon="0.87223">
        <ele>100.11</ele>
        <time>2009-10-11T12:34:27Z</time>
      </trkpt>
      <trkpt lat="44.27965" lon="0.87246">
        <ele>102.04</ele>
        <time>2009-10-11T12:34:39Z</time>
      </trkpt>
      <trkpt lat="44.27964" lon="0.8725">
        <ele>102.04</ele>
        <time>2009-10-11T12:34:41Z</time>
      </trkpt>
      <trkpt lat="44.27959" lon="0.87268">
        <ele>103.48</ele>
        <time>2009-10-11T12:34:50Z</time>
      </trkpt>
      <trkpt lat="44.27956" lon="0.87291">
        <ele>104.92</ele>
        <time>2009-10-11T12:35:02Z</time>
      </trkpt>
      <trkpt lat="44.27951" lon="0.87318">
        <ele>107.32</ele>
        <time>2009-10-11T12:35:16Z</time>
      </trkpt>
      <trkpt lat="44.27947" lon="0.87341">
        <ele>110.21</ele>
        <time>2009-10-11T12:35:29Z</time>
      </trkpt>
      <trkpt lat="44.27946" lon="0.87343">
        <ele>109.73</ele>
        <time>2009-10-11T12:35:30Z</time>
      </trkpt>
      <trkpt lat="44.27944" lon="0.87351">
        <ele>110.69</ele>
        <time>2009-10-11T12:35:34Z</time>
      </trkpt>
      <trkpt lat="44.27948" lon="0.87378">
        <ele>111.65</ele>
        <time>2009-10-11T12:35:48Z</time>
      </trkpt>
      <trkpt lat="44.27951" lon="0.87391">
        <ele>113.09</ele>
        <time>2009-10-11T12:35:55Z</time>
      </trkpt>
      <trkpt lat="44.27953" lon="0.8741">
        <ele>114.05</ele>
        <time>2009-10-11T12:36:05Z</time>
      </trkpt>
      <trkpt lat="44.27957" lon="0.87424">
        <ele>115.5</ele>
        <time>2009-10-11T12:36:14Z</time>
      </trkpt>
      <trkpt lat="44.27963" lon="0.87443">
        <ele>116.46</ele>
        <time>2009-10-11T12:36:24Z</time>
      </trkpt>
      <trkpt lat="44.27968" lon="0.87453">
        <ele>118.38</ele>
        <time>2009-10-11T12:36:34Z</time>
      </trkpt>
      <trkpt lat="44.27973" lon="0.8747">
        <ele>121.74</ele>
        <time>2009-10-11T12:36:47Z</time>
      </trkpt>
      <trkpt lat="44.27972" lon="0.87488">
        <ele>124.15</ele>
        <time>2009-10-11T12:36:55Z</time>
      </trkpt>
      <trkpt lat="44.2797" lon="0.87505">
        <ele>124.15</ele>
        <time>2009-10-11T12:37:03Z</time>
      </trkpt>
      <trkpt lat="44.2797" lon="0.8752">
        <ele>126.07</ele>
        <time>2009-10-11T12:37:11Z</time>
      </trkpt>
      <trkpt lat="44.27971" lon="0.87538">
        <ele>127.99</ele>
        <time>2009-10-11T12:37:21Z</time>
      </trkpt>
      <trkpt lat="44.27974" lon="0.87557">
        <ele>130.4</ele>
        <time>2009-10-11T12:37:34Z</time>
      </trkpt>
      <trkpt lat="44.27976" lon="0.8757">
        <ele>131.36</ele>
        <time>2009-10-11T12:37:42Z</time>
      </trkpt>
      <trkpt lat="44.27979" lon="0.87593">
        <ele>135.2</ele>
        <time>2009-10-11T12:37:54Z</time>
      </trkpt>
      <trkpt lat="44.27977" lon="0.87604">
        <ele>135.2</ele>
        <time>2009-10-11T12:38:00Z</time>
      </trkpt>
      <trkpt lat="44.27979" lon="0.87621">
        <ele>138.57</ele>
        <time>2009-10-11T12:38:10Z</time>
      </trkpt>
      <trkpt lat="44.27975" lon="0.87635">
        <ele>140.49</ele>
        <time>2009-10-11T12:38:19Z</time>
      </trkpt>
      <trkpt lat="44.27972" lon="0.87644">
        <ele>142.41</ele>
        <time>2009-10-11T12:38:27Z</time>
      </trkpt>
      <trkpt lat="44.27966" lon="0.8766">
        <ele>144.82</ele>
        <time>2009-10-11T12:38:37Z</time>
      </trkpt>
      <trkpt lat="44.27964" lon="0.87675">
        <ele>147.22</ele>
        <time>2009-10-11T12:38:49Z</time>
      </trkpt>
      <trkpt lat="44.27963" lon="0.8768">
        <ele>147.22</ele>
        <time>2009-10-11T12:38:52Z</time>
      </trkpt>
      <trkpt lat="44.27961" lon="0.87693">
        <ele>149.62</ele>
        <time>2009-10-11T12:39:02Z</time>
      </trkpt>
      <trkpt lat="44.27957" lon="0.87705">
        <ele>152.51</ele>
        <time>2009-10-11T12:39:11Z</time>
      </trkpt>
      <trkpt lat="44.27956" lon="0.87706">
        <ele>153.47</ele>
        <time>2009-10-11T12:39:12Z</time>
      </trkpt>
      <trkpt lat="44.27947" lon="0.87707">
        <ele>155.87</ele>
        <time>2009-10-11T12:39:22Z</time>
      </trkpt>
      <trkpt lat="44.27946" lon="0.87706">
        <ele>155.87</ele>
        <time>2009-10-11T12:39:23Z</time>
      </trkpt>
      <trkpt lat="44.27937" lon="0.87705">
        <ele>157.31</ele>
        <time>2009-10-11T12:39:34Z</time>
      </trkpt>
      <trkpt lat="44.27935" lon="0.87706">
        <ele>157.31</ele>
        <time>2009-10-11T12:40:13Z</time>
      </trkpt>
      <trkpt lat="44.27934" lon="0.87709">
        <ele>157.31</ele>
        <time>2009-10-11T12:40:18Z</time>
      </trkpt>
      <trkpt lat="44.27942" lon="0.8773">
        <ele>160.68</ele>
        <time>2009-10-11T12:40:29Z</time>
      </trkpt>
      <trkpt lat="44.27943" lon="0.87737">
        <ele>161.64</ele>
        <time>2009-10-11T12:40:43Z</time>
      </trkpt>
      <trkpt lat="44.27943" lon="0.8774">
        <ele>162.6</ele>
        <time>2009-10-11T12:41:01Z</time>
      </trkpt>
      <trkpt lat="44.27934" lon="0.87738">
        <ele>164.04</ele>
        <time>2009-10-11T12:41:09Z</time>
      </trkpt>
      <trkpt lat="44.27918" lon="0.87744">
        <ele>166.45</ele>
        <time>2009-10-11T12:41:23Z</time>
      </trkpt>
      <trkpt lat="44.27911" lon="0.87749">
        <ele>167.41</ele>
        <time>2009-10-11T12:41:29Z</time>
      </trkpt>
      <trkpt lat="44.27908" lon="0.87751">
        <ele>169.81</ele>
        <time>2009-10-11T12:41:33Z</time>
      </trkpt>
      <trkpt lat="44.27903" lon="0.87754">
        <ele>171.25</ele>
        <time>2009-10-11T12:41:39Z</time>
      </trkpt>
      <trkpt lat="44.27894" lon="0.87766">
        <ele>171.73</ele>
        <time>2009-10-11T12:41:47Z</time>
      </trkpt>
      <trkpt lat="44.27892" lon="0.8777">
        <ele>173.17</ele>
        <time>2009-10-11T12:41:50Z</time>
      </trkpt>
      <trkpt lat="44.27887" lon="0.87779">
        <ele>174.62</ele>
        <time>2009-10-11T12:41:57Z</time>
      </trkpt>
      <trkpt lat="44.27883" lon="0.8779">
        <ele>176.06</ele>
        <time>2009-10-11T12:42:04Z</time>
      </trkpt>
      <trkpt lat="44.27877" lon="0.87802">
        <ele>177.5</ele>
        <time>2009-10-11T12:42:11Z</time>
      </trkpt>
      <trkpt lat="44.27874" lon="0.87809">
        <ele>177.5</ele>
        <time>2009-10-11T12:42:15Z</time>
      </trkpt>
      <trkpt lat="44.27874" lon="0.87814">
        <ele>177.5</ele>
        <time>2009-10-11T12:42:18Z</time>
      </trkpt>
      <trkpt lat="44.27871" lon="0.87822">
        <ele>178.94</ele>
        <time>2009-10-11T12:42:23Z</time>
      </trkpt>
      <trkpt lat="44.27867" lon="0.87833">
        <ele>179.9</ele>
        <time>2009-10-11T12:42:29Z</time>
      </trkpt>
      <trkpt lat="44.27866" lon="0.87843">
        <ele>180.87</ele>
        <time>2009-10-11T12:42:34Z</time>
      </trkpt>
      <trkpt lat="44.27864" lon="0.87854">
        <ele>181.35</ele>
        <time>2009-10-11T12:42:40Z</time>
      </trkpt>
      <trkpt lat="44.27857" lon="0.87878">
        <ele>181.35</ele>
        <time>2009-10-11T12:42:53Z</time>
      </trkpt>
      <trkpt lat="44.27849" lon="0.87901">
        <ele>182.79</ele>
        <time>2009-10-11T12:43:06Z</time>
      </trkpt>
      <trkpt lat="44.27848" lon="0.87902">
        <ele>183.27</ele>
        <time>2009-10-11T12:43:07Z</time>
      </trkpt>
      <trkpt lat="44.27845" lon="0.87917">
        <ele>183.27</ele>
        <time>2009-10-11T12:43:16Z</time>
      </trkpt>
      <trkpt lat="44.27841" lon="0.87925">
        <ele>183.27</ele>
        <time>2009-10-11T12:43:20Z</time>
      </trkpt>
      <trkpt lat="44.27839" lon="0.87931">
        <ele>184.23</ele>
        <time>2009-10-11T12:43:24Z</time>
      </trkpt>
      <trkpt lat="44.27837" lon="0.87934">
        <ele>184.71</ele>
        <time>2009-10-11T12:43:26Z</time>
      </trkpt>
      <trkpt lat="44.27834" lon="0.87941">
        <ele>185.19</ele>
        <time>2009-10-11T12:43:30Z</time>
      </trkpt>
      <trkpt lat="44.27833" lon="0.8795">
        <ele>186.15</ele>
        <time>2009-10-11T12:43:36Z</time>
      </trkpt>
      <trkpt lat="44.27832" lon="0.87957">
        <ele>187.11</ele>
        <time>2009-10-11T12:43:39Z</time>
      </trkpt>
      <trkpt lat="44.2783" lon="0.8796">
        <ele>187.11</ele>
        <time>2009-10-11T12:43:41Z</time>
      </trkpt>
      <trkpt lat="44.27826" lon="0.87966">
        <ele>188.56</ele>
        <time>2009-10-11T12:43:45Z</time>
      </trkpt>
      <trkpt lat="44.27824" lon="0.87975">
        <ele>188.56</ele>
        <time>2009-10-11T12:43:50Z</time>
      </trkpt>
      <trkpt lat="44.27821" lon="0.8798">
        <ele>190</ele>
        <time>2009-10-11T12:43:54Z</time>
      </trkpt>
      <trkpt lat="44.27809" lon="0.88001">
        <ele>193.36</ele>
        <time>2009-10-11T12:44:09Z</time>
      </trkpt>
      <trkpt lat="44.27807" lon="0.88004">
        <ele>193.84</ele>
        <time>2009-10-11T12:44:11Z</time>
      </trkpt>
      <trkpt lat="44.27794" lon="0.88023">
        <ele>196.25</ele>
        <time>2009-10-11T12:44:26Z</time>
      </trkpt>
      <trkpt lat="44.27793" lon="0.88027">
        <ele>197.21</ele>
        <time>2009-10-11T12:44:29Z</time>
      </trkpt>
      <trkpt lat="44.27785" lon="0.88037">
        <ele>198.17</ele>
        <time>2009-10-11T12:44:37Z</time>
      </trkpt>
      <trkpt lat="44.27771" lon="0.8806">
        <ele>200.57</ele>
        <time>2009-10-11T12:44:53Z</time>
      </trkpt>
      <trkpt lat="44.2776" lon="0.88081">
        <ele>202.49</ele>
        <time>2009-10-11T12:45:08Z</time>
      </trkpt>
      <trkpt lat="44.2776" lon="0.88085">
        <ele>202.98</ele>
        <time>2009-10-11T12:45:11Z</time>
      </trkpt>
      <trkpt lat="44.27751" lon="0.88093">
        <ele>202.98</ele>
        <time>2009-10-11T12:45:19Z</time>
      </trkpt>
      <trkpt lat="44.27735" lon="0.88098">
        <ele>202.01</ele>
        <time>2009-10-11T12:45:32Z</time>
      </trkpt>
      <trkpt lat="44.27717" lon="0.88103">
        <ele>202.98</ele>
        <time>2009-10-11T12:45:45Z</time>
      </trkpt>
      <trkpt lat="44.27701" lon="0.88105">
        <ele>203.46</ele>
        <time>2009-10-11T12:45:54Z</time>
      </trkpt>
      <trkpt lat="44.27684" lon="0.88118">
        <ele>202.49</ele>
        <time>2009-10-11T12:46:08Z</time>
      </trkpt>
      <trkpt lat="44.27679" lon="0.88126">
        <ele>202.98</ele>
        <time>2009-10-11T12:46:14Z</time>
      </trkpt>
      <trkpt lat="44.27426" lon="0.88424">
        <ele>210.67</ele>
        <time>2009-10-11T12:57:41Z</time>
      </trkpt>
      <trkpt lat="44.27412" lon="0.88442">
        <ele>212.11</ele>
        <time>2009-10-11T12:57:54Z</time>
      </trkpt>
      <trkpt lat="44.27406" lon="0.88455">
        <ele>213.07</ele>
        <time>2009-10-11T12:58:02Z</time>
      </trkpt>
      <trkpt lat="44.27405" lon="0.88458">
        <ele>214.51</ele>
        <time>2009-10-11T12:58:04Z</time>
      </trkpt>
      <trkpt lat="44.27387" lon="0.88479">
        <ele>214.51</ele>
        <time>2009-10-11T12:58:19Z</time>
      </trkpt>
      <trkpt lat="44.27369" lon="0.88502">
        <ele>213.55</ele>
        <time>2009-10-11T12:58:34Z</time>
      </trkpt>
      <trkpt lat="44.27366" lon="0.88509">
        <ele>212.59</ele>
        <time>2009-10-11T12:58:38Z</time>
      </trkpt>
      <trkpt lat="44.27354" lon="0.8853">
        <ele>213.07</ele>
        <time>2009-10-11T12:58:51Z</time>
      </trkpt>
      <trkpt lat="44.27346" lon="0.88551">
        <ele>213.55</ele>
        <time>2009-10-11T12:59:06Z</time>
      </trkpt>
      <trkpt lat="44.27348" lon="0.88552">
        <ele>212.59</ele>
        <time>2009-10-11T12:59:08Z</time>
      </trkpt>
      <trkpt lat="44.27352" lon="0.88557">
        <ele>211.15</ele>
        <time>2009-10-11T12:59:13Z</time>
      </trkpt>
      <trkpt lat="44.27355" lon="0.88562">
        <ele>210.19</ele>
        <time>2009-10-11T12:59:17Z</time>
      </trkpt>
      <trkpt lat="44.27363" lon="0.88581">
        <ele>207.3</ele>
        <time>2009-10-11T12:59:29Z</time>
      </trkpt>
      <trkpt lat="44.2737" lon="0.88594">
        <ele>205.86</ele>
        <time>2009-10-11T12:59:43Z</time>
      </trkpt>
      <trkpt lat="44.27372" lon="0.88596">
        <ele>205.86</ele>
        <time>2009-10-11T12:59:45Z</time>
      </trkpt>
      <trkpt lat="44.27385" lon="0.88617">
        <ele>204.42</ele>
        <time>2009-10-11T12:59:58Z</time>
      </trkpt>
      <trkpt lat="44.27387" lon="0.8862">
        <ele>202.98</ele>
        <time>2009-10-11T13:00:00Z</time>
      </trkpt>
      <trkpt lat="44.274" lon="0.88637">
        <ele>202.01</ele>
        <time>2009-10-11T13:00:12Z</time>
      </trkpt>
      <trkpt lat="44.27408" lon="0.8865">
        <ele>199.13</ele>
        <time>2009-10-11T13:00:22Z</time>
      </trkpt>
      <trkpt lat="44.27424" lon="0.88671">
        <ele>196.73</ele>
        <time>2009-10-11T13:00:37Z</time>
      </trkpt>
      <trkpt lat="44.27429" lon="0.88676">
        <ele>194.32</ele>
        <time>2009-10-11T13:00:41Z</time>
      </trkpt>
      <trkpt lat="44.27433" lon="0.88678">
        <ele>193.36</ele>
        <time>2009-10-11T13:00:47Z</time>
      </trkpt>
      <trkpt lat="44.27436" lon="0.88681">
        <ele>192.88</ele>
        <time>2009-10-11T13:00:49Z</time>
      </trkpt>
      <trkpt lat="44.27441" lon="0.88684">
        <ele>191.92</ele>
        <time>2009-10-11T13:00:52Z</time>
      </trkpt>
      <trkpt lat="44.27442" lon="0.88696">
        <ele>191.44</ele>
        <time>2009-10-11T13:01:03Z</time>
      </trkpt>
      <trkpt lat="44.27441" lon="0.88701">
        <ele>191.44</ele>
        <time>2009-10-11T13:01:15Z</time>
      </trkpt>
      <trkpt lat="44.2743" lon="0.88724">
        <ele>190.96</ele>
        <time>2009-10-11T13:01:29Z</time>
      </trkpt>
      <trkpt lat="44.27431" lon="0.88731">
        <ele>191.44</ele>
        <time>2009-10-11T13:01:32Z</time>
      </trkpt>
      <trkpt lat="44.27442" lon="0.88746">
        <ele>190.48</ele>
        <time>2009-10-11T13:01:41Z</time>
      </trkpt>
      <trkpt lat="44.27446" lon="0.88753">
        <ele>191.92</ele>
        <time>2009-10-11T13:01:45Z</time>
      </trkpt>
      <trkpt lat="44.27445" lon="0.88768">
        <ele>192.88</ele>
        <time>2009-10-11T13:01:55Z</time>
      </trkpt>
      <trkpt lat="44.27442" lon="0.88773">
        <ele>192.4</ele>
        <time>2009-10-11T13:02:08Z</time>
      </trkpt>
      <trkpt lat="44.27442" lon="0.88773">
        <ele>192.4</ele>
        <time>2009-10-11T13:02:22Z</time>
      </trkpt>
      <trkpt lat="44.27445" lon="0.88781">
        <ele>193.36</ele>
        <time>2009-10-11T13:02:27Z</time>
      </trkpt>
      <trkpt lat="44.2745" lon="0.88803">
        <ele>193.84</ele>
        <time>2009-10-11T13:02:40Z</time>
      </trkpt>
      <trkpt lat="44.27451" lon="0.88824">
        <ele>195.28</ele>
        <time>2009-10-11T13:02:53Z</time>
      </trkpt>
      <trkpt lat="44.27446" lon="0.88838">
        <ele>195.28</ele>
        <time>2009-10-11T13:03:02Z</time>
      </trkpt>
      <trkpt lat="44.27442" lon="0.88849">
        <ele>195.77</ele>
        <time>2009-10-11T13:03:09Z</time>
      </trkpt>
      <trkpt lat="44.27444" lon="0.88864">
        <ele>195.77</ele>
        <time>2009-10-11T13:03:17Z</time>
      </trkpt>
      <trkpt lat="44.27448" lon="0.88879">
        <ele>195.28</ele>
        <time>2009-10-11T13:03:26Z</time>
      </trkpt>
      <trkpt lat="44.27446" lon="0.88883">
        <ele>195.28</ele>
        <time>2009-10-11T13:03:29Z</time>
      </trkpt>
      <trkpt lat="44.27446" lon="0.88892">
        <ele>194.32</ele>
        <time>2009-10-11T13:03:36Z</time>
      </trkpt>
      <trkpt lat="44.27448" lon="0.88899">
        <ele>195.28</ele>
        <time>2009-10-11T13:03:40Z</time>
      </trkpt>
      <trkpt lat="44.27453" lon="0.88904">
        <ele>195.28</ele>
        <time>2009-10-11T13:03:48Z</time>
      </trkpt>
      <trkpt lat="44.27472" lon="0.88898">
        <ele>194.8</ele>
        <time>2009-10-11T13:04:03Z</time>
      </trkpt>
      <trkpt lat="44.2748" lon="0.88896">
        <ele>193.84</ele>
        <time>2009-10-11T13:04:08Z</time>
      </trkpt>
      <trkpt lat="44.27485" lon="0.889">
        <ele>194.32</ele>
        <time>2009-10-11T13:04:12Z</time>
      </trkpt>
      <trkpt lat="44.27497" lon="0.88927">
        <ele>194.8</ele>
        <time>2009-10-11T13:04:29Z</time>
      </trkpt>
      <trkpt lat="44.27507" lon="0.88945">
        <ele>198.65</ele>
        <time>2009-10-11T13:04:42Z</time>
      </trkpt>
      <trkpt lat="44.27513" lon="0.88951">
        <ele>200.57</ele>
        <time>2009-10-11T13:04:49Z</time>
      </trkpt>
      <trkpt lat="44.27526" lon="0.88967">
        <ele>202.49</ele>
        <time>2009-10-11T13:05:01Z</time>
      </trkpt>
      <trkpt lat="44.27533" lon="0.88974">
        <ele>202.98</ele>
        <time>2009-10-11T13:05:07Z</time>
      </trkpt>
      <trkpt lat="44.27545" lon="0.88992">
        <ele>203.94</ele>
        <time>2009-10-11T13:05:19Z</time>
      </trkpt>
      <trkpt lat="44.27555" lon="0.89011">
        <ele>204.9</ele>
        <time>2009-10-11T13:05:32Z</time>
      </trkpt>
      <trkpt lat="44.27558" lon="0.89019">
        <ele>204.9</ele>
        <time>2009-10-11T13:05:37Z</time>
      </trkpt>
      <trkpt lat="44.27563" lon="0.89032">
        <ele>205.86</ele>
        <time>2009-10-11T13:05:50Z</time>
      </trkpt>
      <trkpt lat="44.27569" lon="0.89047">
        <ele>206.82</ele>
        <time>2009-10-11T13:06:00Z</time>
      </trkpt>
      <trkpt lat="44.27573" lon="0.89058">
        <ele>206.82</ele>
        <time>2009-10-11T13:06:06Z</time>
      </trkpt>
      <trkpt lat="44.27574" lon="0.89062">
        <ele>207.3</ele>
        <time>2009-10-11T13:06:08Z</time>
      </trkpt>
      <trkpt lat="44.2758" lon="0.89088">
        <ele>207.78</ele>
        <time>2009-10-11T13:06:20Z</time>
      </trkpt>
      <trkpt lat="44.27585" lon="0.89116">
        <ele>208.74</ele>
        <time>2009-10-11T13:06:34Z</time>
      </trkpt>
      <trkpt lat="44.2759" lon="0.89133">
        <ele>209.22</ele>
        <time>2009-10-11T13:06:45Z</time>
      </trkpt>
      <trkpt lat="44.27595" lon="0.89152">
        <ele>208.74</ele>
        <time>2009-10-11T13:06:55Z</time>
      </trkpt>
      <trkpt lat="44.27596" lon="0.89178">
        <ele>208.74</ele>
        <time>2009-10-11T13:07:07Z</time>
      </trkpt>
      <trkpt lat="44.27602" lon="0.89197">
        <ele>208.26</ele>
        <time>2009-10-11T13:07:19Z</time>
      </trkpt>
      <trkpt lat="44.27603" lon="0.892">
        <ele>207.78</ele>
        <time>2009-10-11T13:07:20Z</time>
      </trkpt>
      <trkpt lat="44.27604" lon="0.89214">
        <ele>206.82</ele>
        <time>2009-10-11T13:07:24Z</time>
      </trkpt>
      <trkpt lat="44.27616" lon="0.89255">
        <ele>206.34</ele>
        <time>2009-10-11T13:07:41Z</time>
      </trkpt>
      <trkpt lat="44.27624" lon="0.89286">
        <ele>205.38</ele>
        <time>2009-10-11T13:07:54Z</time>
      </trkpt>
      <trkpt lat="44.27636" lon="0.89313">
        <ele>204.9</ele>
        <time>2009-10-11T13:08:09Z</time>
      </trkpt>
      <trkpt lat="44.27646" lon="0.89341">
        <ele>202.98</ele>
        <time>2009-10-11T13:08:25Z</time>
      </trkpt>
      <trkpt lat="44.27651" lon="0.8935">
        <ele>203.46</ele>
        <time>2009-10-11T13:08:31Z</time>
      </trkpt>
      <trkpt lat="44.27652" lon="0.8936">
        <ele>202.98</ele>
        <time>2009-10-11T13:08:36Z</time>
      </trkpt>
      <trkpt lat="44.27659" lon="0.89387">
        <ele>202.49</ele>
        <time>2009-10-11T13:08:49Z</time>
      </trkpt>
      <trkpt lat="44.27666" lon="0.89401">
        <ele>201.53</ele>
        <time>2009-10-11T13:08:59Z</time>
      </trkpt>
      <trkpt lat="44.27672" lon="0.89407">
        <ele>200.57</ele>
        <time>2009-10-11T13:09:06Z</time>
      </trkpt>
      <trkpt lat="44.27689" lon="0.89395">
        <ele>199.13</ele>
        <time>2009-10-11T13:09:20Z</time>
      </trkpt>
      <trkpt lat="44.27693" lon="0.89398">
        <ele>198.17</ele>
        <time>2009-10-11T13:09:24Z</time>
      </trkpt>
      <trkpt lat="44.27698" lon="0.89412">
        <ele>197.21</ele>
        <time>2009-10-11T13:09:31Z</time>
      </trkpt>
      <trkpt lat="44.27704" lon="0.89426">
        <ele>196.25</ele>
        <time>2009-10-11T13:09:39Z</time>
      </trkpt>
      <trkpt lat="44.27718" lon="0.89436">
        <ele>194.32</ele>
        <time>2009-10-11T13:09:53Z</time>
      </trkpt>
      <trkpt lat="44.27721" lon="0.89437">
        <ele>193.36</ele>
        <time>2009-10-11T13:09:55Z</time>
      </trkpt>
      <trkpt lat="44.27723" lon="0.89437">
        <ele>192.4</ele>
        <time>2009-10-11T13:09:57Z</time>
      </trkpt>
      <trkpt lat="44.27732" lon="0.89441">
        <ele>191.44</ele>
        <time>2009-10-11T13:10:04Z</time>
      </trkpt>
      <trkpt lat="44.27747" lon="0.8945">
        <ele>189.52</ele>
        <time>2009-10-11T13:10:16Z</time>
      </trkpt>
      <trkpt lat="44.27749" lon="0.89451">
        <ele>190</ele>
        <time>2009-10-11T13:10:17Z</time>
      </trkpt>
      <trkpt lat="44.27767" lon="0.89458">
        <ele>186.63</ele>
        <time>2009-10-11T13:10:30Z</time>
      </trkpt>
      <trkpt lat="44.27768" lon="0.89458">
        <ele>186.63</ele>
        <time>2009-10-11T13:10:31Z</time>
      </trkpt>
      <trkpt lat="44.27787" lon="0.89462">
        <ele>186.15</ele>
        <time>2009-10-11T13:10:42Z</time>
      </trkpt>
      <trkpt lat="44.27801" lon="0.89461">
        <ele>184.23</ele>
        <time>2009-10-11T13:10:53Z</time>
      </trkpt>
      <trkpt lat="44.27813" lon="0.89456">
        <ele>181.83</ele>
        <time>2009-10-11T13:11:03Z</time>
      </trkpt>
      <trkpt lat="44.27826" lon="0.8945">
        <ele>180.38</ele>
        <time>2009-10-11T13:11:16Z</time>
      </trkpt>
      <trkpt lat="44.27834" lon="0.89455">
        <ele>177.98</ele>
        <time>2009-10-11T13:11:27Z</time>
      </trkpt>
      <trkpt lat="44.27833" lon="0.89456">
        <ele>177.98</ele>
        <time>2009-10-11T13:11:28Z</time>
      </trkpt>
      <trkpt lat="44.27832" lon="0.89458">
        <ele>176.54</ele>
        <time>2009-10-11T13:11:30Z</time>
      </trkpt>
      <trkpt lat="44.27826" lon="0.89471">
        <ele>173.66</ele>
        <time>2009-10-11T13:11:42Z</time>
      </trkpt>
      <trkpt lat="44.27819" lon="0.89479">
        <ele>172.69</ele>
        <time>2009-10-11T13:11:48Z</time>
      </trkpt>
      <trkpt lat="44.27807" lon="0.89495">
        <ele>170.29</ele>
        <time>2009-10-11T13:12:01Z</time>
      </trkpt>
      <trkpt lat="44.27795" lon="0.89505">
        <ele>167.89</ele>
        <time>2009-10-11T13:12:12Z</time>
      </trkpt>
      <trkpt lat="44.27784" lon="0.89519">
        <ele>164.52</ele>
        <time>2009-10-11T13:12:27Z</time>
      </trkpt>
      <trkpt lat="44.27805" lon="0.89528">
        <ele>161.64</ele>
        <time>2009-10-11T13:12:45Z</time>
      </trkpt>
      <trkpt lat="44.27814" lon="0.89537">
        <ele>160.2</ele>
        <time>2009-10-11T13:12:54Z</time>
      </trkpt>
      <trkpt lat="44.27821" lon="0.89548">
        <ele>157.31</ele>
        <time>2009-10-11T13:13:03Z</time>
      </trkpt>
      <trkpt lat="44.27824" lon="0.89553">
        <ele>156.35</ele>
        <time>2009-10-11T13:13:07Z</time>
      </trkpt>
      <trkpt lat="44.27827" lon="0.89554">
        <ele>155.87</ele>
        <time>2009-10-11T13:13:09Z</time>
      </trkpt>
      <trkpt lat="44.27833" lon="0.89557">
        <ele>154.43</ele>
        <time>2009-10-11T13:13:14Z</time>
      </trkpt>
      <trkpt lat="44.2784" lon="0.89559">
        <ele>153.47</ele>
        <time>2009-10-11T13:13:21Z</time>
      </trkpt>
      <trkpt lat="44.27855" lon="0.89553">
        <ele>152.99</ele>
        <time>2009-10-11T13:13:33Z</time>
      </trkpt>
      <trkpt lat="44.27863" lon="0.89552">
        <ele>152.03</ele>
        <time>2009-10-11T13:13:40Z</time>
      </trkpt>
      <trkpt lat="44.27872" lon="0.8955">
        <ele>151.54</ele>
        <time>2009-10-11T13:13:45Z</time>
      </trkpt>
      <trkpt lat="44.27882" lon="0.89542">
        <ele>150.1</ele>
        <time>2009-10-11T13:13:55Z</time>
      </trkpt>
      <trkpt lat="44.27889" lon="0.89534">
        <ele>147.7</ele>
        <time>2009-10-11T13:14:05Z</time>
      </trkpt>
      <trkpt lat="44.27898" lon="0.89526">
        <ele>147.22</ele>
        <time>2009-10-11T13:14:11Z</time>
      </trkpt>
      <trkpt lat="44.27902" lon="0.89521">
        <ele>145.78</ele>
        <time>2009-10-11T13:14:15Z</time>
      </trkpt>
      <trkpt lat="44.27906" lon="0.89513">
        <ele>144.82</ele>
        <time>2009-10-11T13:14:25Z</time>
      </trkpt>
      <trkpt lat="44.27907" lon="0.89512">
        <ele>143.37</ele>
        <time>2009-10-11T13:15:07Z</time>
      </trkpt>
      <trkpt lat="44.27912" lon="0.895">
        <ele>141.93</ele>
        <time>2009-10-11T13:17:23Z</time>
      </trkpt>
      <trkpt lat="44.27917" lon="0.89496">
        <ele>141.93</ele>
        <time>2009-10-11T13:17:27Z</time>
      </trkpt>
      <trkpt lat="44.27927" lon="0.89496">
        <ele>139.53</ele>
        <time>2009-10-11T13:17:38Z</time>
      </trkpt>
      <trkpt lat="44.27933" lon="0.89514">
        <ele>137.13</ele>
        <time>2009-10-11T13:17:51Z</time>
      </trkpt>
      <trkpt lat="44.27938" lon="0.89528">
        <ele>134.72</ele>
        <time>2009-10-11T13:18:01Z</time>
      </trkpt>
      <trkpt lat="44.27939" lon="0.89549">
        <ele>133.76</ele>
        <time>2009-10-11T13:18:13Z</time>
      </trkpt>
      <trkpt lat="44.2794" lon="0.89567">
        <ele>133.28</ele>
        <time>2009-10-11T13:18:22Z</time>
      </trkpt>
      <trkpt lat="44.27941" lon="0.89577">
        <ele>132.8</ele>
        <time>2009-10-11T13:18:27Z</time>
      </trkpt>
      <trkpt lat="44.27952" lon="0.89588">
        <ele>132.32</ele>
        <time>2009-10-11T13:18:36Z</time>
      </trkpt>
      <trkpt lat="44.27963" lon="0.89602">
        <ele>131.84</ele>
        <time>2009-10-11T13:18:46Z</time>
      </trkpt>
      <trkpt lat="44.27971" lon="0.89616">
        <ele>130.88</ele>
        <time>2009-10-11T13:18:58Z</time>
      </trkpt>
      <trkpt lat="44.27976" lon="0.89621">
        <ele>130.4</ele>
        <time>2009-10-11T13:19:08Z</time>
      </trkpt>
      <trkpt lat="44.27991" lon="0.89636">
        <ele>130.88</ele>
        <time>2009-10-11T13:19:22Z</time>
      </trkpt>
      <trkpt lat="44.28007" lon="0.89644">
        <ele>130.4</ele>
        <time>2009-10-11T13:19:34Z</time>
      </trkpt>
      <trkpt lat="44.28026" lon="0.89644">
        <ele>128.95</ele>
        <time>2009-10-11T13:19:48Z</time>
      </trkpt>
      <trkpt lat="44.28031" lon="0.89647">
        <ele>127.99</ele>
        <time>2009-10-11T13:19:52Z</time>
      </trkpt>
      <trkpt lat="44.28038" lon="0.89651">
        <ele>128.47</ele>
        <time>2009-10-11T13:19:59Z</time>
      </trkpt>
      <trkpt lat="44.28046" lon="0.89651">
        <ele>129.43</ele>
        <time>2009-10-11T13:20:05Z</time>
      </trkpt>
      <trkpt lat="44.28067" lon="0.89649">
        <ele>128.47</ele>
        <time>2009-10-11T13:20:18Z</time>
      </trkpt>
      <trkpt lat="44.28072" lon="0.89649">
        <ele>127.99</ele>
        <time>2009-10-11T13:20:21Z</time>
      </trkpt>
      <trkpt lat="44.28086" lon="0.89654">
        <ele>127.51</ele>
        <time>2009-10-11T13:20:31Z</time>
      </trkpt>
      <trkpt lat="44.28095" lon="0.89659">
        <ele>126.55</ele>
        <time>2009-10-11T13:20:38Z</time>
      </trkpt>
      <trkpt lat="44.28115" lon="0.89676">
        <ele>124.15</ele>
        <time>2009-10-11T13:20:55Z</time>
      </trkpt>
      <trkpt lat="44.28139" lon="0.89689">
        <ele>121.26</ele>
        <time>2009-10-11T13:21:12Z</time>
      </trkpt>
      <trkpt lat="44.28142" lon="0.89689">
        <ele>119.82</ele>
        <time>2009-10-11T13:21:14Z</time>
      </trkpt>
      <trkpt lat="44.2816" lon="0.89692">
        <ele>117.42</ele>
        <time>2009-10-11T13:21:26Z</time>
      </trkpt>
      <trkpt lat="44.28172" lon="0.89694">
        <ele>115.5</ele>
        <time>2009-10-11T13:21:34Z</time>
      </trkpt>
      <trkpt lat="44.28177" lon="0.89696">
        <ele>115.01</ele>
        <time>2009-10-11T13:21:38Z</time>
      </trkpt>
      <trkpt lat="44.28193" lon="0.89702">
        <ele>112.61</ele>
        <time>2009-10-11T13:21:49Z</time>
      </trkpt>
      <trkpt lat="44.28208" lon="0.89707">
        <ele>111.65</ele>
        <time>2009-10-11T13:22:01Z</time>
      </trkpt>
      <trkpt lat="44.28222" lon="0.89712">
        <ele>108.77</ele>
        <time>2009-10-11T13:22:12Z</time>
      </trkpt>
      <trkpt lat="44.28234" lon="0.89717">
        <ele>107.81</ele>
        <time>2009-10-11T13:22:20Z</time>
      </trkpt>
      <trkpt lat="44.28239" lon="0.89727">
        <ele>107.32</ele>
        <time>2009-10-11T13:22:26Z</time>
      </trkpt>
      <trkpt lat="44.28241" lon="0.89734">
        <ele>106.84</ele>
        <time>2009-10-11T13:22:30Z</time>
      </trkpt>
      <trkpt lat="44.28241" lon="0.89741">
        <ele>105.88</ele>
        <time>2009-10-11T13:22:34Z</time>
      </trkpt>
      <trkpt lat="44.28247" lon="0.89765">
        <ele>103.96</ele>
        <time>2009-10-11T13:22:48Z</time>
      </trkpt>
      <trkpt lat="44.28249" lon="0.89775">
        <ele>103</ele>
        <time>2009-10-11T13:22:54Z</time>
      </trkpt>
      <trkpt lat="44.28251" lon="0.89782">
        <ele>102.04</ele>
        <time>2009-10-11T13:22:58Z</time>
      </trkpt>
      <trkpt lat="44.28254" lon="0.89806">
        <ele>100.11</ele>
        <time>2009-10-11T13:23:11Z</time>
      </trkpt>
      <trkpt lat="44.28254" lon="0.89809">
        <ele>100.11</ele>
        <time>2009-10-11T13:23:13Z</time>
      </trkpt>
      <trkpt lat="44.28252" lon="0.89826">
        <ele>98.67</ele>
        <time>2009-10-11T13:23:22Z</time>
      </trkpt>
      <trkpt lat="44.28252" lon="0.89835">
        <ele>98.19</ele>
        <time>2009-10-11T13:23:27Z</time>
      </trkpt>
      <trkpt lat="44.28254" lon="0.89857">
        <ele>97.23</ele>
        <time>2009-10-11T13:23:39Z</time>
      </trkpt>
      <trkpt lat="44.28257" lon="0.8986">
        <ele>96.75</ele>
        <time>2009-10-11T13:23:42Z</time>
      </trkpt>
      <trkpt lat="44.28263" lon="0.89861">
        <ele>94.83</ele>
        <time>2009-10-11T13:23:46Z</time>
      </trkpt>
      <trkpt lat="44.28276" lon="0.89862">
        <ele>93.39</ele>
        <time>2009-10-11T13:23:54Z</time>
      </trkpt>
      <trkpt lat="44.28297" lon="0.89861">
        <ele>92.9</ele>
        <time>2009-10-11T13:24:07Z</time>
      </trkpt>
      <trkpt lat="44.28313" lon="0.89857">
        <ele>93.39</ele>
        <time>2009-10-11T13:24:19Z</time>
      </trkpt>
      <trkpt lat="44.2834" lon="0.8985">
        <ele>92.42</ele>
        <time>2009-10-11T13:24:37Z</time>
      </trkpt>
      <trkpt lat="44.28364" lon="0.89844">
        <ele>91.94</ele>
        <time>2009-10-11T13:24:53Z</time>
      </trkpt>
      <trkpt lat="44.28387" lon="0.89838">
        <ele>91.94</ele>
        <time>2009-10-11T13:25:10Z</time>
      </trkpt>
      <trkpt lat="44.28417" lon="0.89835">
        <ele>91.46</ele>
        <time>2009-10-11T13:25:29Z</time>
      </trkpt>
      <trkpt lat="44.28445" lon="0.89832">
        <ele>91.94</ele>
        <time>2009-10-11T13:25:49Z</time>
      </trkpt>
      <trkpt lat="44.28468" lon="0.89829">
        <ele>92.42</ele>
        <time>2009-10-11T13:26:05Z</time>
      </trkpt>
      <trkpt lat="44.28493" lon="0.89825">
        <ele>91.94</ele>
        <time>2009-10-11T13:26:22Z</time>
      </trkpt>
      <trkpt lat="44.28512" lon="0.8982">
        <ele>91.46</ele>
        <time>2009-10-11T13:26:36Z</time>
      </trkpt>
      <trkpt lat="44.28539" lon="0.89814">
        <ele>91.94</ele>
        <time>2009-10-11T13:26:55Z</time>
      </trkpt>
      <trkpt lat="44.28558" lon="0.89809">
        <ele>93.39</ele>
        <time>2009-10-11T13:27:09Z</time>
      </trkpt>
      <trkpt lat="44.2858" lon="0.89806">
        <ele>93.87</ele>
        <time>2009-10-11T13:27:24Z</time>
      </trkpt>
      <trkpt lat="44.28593" lon="0.89807">
        <ele>94.35</ele>
        <time>2009-10-11T13:27:33Z</time>
      </trkpt>
      <trkpt lat="44.28606" lon="0.89806">
        <ele>95.31</ele>
        <time>2009-10-11T13:27:41Z</time>
      </trkpt>
      <trkpt lat="44.28619" lon="0.89805">
        <ele>96.27</ele>
        <time>2009-10-11T13:27:51Z</time>
      </trkpt>
      <trkpt lat="44.28632" lon="0.89802">
        <ele>97.71</ele>
        <time>2009-10-11T13:28:03Z</time>
      </trkpt>
      <trkpt lat="44.2865" lon="0.89798">
        <ele>98.19</ele>
        <time>2009-10-11T13:28:17Z</time>
      </trkpt>
      <trkpt lat="44.28654" lon="0.89798">
        <ele>100.6</ele>
        <time>2009-10-11T13:28:21Z</time>
      </trkpt>
      <trkpt lat="44.28662" lon="0.89799">
        <ele>101.08</ele>
        <time>2009-10-11T13:28:28Z</time>
      </trkpt>
      <trkpt lat="44.28673" lon="0.89799">
        <ele>103</ele>
        <time>2009-10-11T13:28:38Z</time>
      </trkpt>
      <trkpt lat="44.28674" lon="0.89799">
        <ele>103.96</ele>
        <time>2009-10-11T13:28:39Z</time>
      </trkpt>
      <trkpt lat="44.28685" lon="0.89798">
        <ele>107.32</ele>
        <time>2009-10-11T13:28:50Z</time>
      </trkpt>
      <trkpt lat="44.28698" lon="0.89796">
        <ele>109.73</ele>
        <time>2009-10-11T13:29:02Z</time>
      </trkpt>
      <trkpt lat="44.28714" lon="0.89801">
        <ele>112.13</ele>
        <time>2009-10-11T13:29:15Z</time>
      </trkpt>
      <trkpt lat="44.28716" lon="0.89801">
        <ele>113.09</ele>
        <time>2009-10-11T13:29:18Z</time>
      </trkpt>
      <trkpt lat="44.28723" lon="0.89801">
        <ele>114.53</ele>
        <time>2009-10-11T13:29:25Z</time>
      </trkpt>
      <trkpt lat="44.28734" lon="0.89804">
        <ele>115.5</ele>
        <time>2009-10-11T13:29:34Z</time>
      </trkpt>
      <trkpt lat="44.28737" lon="0.89806">
        <ele>115.5</ele>
        <time>2009-10-11T13:29:37Z</time>
      </trkpt>
      <trkpt lat="44.28741" lon="0.89808">
        <ele>115.5</ele>
        <time>2009-10-11T13:29:40Z</time>
      </trkpt>
      <trkpt lat="44.28745" lon="0.8981">
        <ele>115.98</ele>
        <time>2009-10-11T13:29:43Z</time>
      </trkpt>
      <trkpt lat="44.28756" lon="0.8981">
        <ele>118.86</ele>
        <time>2009-10-11T13:29:54Z</time>
      </trkpt>
      <trkpt lat="44.28756" lon="0.8981">
        <ele>118.86</ele>
        <time>2009-10-11T13:29:55Z</time>
      </trkpt>
      <trkpt lat="44.28768" lon="0.89815">
        <ele>122.22</ele>
        <time>2009-10-11T13:30:07Z</time>
      </trkpt>
      <trkpt lat="44.28782" lon="0.89817">
        <ele>125.11</ele>
        <time>2009-10-11T13:30:21Z</time>
      </trkpt>
      <trkpt lat="44.28797" lon="0.8982">
        <ele>126.55</ele>
        <time>2009-10-11T13:30:33Z</time>
      </trkpt>
      <trkpt lat="44.28801" lon="0.89821">
        <ele>127.99</ele>
        <time>2009-10-11T13:30:36Z</time>
      </trkpt>
      <trkpt lat="44.28812" lon="0.89824">
        <ele>129.43</ele>
        <time>2009-10-11T13:30:45Z</time>
      </trkpt>
      <trkpt lat="44.28818" lon="0.89826">
        <ele>130.4</ele>
        <time>2009-10-11T13:30:52Z</time>
      </trkpt>
      <trkpt lat="44.28832" lon="0.89828">
        <ele>132.32</ele>
        <time>2009-10-11T13:31:03Z</time>
      </trkpt>
      <trkpt lat="44.2885" lon="0.8983">
        <ele>134.72</ele>
        <time>2009-10-11T13:31:17Z</time>
      </trkpt>
      <trkpt lat="44.28861" lon="0.8983">
        <ele>135.68</ele>
        <time>2009-10-11T13:31:27Z</time>
      </trkpt>
      <trkpt lat="44.28872" lon="0.8983">
        <ele>138.09</ele>
        <time>2009-10-11T13:31:36Z</time>
      </trkpt>
      <trkpt lat="44.28875" lon="0.89828">
        <ele>139.53</ele>
        <time>2009-10-11T13:31:41Z</time>
      </trkpt>
      <trkpt lat="44.28876" lon="0.89828">
        <ele>139.53</ele>
        <time>2009-10-11T13:31:42Z</time>
      </trkpt>
      <trkpt lat="44.28881" lon="0.8982">
        <ele>141.45</ele>
        <time>2009-10-11T13:31:53Z</time>
      </trkpt>
      <trkpt lat="44.28882" lon="0.89827">
        <ele>141.45</ele>
        <time>2009-10-11T13:32:03Z</time>
      </trkpt>
      <trkpt lat="44.28883" lon="0.89819">
        <ele>141.45</ele>
        <time>2009-10-11T13:32:41Z</time>
      </trkpt>
      <trkpt lat="44.28882" lon="0.89815">
        <ele>141.45</ele>
        <time>2009-10-11T13:32:44Z</time>
      </trkpt>
      <trkpt lat="44.2888" lon="0.89804">
        <ele>140.49</ele>
        <time>2009-10-11T13:32:59Z</time>
      </trkpt>
      <trkpt lat="44.2888" lon="0.89801">
        <ele>140.01</ele>
        <time>2009-10-11T13:33:01Z</time>
      </trkpt>
      <trkpt lat="44.28883" lon="0.89792">
        <ele>141.45</ele>
        <time>2009-10-11T13:33:07Z</time>
      </trkpt>
      <trkpt lat="44.28886" lon="0.89779">
        <ele>145.78</ele>
        <time>2009-10-11T13:33:21Z</time>
      </trkpt>
      <trkpt lat="44.28886" lon="0.89777">
        <ele>145.3</ele>
        <time>2009-10-11T13:33:22Z</time>
      </trkpt>
      <trkpt lat="44.289" lon="0.89763">
        <ele>148.18</ele>
        <time>2009-10-11T13:33:33Z</time>
      </trkpt>
      <trkpt lat="44.28908" lon="0.89757">
        <ele>150.1</ele>
        <time>2009-10-11T13:33:45Z</time>
      </trkpt>
      <trkpt lat="44.2892" lon="0.89743">
        <ele>150.1</ele>
        <time>2009-10-11T13:33:56Z</time>
      </trkpt>
      <trkpt lat="44.2893" lon="0.89728">
        <ele>149.62</ele>
        <time>2009-10-11T13:34:06Z</time>
      </trkpt>
      <trkpt lat="44.28937" lon="0.8971">
        <ele>151.06</ele>
        <time>2009-10-11T13:34:17Z</time>
      </trkpt>
      <trkpt lat="44.28942" lon="0.89688">
        <ele>151.06</ele>
        <time>2009-10-11T13:34:29Z</time>
      </trkpt>
      <trkpt lat="44.2895" lon="0.89674">
        <ele>150.58</ele>
        <time>2009-10-11T13:34:45Z</time>
      </trkpt>
      <trkpt lat="44.28966" lon="0.89641">
        <ele>151.54</ele>
        <time>2009-10-11T13:35:08Z</time>
      </trkpt>
      <trkpt lat="44.28977" lon="0.89626">
        <ele>151.06</ele>
        <time>2009-10-11T13:35:19Z</time>
      </trkpt>
      <trkpt lat="44.28987" lon="0.89614">
        <ele>152.99</ele>
        <time>2009-10-11T13:35:30Z</time>
      </trkpt>
      <trkpt lat="44.28987" lon="0.89601">
        <ele>155.87</ele>
        <time>2009-10-11T13:35:41Z</time>
      </trkpt>
      <trkpt lat="44.2901" lon="0.89621">
        <ele>159.72</ele>
        <time>2009-10-11T13:35:59Z</time>
      </trkpt>
      <trkpt lat="44.29012" lon="0.89622">
        <ele>160.2</ele>
        <time>2009-10-11T13:36:00Z</time>
      </trkpt>
      <trkpt lat="44.29026" lon="0.89626">
        <ele>164.04</ele>
        <time>2009-10-11T13:36:16Z</time>
      </trkpt>
      <trkpt lat="44.29044" lon="0.89625">
        <ele>166.93</ele>
        <time>2009-10-11T13:36:30Z</time>
      </trkpt>
      <trkpt lat="44.29046" lon="0.89624">
        <ele>168.37</ele>
        <time>2009-10-11T13:36:35Z</time>
      </trkpt>
      <trkpt lat="44.29056" lon="0.89625">
        <ele>170.29</ele>
        <time>2009-10-11T13:36:46Z</time>
      </trkpt>
      <trkpt lat="44.29063" lon="0.89631">
        <ele>173.17</ele>
        <time>2009-10-11T13:36:56Z</time>
      </trkpt>
      <trkpt lat="44.29067" lon="0.89639">
        <ele>175.1</ele>
        <time>2009-10-11T13:37:05Z</time>
      </trkpt>
      <trkpt lat="44.29068" lon="0.8964">
        <ele>175.1</ele>
        <time>2009-10-11T13:37:06Z</time>
      </trkpt>
      <trkpt lat="44.29068" lon="0.89641">
        <ele>176.06</ele>
        <time>2009-10-11T13:37:19Z</time>
      </trkpt>
      <trkpt lat="44.29072" lon="0.89651">
        <ele>177.98</ele>
        <time>2009-10-11T13:37:33Z</time>
      </trkpt>
      <trkpt lat="44.29069" lon="0.89665">
        <ele>181.35</ele>
        <time>2009-10-11T13:37:46Z</time>
      </trkpt>
      <trkpt lat="44.29072" lon="0.89668">
        <ele>181.35</ele>
        <time>2009-10-11T13:37:47Z</time>
      </trkpt>
      <trkpt lat="44.29076" lon="0.89696">
        <ele>183.75</ele>
        <time>2009-10-11T13:38:00Z</time>
      </trkpt>
      <trkpt lat="44.29076" lon="0.89707">
        <ele>184.71</ele>
        <time>2009-10-11T13:38:11Z</time>
      </trkpt>
      <trkpt lat="44.29074" lon="0.89715">
        <ele>186.63</ele>
        <time>2009-10-11T13:38:22Z</time>
      </trkpt>
      <trkpt lat="44.29074" lon="0.89723">
        <ele>188.56</ele>
        <time>2009-10-11T13:38:29Z</time>
      </trkpt>
      <trkpt lat="44.29076" lon="0.89748">
        <ele>190.48</ele>
        <time>2009-10-11T13:38:43Z</time>
      </trkpt>
      <trkpt lat="44.2908" lon="0.89764">
        <ele>191.92</ele>
        <time>2009-10-11T13:38:53Z</time>
      </trkpt>
      <trkpt lat="44.29087" lon="0.8978">
        <ele>191.92</ele>
        <time>2009-10-11T13:39:05Z</time>
      </trkpt>
      <trkpt lat="44.2909" lon="0.89787">
        <ele>191.44</ele>
        <time>2009-10-11T13:39:10Z</time>
      </trkpt>
      <trkpt lat="44.29099" lon="0.89815">
        <ele>190.48</ele>
        <time>2009-10-11T13:39:22Z</time>
      </trkpt>
      <trkpt lat="44.29104" lon="0.89836">
        <ele>188.56</ele>
        <time>2009-10-11T13:39:32Z</time>
      </trkpt>
      <trkpt lat="44.29105" lon="0.89841">
        <ele>188.56</ele>
        <time>2009-10-11T13:39:34Z</time>
      </trkpt>
      <trkpt lat="44.29112" lon="0.89855">
        <ele>188.56</ele>
        <time>2009-10-11T13:39:43Z</time>
      </trkpt>
      <trkpt lat="44.29123" lon="0.89877">
        <ele>189.52</ele>
        <time>2009-10-11T13:39:57Z</time>
      </trkpt>
      <trkpt lat="44.29131" lon="0.89893">
        <ele>189.04</ele>
        <time>2009-10-11T13:40:13Z</time>
      </trkpt>
      <trkpt lat="44.29139" lon="0.89908">
        <ele>187.11</ele>
        <time>2009-10-11T13:40:26Z</time>
      </trkpt>
      <trkpt lat="44.29142" lon="0.89914">
        <ele>186.15</ele>
        <time>2009-10-11T13:40:37Z</time>
      </trkpt>
      <trkpt lat="44.29149" lon="0.89918">
        <ele>187.59</ele>
        <time>2009-10-11T13:40:43Z</time>
      </trkpt>
      <trkpt lat="44.29153" lon="0.89928">
        <ele>185.19</ele>
        <time>2009-10-11T13:40:49Z</time>
      </trkpt>
      <trkpt lat="44.29154" lon="0.89935">
        <ele>184.71</ele>
        <time>2009-10-11T13:40:53Z</time>
      </trkpt>
      <trkpt lat="44.29155" lon="0.89938">
        <ele>183.75</ele>
        <time>2009-10-11T13:40:55Z</time>
      </trkpt>
      <trkpt lat="44.29159" lon="0.89944">
        <ele>182.79</ele>
        <time>2009-10-11T13:40:59Z</time>
      </trkpt>
      <trkpt lat="44.29162" lon="0.89948">
        <ele>181.35</ele>
        <time>2009-10-11T13:41:02Z</time>
      </trkpt>
      <trkpt lat="44.29172" lon="0.89966">
        <ele>178.94</ele>
        <time>2009-10-11T13:41:16Z</time>
      </trkpt>
      <trkpt lat="44.29174" lon="0.89972">
        <ele>178.46</ele>
        <time>2009-10-11T13:41:19Z</time>
      </trkpt>
      <trkpt lat="44.29179" lon="0.89982">
        <ele>177.98</ele>
        <time>2009-10-11T13:41:25Z</time>
      </trkpt>
      <trkpt lat="44.29181" lon="0.89985">
        <ele>177.02</ele>
        <time>2009-10-11T13:41:28Z</time>
      </trkpt>
      <trkpt lat="44.2919" lon="0.90001">
        <ele>174.62</ele>
        <time>2009-10-11T13:41:40Z</time>
      </trkpt>
      <trkpt lat="44.292" lon="0.9002">
        <ele>171.73</ele>
        <time>2009-10-11T13:41:54Z</time>
      </trkpt>
      <trkpt lat="44.29212" lon="0.90036">
        <ele>170.29</ele>
        <time>2009-10-11T13:42:08Z</time>
      </trkpt>
      <trkpt lat="44.29215" lon="0.90036">
        <ele>169.81</ele>
        <time>2009-10-11T13:43:55Z</time>
      </trkpt>
      <trkpt lat="44.29215" lon="0.90027">
        <ele>168.85</ele>
        <time>2009-10-11T13:44:01Z</time>
      </trkpt>
      <trkpt lat="44.29214" lon="0.90012">
        <ele>169.33</ele>
        <time>2009-10-11T13:44:15Z</time>
      </trkpt>
      <trkpt lat="44.29213" lon="0.9001">
        <ele>168.37</ele>
        <time>2009-10-11T13:44:20Z</time>
      </trkpt>
      <trkpt lat="44.29218" lon="0.9">
        <ele>166.45</ele>
        <time>2009-10-11T13:44:32Z</time>
      </trkpt>
      <trkpt lat="44.29222" lon="0.89992">
        <ele>163.08</ele>
        <time>2009-10-11T13:44:44Z</time>
      </trkpt>
      <trkpt lat="44.29223" lon="0.89992">
        <ele>162.6</ele>
        <time>2009-10-11T13:44:45Z</time>
      </trkpt>
      <trkpt lat="44.29228" lon="0.89981">
        <ele>160.2</ele>
        <time>2009-10-11T13:44:53Z</time>
      </trkpt>
      <trkpt lat="44.29235" lon="0.89973">
        <ele>158.75</ele>
        <time>2009-10-11T13:45:00Z</time>
      </trkpt>
      <trkpt lat="44.2924" lon="0.89967">
        <ele>156.83</ele>
        <time>2009-10-11T13:45:05Z</time>
      </trkpt>
      <trkpt lat="44.29241" lon="0.89967">
        <ele>155.39</ele>
        <time>2009-10-11T13:45:11Z</time>
      </trkpt>
      <trkpt lat="44.29247" lon="0.89958">
        <ele>154.91</ele>
        <time>2009-10-11T13:45:27Z</time>
      </trkpt>
      <trkpt lat="44.29252" lon="0.89947">
        <ele>153.95</ele>
        <time>2009-10-11T13:45:37Z</time>
      </trkpt>
      <trkpt lat="44.29257" lon="0.89939">
        <ele>150.58</ele>
        <time>2009-10-11T13:45:44Z</time>
      </trkpt>
      <trkpt lat="44.29268" lon="0.89929">
        <ele>149.62</ele>
        <time>2009-10-11T13:45:56Z</time>
      </trkpt>
      <trkpt lat="44.2928" lon="0.8992">
        <ele>148.18</ele>
        <time>2009-10-11T13:46:05Z</time>
      </trkpt>
      <trkpt lat="44.29282" lon="0.89914">
        <ele>147.22</ele>
        <time>2009-10-11T13:46:10Z</time>
      </trkpt>
      <trkpt lat="44.29284" lon="0.89913">
        <ele>146.26</ele>
        <time>2009-10-11T13:46:12Z</time>
      </trkpt>
      <trkpt lat="44.29291" lon="0.8991">
        <ele>145.78</ele>
        <time>2009-10-11T13:46:23Z</time>
      </trkpt>
      <trkpt lat="44.29292" lon="0.89909">
        <ele>144.82</ele>
        <time>2009-10-11T13:46:28Z</time>
      </trkpt>
      <trkpt lat="44.29295" lon="0.89903">
        <ele>144.34</ele>
        <time>2009-10-11T13:46:32Z</time>
      </trkpt>
      <trkpt lat="44.29301" lon="0.89896">
        <ele>142.41</ele>
        <time>2009-10-11T13:46:37Z</time>
      </trkpt>
      <trkpt lat="44.29314" lon="0.8988">
        <ele>141.45</ele>
        <time>2009-10-11T13:46:50Z</time>
      </trkpt>
      <trkpt lat="44.29329" lon="0.89864">
        <ele>139.05</ele>
        <time>2009-10-11T13:47:05Z</time>
      </trkpt>
      <trkpt lat="44.29333" lon="0.89859">
        <ele>138.09</ele>
        <time>2009-10-11T13:47:10Z</time>
      </trkpt>
      <trkpt lat="44.29344" lon="0.89843">
        <ele>134.72</ele>
        <time>2009-10-11T13:47:23Z</time>
      </trkpt>
      <trkpt lat="44.29356" lon="0.89829">
        <ele>132.8</ele>
        <time>2009-10-11T13:47:36Z</time>
      </trkpt>
      <trkpt lat="44.29359" lon="0.89827">
        <ele>132.8</ele>
        <time>2009-10-11T13:47:39Z</time>
      </trkpt>
      <trkpt lat="44.29362" lon="0.89823">
        <ele>132.8</ele>
        <time>2009-10-11T13:47:50Z</time>
      </trkpt>
      <trkpt lat="44.29364" lon="0.89821">
        <ele>131.84</ele>
        <time>2009-10-11T13:47:52Z</time>
      </trkpt>
      <trkpt lat="44.29369" lon="0.8981">
        <ele>130.4</ele>
        <time>2009-10-11T13:47:59Z</time>
      </trkpt>
      <trkpt lat="44.29371" lon="0.89806">
        <ele>129.43</ele>
        <time>2009-10-11T13:48:02Z</time>
      </trkpt>
      <trkpt lat="44.29373" lon="0.89802">
        <ele>129.92</ele>
        <time>2009-10-11T13:48:05Z</time>
      </trkpt>
      <trkpt lat="44.29378" lon="0.89782">
        <ele>127.03</ele>
        <time>2009-10-11T13:48:18Z</time>
      </trkpt>
      <trkpt lat="44.29379" lon="0.89768">
        <ele>122.71</ele>
        <time>2009-10-11T13:48:26Z</time>
      </trkpt>
      <trkpt lat="44.2938" lon="0.89766">
        <ele>124.63</ele>
        <time>2009-10-11T13:48:27Z</time>
      </trkpt>
      <trkpt lat="44.29379" lon="0.89752">
        <ele>124.15</ele>
        <time>2009-10-11T13:48:40Z</time>
      </trkpt>
      <trkpt lat="44.2938" lon="0.8975">
        <ele>123.67</ele>
        <time>2009-10-11T13:48:50Z</time>
      </trkpt>
      <trkpt lat="44.29387" lon="0.89745">
        <ele>124.15</ele>
        <time>2009-10-11T13:49:01Z</time>
      </trkpt>
      <trkpt lat="44.29389" lon="0.89742">
        <ele>122.71</ele>
        <time>2009-10-11T13:49:12Z</time>
      </trkpt>
      <trkpt lat="44.29394" lon="0.89738">
        <ele>121.74</ele>
        <time>2009-10-11T13:49:23Z</time>
      </trkpt>
      <trkpt lat="44.29405" lon="0.89724">
        <ele>119.34</ele>
        <time>2009-10-11T13:49:37Z</time>
      </trkpt>
      <trkpt lat="44.29412" lon="0.89714">
        <ele>117.9</ele>
        <time>2009-10-11T13:49:49Z</time>
      </trkpt>
      <trkpt lat="44.29412" lon="0.89713">
        <ele>117.9</ele>
        <time>2009-10-11T13:49:50Z</time>
      </trkpt>
      <trkpt lat="44.29421" lon="0.89699">
        <ele>114.53</ele>
        <time>2009-10-11T13:50:04Z</time>
      </trkpt>
      <trkpt lat="44.29421" lon="0.89698">
        <ele>114.05</ele>
        <time>2009-10-11T13:50:05Z</time>
      </trkpt>
      <trkpt lat="44.29424" lon="0.8969">
        <ele>114.05</ele>
        <time>2009-10-11T13:50:22Z</time>
      </trkpt>
      <trkpt lat="44.29431" lon="0.8968">
        <ele>113.09</ele>
        <time>2009-10-11T13:50:30Z</time>
      </trkpt>
      <trkpt lat="44.29432" lon="0.89676">
        <ele>112.61</ele>
        <time>2009-10-11T13:50:33Z</time>
      </trkpt>
      <trkpt lat="44.29433" lon="0.89672">
        <ele>111.65</ele>
        <time>2009-10-11T13:50:36Z</time>
      </trkpt>
      <trkpt lat="44.2944" lon="0.89656">
        <ele>110.21</ele>
        <time>2009-10-11T13:50:50Z</time>
      </trkpt>
      <trkpt lat="44.29441" lon="0.89654">
        <ele>109.73</ele>
        <time>2009-10-11T13:50:52Z</time>
      </trkpt>
      <trkpt lat="44.29444" lon="0.89644">
        <ele>107.81</ele>
        <time>2009-10-11T13:51:06Z</time>
      </trkpt>
      <trkpt lat="44.29445" lon="0.89642">
        <ele>108.29</ele>
        <time>2009-10-11T13:51:47Z</time>
      </trkpt>
      <trkpt lat="44.29448" lon="0.89641">
        <ele>106.84</ele>
        <time>2009-10-11T13:51:50Z</time>
      </trkpt>
      <trkpt lat="44.29451" lon="0.89625">
        <ele>104.92</ele>
        <time>2009-10-11T13:52:00Z</time>
      </trkpt>
      <trkpt lat="44.29461" lon="0.89609">
        <ele>102.04</ele>
        <time>2009-10-11T13:52:14Z</time>
      </trkpt>
      <trkpt lat="44.29468" lon="0.89597">
        <ele>99.63</ele>
        <time>2009-10-11T13:52:24Z</time>
      </trkpt>
      <trkpt lat="44.29469" lon="0.89594">
        <ele>100.6</ele>
        <time>2009-10-11T13:52:27Z</time>
      </trkpt>
      <trkpt lat="44.2948" lon="0.89577">
        <ele>98.67</ele>
        <time>2009-10-11T13:52:40Z</time>
      </trkpt>
      <trkpt lat="44.29487" lon="0.89567">
        <ele>97.71</ele>
        <time>2009-10-11T13:52:48Z</time>
      </trkpt>
      <trkpt lat="44.29498" lon="0.89549">
        <ele>96.75</ele>
        <time>2009-10-11T13:53:02Z</time>
      </trkpt>
      <trkpt lat="44.29505" lon="0.89537">
        <ele>95.31</ele>
        <time>2009-10-11T13:53:10Z</time>
      </trkpt>
      <trkpt lat="44.29517" lon="0.89516">
        <ele>94.83</ele>
        <time>2009-10-11T13:53:25Z</time>
      </trkpt>
      <trkpt lat="44.29529" lon="0.89492">
        <ele>94.83</ele>
        <time>2009-10-11T13:53:41Z</time>
      </trkpt>
      <trkpt lat="44.29532" lon="0.89481">
        <ele>93.39</ele>
        <time>2009-10-11T13:53:47Z</time>
      </trkpt>
      <trkpt lat="44.29531" lon="0.89477">
        <ele>94.35</ele>
        <time>2009-10-11T13:54:10Z</time>
      </trkpt>
      <trkpt lat="44.29532" lon="0.89476">
        <ele>93.39</ele>
        <time>2009-10-11T13:56:41Z</time>
      </trkpt>
      <trkpt lat="44.29546" lon="0.89455">
        <ele>93.39</ele>
        <time>2009-10-11T13:56:58Z</time>
      </trkpt>
      <trkpt lat="44.29561" lon="0.89431">
        <ele>92.42</ele>
        <time>2009-10-11T13:57:14Z</time>
      </trkpt>
      <trkpt lat="44.29578" lon="0.89406">
        <ele>92.9</ele>
        <time>2009-10-11T13:57:31Z</time>
      </trkpt>
      <trkpt lat="44.29579" lon="0.89405">
        <ele>92.9</ele>
        <time>2009-10-11T13:57:32Z</time>
      </trkpt>
      <trkpt lat="44.29596" lon="0.8939">
        <ele>91.94</ele>
        <time>2009-10-11T13:57:47Z</time>
      </trkpt>
      <trkpt lat="44.29614" lon="0.89376">
        <ele>91.94</ele>
        <time>2009-10-11T13:58:01Z</time>
      </trkpt>
      <trkpt lat="44.29635" lon="0.89361">
        <ele>91.94</ele>
        <time>2009-10-11T13:58:16Z</time>
      </trkpt>
      <trkpt lat="44.2965" lon="0.89348">
        <ele>92.9</ele>
        <time>2009-10-11T13:58:30Z</time>
      </trkpt>
      <trkpt lat="44.2967" lon="0.89335">
        <ele>94.35</ele>
        <time>2009-10-11T13:58:46Z</time>
      </trkpt>
      <trkpt lat="44.2969" lon="0.89329">
        <ele>94.83</ele>
        <time>2009-10-11T13:59:00Z</time>
      </trkpt>
      <trkpt lat="44.29702" lon="0.89327">
        <ele>93.87</ele>
        <time>2009-10-11T13:59:14Z</time>
      </trkpt>
      <trkpt lat="44.29716" lon="0.8932">
        <ele>94.35</ele>
        <time>2009-10-11T13:59:31Z</time>
      </trkpt>
      <trkpt lat="44.29734" lon="0.89301">
        <ele>94.35</ele>
        <time>2009-10-11T13:59:48Z</time>
      </trkpt>
      <trkpt lat="44.29746" lon="0.89286">
        <ele>95.31</ele>
        <time>2009-10-11T14:00:02Z</time>
      </trkpt>
      <trkpt lat="44.29745" lon="0.89288">
        <ele>96.27</ele>
        <time>2009-10-11T14:00:18Z</time>
      </trkpt>
      <trkpt lat="44.29744" lon="0.89288">
        <ele>94.83</ele>
        <time>2009-10-11T14:00:26Z</time>
      </trkpt>
      <trkpt lat="44.29753" lon="0.89278">
        <ele>96.27</ele>
        <time>2009-10-11T14:02:04Z</time>
      </trkpt>
      <trkpt lat="44.29763" lon="0.89269">
        <ele>96.75</ele>
        <time>2009-10-11T14:02:16Z</time>
      </trkpt>
      <trkpt lat="44.29768" lon="0.89265">
        <ele>97.71</ele>
        <time>2009-10-11T14:02:25Z</time>
      </trkpt>
      <trkpt lat="44.29772" lon="0.89261">
        <ele>97.71</ele>
        <time>2009-10-11T14:02:29Z</time>
      </trkpt>
      <trkpt lat="44.29782" lon="0.89252">
        <ele>96.27</ele>
        <time>2009-10-11T14:02:39Z</time>
      </trkpt>
      <trkpt lat="44.298" lon="0.89231">
        <ele>97.71</ele>
        <time>2009-10-11T14:02:57Z</time>
      </trkpt>
      <trkpt lat="44.29823" lon="0.89208">
        <ele>100.11</ele>
        <time>2009-10-11T14:03:18Z</time>
      </trkpt>
      <trkpt lat="44.29831" lon="0.89196">
        <ele>99.63</ele>
        <time>2009-10-11T14:03:27Z</time>
      </trkpt>
      <trkpt lat="44.2983" lon="0.89188">
        <ele>100.11</ele>
        <time>2009-10-11T14:03:31Z</time>
      </trkpt>
      <trkpt lat="44.29826" lon="0.89179">
        <ele>99.15</ele>
        <time>2009-10-11T14:03:51Z</time>
      </trkpt>
      <trkpt lat="44.29826" lon="0.89178">
        <ele>99.63</ele>
        <time>2009-10-11T14:03:56Z</time>
      </trkpt>
      <trkpt lat="44.29824" lon="0.89172">
        <ele>99.63</ele>
        <time>2009-10-11T14:04:00Z</time>
      </trkpt>
      <trkpt lat="44.29823" lon="0.89168">
        <ele>100.6</ele>
        <time>2009-10-11T14:04:02Z</time>
      </trkpt>
      <trkpt lat="44.29824" lon="0.89153">
        <ele>101.56</ele>
        <time>2009-10-11T14:04:10Z</time>
      </trkpt>
      <trkpt lat="44.29821" lon="0.89119">
        <ele>103.96</ele>
        <time>2009-10-11T14:04:28Z</time>
      </trkpt>
      <trkpt lat="44.29816" lon="0.89098">
        <ele>105.4</ele>
        <time>2009-10-11T14:04:40Z</time>
      </trkpt>
      <trkpt lat="44.2981" lon="0.89087">
        <ele>107.32</ele>
        <time>2009-10-11T14:04:50Z</time>
      </trkpt>
      <trkpt lat="44.29807" lon="0.89066">
        <ele>110.21</ele>
        <time>2009-10-11T14:05:01Z</time>
      </trkpt>
      <trkpt lat="44.29802" lon="0.89047">
        <ele>112.13</ele>
        <time>2009-10-11T14:05:11Z</time>
      </trkpt>
      <trkpt lat="44.29802" lon="0.89045">
        <ele>112.13</ele>
        <time>2009-10-11T14:05:12Z</time>
      </trkpt>
      <trkpt lat="44.29798" lon="0.89023">
        <ele>115.01</ele>
        <time>2009-10-11T14:05:24Z</time>
      </trkpt>
      <trkpt lat="44.29793" lon="0.89004">
        <ele>115.98</ele>
        <time>2009-10-11T14:05:34Z</time>
      </trkpt>
      <trkpt lat="44.29788" lon="0.88988">
        <ele>116.46</ele>
        <time>2009-10-11T14:05:44Z</time>
      </trkpt>
      <trkpt lat="44.29782" lon="0.88965">
        <ele>117.42</ele>
        <time>2009-10-11T14:05:57Z</time>
      </trkpt>
      <trkpt lat="44.29779" lon="0.88938">
        <ele>118.86</ele>
        <time>2009-10-11T14:06:12Z</time>
      </trkpt>
      <trkpt lat="44.29786" lon="0.88909">
        <ele>116.94</ele>
        <time>2009-10-11T14:06:28Z</time>
      </trkpt>
      <trkpt lat="44.29789" lon="0.88877">
        <ele>119.34</ele>
        <time>2009-10-11T14:06:45Z</time>
      </trkpt>
      <trkpt lat="44.29797" lon="0.88848">
        <ele>121.26</ele>
        <time>2009-10-11T14:07:01Z</time>
      </trkpt>
      <trkpt lat="44.29799" lon="0.88839">
        <ele>121.26</ele>
        <time>2009-10-11T14:07:06Z</time>
      </trkpt>
      <trkpt lat="44.29804" lon="0.88811">
        <ele>121.26</ele>
        <time>2009-10-11T14:07:21Z</time>
      </trkpt>
      <trkpt lat="44.29804" lon="0.8881">
        <ele>121.26</ele>
        <time>2009-10-11T14:07:22Z</time>
      </trkpt>
      <trkpt lat="44.29809" lon="0.88784">
        <ele>122.71</ele>
        <time>2009-10-11T14:07:37Z</time>
      </trkpt>
      <trkpt lat="44.29815" lon="0.88763">
        <ele>125.11</ele>
        <time>2009-10-11T14:07:51Z</time>
      </trkpt>
      <trkpt lat="44.2983" lon="0.88732">
        <ele>127.99</ele>
        <time>2009-10-11T14:08:11Z</time>
      </trkpt>
      <trkpt lat="44.29849" lon="0.8872">
        <ele>127.99</ele>
        <time>2009-10-11T14:08:29Z</time>
      </trkpt>
      <trkpt lat="44.29865" lon="0.88702">
        <ele>130.4</ele>
        <time>2009-10-11T14:08:45Z</time>
      </trkpt>
      <trkpt lat="44.29868" lon="0.88681">
        <ele>131.84</ele>
        <time>2009-10-11T14:08:56Z</time>
      </trkpt>
      <trkpt lat="44.29865" lon="0.88674">
        <ele>132.32</ele>
        <time>2009-10-11T14:09:00Z</time>
      </trkpt>
      <trkpt lat="44.29856" lon="0.88645">
        <ele>132.32</ele>
        <time>2009-10-11T14:09:20Z</time>
      </trkpt>
      <trkpt lat="44.2985" lon="0.88628">
        <ele>133.76</ele>
        <time>2009-10-11T14:09:32Z</time>
      </trkpt>
      <trkpt lat="44.29841" lon="0.88614">
        <ele>135.2</ele>
        <time>2009-10-11T14:09:43Z</time>
      </trkpt>
      <trkpt lat="44.2984" lon="0.88606">
        <ele>136.16</ele>
        <time>2009-10-11T14:09:48Z</time>
      </trkpt>
      <trkpt lat="44.2984" lon="0.88581">
        <ele>139.05</ele>
        <time>2009-10-11T14:10:03Z</time>
      </trkpt>
      <trkpt lat="44.2984" lon="0.88579">
        <ele>139.05</ele>
        <time>2009-10-11T14:10:04Z</time>
      </trkpt>
      <trkpt lat="44.29837" lon="0.8855">
        <ele>140.97</ele>
        <time>2009-10-11T14:10:21Z</time>
      </trkpt>
      <trkpt lat="44.29835" lon="0.88527">
        <ele>142.89</ele>
        <time>2009-10-11T14:10:35Z</time>
      </trkpt>
      <trkpt lat="44.29834" lon="0.88511">
        <ele>146.26</ele>
        <time>2009-10-11T14:10:46Z</time>
      </trkpt>
      <trkpt lat="44.29832" lon="0.88492">
        <ele>147.7</ele>
        <time>2009-10-11T14:11:00Z</time>
      </trkpt>
      <trkpt lat="44.29831" lon="0.88476">
        <ele>149.62</ele>
        <time>2009-10-11T14:18:03Z</time>
      </trkpt>
      <trkpt lat="44.29841" lon="0.88478">
        <ele>150.58</ele>
        <time>2009-10-11T14:18:10Z</time>
      </trkpt>
      <trkpt lat="44.29849" lon="0.88473">
        <ele>150.58</ele>
        <time>2009-10-11T14:18:19Z</time>
      </trkpt>
      <trkpt lat="44.29854" lon="0.88464">
        <ele>151.06</ele>
        <time>2009-10-11T14:18:26Z</time>
      </trkpt>
      <trkpt lat="44.29861" lon="0.88445">
        <ele>152.03</ele>
        <time>2009-10-11T14:18:38Z</time>
      </trkpt>
      <trkpt lat="44.29864" lon="0.88435">
        <ele>152.99</ele>
        <time>2009-10-11T14:18:44Z</time>
      </trkpt>
      <trkpt lat="44.29865" lon="0.88414">
        <ele>155.39</ele>
        <time>2009-10-11T14:18:59Z</time>
      </trkpt>
      <trkpt lat="44.29873" lon="0.88398">
        <ele>157.31</ele>
        <time>2009-10-11T14:19:10Z</time>
      </trkpt>
      <trkpt lat="44.29877" lon="0.88394">
        <ele>157.79</ele>
        <time>2009-10-11T14:19:13Z</time>
      </trkpt>
      <trkpt lat="44.29883" lon="0.88384">
        <ele>157.79</ele>
        <time>2009-10-11T14:19:23Z</time>
      </trkpt>
      <trkpt lat="44.29886" lon="0.88379">
        <ele>157.79</ele>
        <time>2009-10-11T14:19:27Z</time>
      </trkpt>
      <trkpt lat="44.29893" lon="0.88371">
        <ele>159.72</ele>
        <time>2009-10-11T14:19:34Z</time>
      </trkpt>
      <trkpt lat="44.29901" lon="0.8836">
        <ele>161.16</ele>
        <time>2009-10-11T14:19:45Z</time>
      </trkpt>
      <trkpt lat="44.29905" lon="0.88358">
        <ele>163.08</ele>
        <time>2009-10-11T14:19:48Z</time>
      </trkpt>
      <trkpt lat="44.2991" lon="0.88354">
        <ele>164.04</ele>
        <time>2009-10-11T14:19:54Z</time>
      </trkpt>
      <trkpt lat="44.29937" lon="0.88344">
        <ele>166.93</ele>
        <time>2009-10-11T14:20:06Z</time>
      </trkpt>
      <trkpt lat="44.29943" lon="0.8834">
        <ele>166.45</ele>
        <time>2009-10-11T14:20:10Z</time>
      </trkpt>
      <trkpt lat="44.29959" lon="0.88328">
        <ele>169.33</ele>
        <time>2009-10-11T14:20:24Z</time>
      </trkpt>
      <trkpt lat="44.29965" lon="0.88316">
        <ele>171.25</ele>
        <time>2009-10-11T14:20:36Z</time>
      </trkpt>
      <trkpt lat="44.29966" lon="0.88315">
        <ele>170.77</ele>
        <time>2009-10-11T14:20:37Z</time>
      </trkpt>
      <trkpt lat="44.29979" lon="0.88305">
        <ele>173.66</ele>
        <time>2009-10-11T14:20:48Z</time>
      </trkpt>
      <trkpt lat="44.29986" lon="0.88299">
        <ele>175.1</ele>
        <time>2009-10-11T14:20:55Z</time>
      </trkpt>
      <trkpt lat="44.30006" lon="0.88279">
        <ele>177.5</ele>
        <time>2009-10-11T14:21:14Z</time>
      </trkpt>
      <trkpt lat="44.30008" lon="0.88278">
        <ele>177.98</ele>
        <time>2009-10-11T14:21:15Z</time>
      </trkpt>
      <trkpt lat="44.30021" lon="0.88247">
        <ele>181.35</ele>
        <time>2009-10-11T14:21:43Z</time>
      </trkpt>
      <trkpt lat="44.30022" lon="0.88246">
        <ele>181.83</ele>
        <time>2009-10-11T14:21:44Z</time>
      </trkpt>
      <trkpt lat="44.30041" lon="0.88229">
        <ele>184.71</ele>
        <time>2009-10-11T14:22:06Z</time>
      </trkpt>
      <trkpt lat="44.30055" lon="0.8822">
        <ele>187.11</ele>
        <time>2009-10-11T14:22:16Z</time>
      </trkpt>
      <trkpt lat="44.3006" lon="0.88202">
        <ele>190.48</ele>
        <time>2009-10-11T14:22:32Z</time>
      </trkpt>
      <trkpt lat="44.30074" lon="0.88186">
        <ele>192.4</ele>
        <time>2009-10-11T14:22:43Z</time>
      </trkpt>
      <trkpt lat="44.3008" lon="0.88181">
        <ele>192.88</ele>
        <time>2009-10-11T14:22:47Z</time>
      </trkpt>
      <trkpt lat="44.3008" lon="0.88178">
        <ele>191.44</ele>
        <time>2009-10-11T14:22:49Z</time>
      </trkpt>
      <trkpt lat="44.30106" lon="0.88165">
        <ele>194.8</ele>
        <time>2009-10-11T14:22:58Z</time>
      </trkpt>
      <trkpt lat="44.3011" lon="0.88155">
        <ele>195.28</ele>
        <time>2009-10-11T14:23:06Z</time>
      </trkpt>
      <trkpt lat="44.3011" lon="0.88137">
        <ele>197.69</ele>
        <time>2009-10-11T14:23:21Z</time>
      </trkpt>
      <trkpt lat="44.30112" lon="0.88117">
        <ele>197.69</ele>
        <time>2009-10-11T14:23:34Z</time>
      </trkpt>
      <trkpt lat="44.30114" lon="0.88098">
        <ele>198.65</ele>
        <time>2009-10-11T14:23:48Z</time>
      </trkpt>
      <trkpt lat="44.3012" lon="0.88077">
        <ele>199.61</ele>
        <time>2009-10-11T14:24:01Z</time>
      </trkpt>
      <trkpt lat="44.30121" lon="0.88063">
        <ele>199.61</ele>
        <time>2009-10-11T14:24:09Z</time>
      </trkpt>
      <trkpt lat="44.30133" lon="0.88033">
        <ele>200.57</ele>
        <time>2009-10-11T14:24:28Z</time>
      </trkpt>
      <trkpt lat="44.30137" lon="0.88024">
        <ele>200.09</ele>
        <time>2009-10-11T14:24:33Z</time>
      </trkpt>
      <trkpt lat="44.30148" lon="0.87995">
        <ele>199.61</ele>
        <time>2009-10-11T14:24:49Z</time>
      </trkpt>
      <trkpt lat="44.30158" lon="0.87967">
        <ele>199.61</ele>
        <time>2009-10-11T14:25:04Z</time>
      </trkpt>
      <trkpt lat="44.3017" lon="0.87937">
        <ele>201.05</ele>
        <time>2009-10-11T14:25:21Z</time>
      </trkpt>
      <trkpt lat="44.30179" lon="0.87907">
        <ele>200.09</ele>
        <time>2009-10-11T14:25:36Z</time>
      </trkpt>
      <trkpt lat="44.30185" lon="0.87874">
        <ele>200.09</ele>
        <time>2009-10-11T14:25:52Z</time>
      </trkpt>
      <trkpt lat="44.30202" lon="0.87841">
        <ele>201.05</ele>
        <time>2009-10-11T14:26:09Z</time>
      </trkpt>
      <trkpt lat="44.30221" lon="0.8781">
        <ele>200.57</ele>
        <time>2009-10-11T14:26:27Z</time>
      </trkpt>
      <trkpt lat="44.30234" lon="0.87784">
        <ele>199.13</ele>
        <time>2009-10-11T14:26:42Z</time>
      </trkpt>
      <trkpt lat="44.30238" lon="0.87777">
        <ele>199.13</ele>
        <time>2009-10-11T14:26:46Z</time>
      </trkpt>
      <trkpt lat="44.30243" lon="0.87763">
        <ele>198.17</ele>
        <time>2009-10-11T14:26:53Z</time>
      </trkpt>
      <trkpt lat="44.30253" lon="0.8773">
        <ele>197.21</ele>
        <time>2009-10-11T14:27:11Z</time>
      </trkpt>
      <trkpt lat="44.30255" lon="0.87715">
        <ele>196.25</ele>
        <time>2009-10-11T14:27:18Z</time>
      </trkpt>
      <trkpt lat="44.30252" lon="0.87699">
        <ele>194.8</ele>
        <time>2009-10-11T14:27:27Z</time>
      </trkpt>
      <trkpt lat="44.30233" lon="0.87686">
        <ele>195.77</ele>
        <time>2009-10-11T14:27:43Z</time>
      </trkpt>
      <trkpt lat="44.30219" lon="0.87674">
        <ele>197.21</ele>
        <time>2009-10-11T14:27:55Z</time>
      </trkpt>
      <trkpt lat="44.30202" lon="0.87657">
        <ele>197.69</ele>
        <time>2009-10-11T14:28:09Z</time>
      </trkpt>
      <trkpt lat="44.30187" lon="0.87647">
        <ele>199.13</ele>
        <time>2009-10-11T14:28:19Z</time>
      </trkpt>
      <trkpt lat="44.30184" lon="0.87644">
        <ele>199.13</ele>
        <time>2009-10-11T14:28:22Z</time>
      </trkpt>
      <trkpt lat="44.3018" lon="0.87638">
        <ele>198.17</ele>
        <time>2009-10-11T14:28:28Z</time>
      </trkpt>
      <trkpt lat="44.30179" lon="0.87633">
        <ele>200.09</ele>
        <time>2009-10-11T14:28:31Z</time>
      </trkpt>
      <trkpt lat="44.30175" lon="0.87611">
        <ele>201.05</ele>
        <time>2009-10-11T14:28:42Z</time>
      </trkpt>
      <trkpt lat="44.30174" lon="0.87604">
        <ele>201.05</ele>
        <time>2009-10-11T14:28:59Z</time>
      </trkpt>
      <trkpt lat="44.30174" lon="0.87602">
        <ele>201.05</ele>
        <time>2009-10-11T14:29:27Z</time>
      </trkpt>
      <trkpt lat="44.30175" lon="0.87601">
        <ele>202.98</ele>
        <time>2009-10-11T14:29:28Z</time>
      </trkpt>
      <trkpt lat="44.30195" lon="0.8759">
        <ele>203.46</ele>
        <time>2009-10-11T14:29:46Z</time>
      </trkpt>
      <trkpt lat="44.30214" lon="0.87584">
        <ele>204.42</ele>
        <time>2009-10-11T14:30:01Z</time>
      </trkpt>
      <trkpt lat="44.30234" lon="0.87578">
        <ele>205.38</ele>
        <time>2009-10-11T14:30:16Z</time>
      </trkpt>
      <trkpt lat="44.30253" lon="0.87575">
        <ele>205.38</ele>
        <time>2009-10-11T14:30:29Z</time>
      </trkpt>
      <trkpt lat="44.30271" lon="0.87568">
        <ele>206.82</ele>
        <time>2009-10-11T14:30:42Z</time>
      </trkpt>
      <trkpt lat="44.30276" lon="0.87568">
        <ele>208.26</ele>
        <time>2009-10-11T14:30:46Z</time>
      </trkpt>
      <trkpt lat="44.30283" lon="0.87563">
        <ele>207.78</ele>
        <time>2009-10-11T14:30:52Z</time>
      </trkpt>
      <trkpt lat="44.30304" lon="0.87548">
        <ele>208.74</ele>
        <time>2009-10-11T14:31:09Z</time>
      </trkpt>
      <trkpt lat="44.30325" lon="0.87531">
        <ele>210.19</ele>
        <time>2009-10-11T14:31:26Z</time>
      </trkpt>
      <trkpt lat="44.30341" lon="0.87517">
        <ele>210.67</ele>
        <time>2009-10-11T14:31:40Z</time>
      </trkpt>
      <trkpt lat="44.3036" lon="0.87501">
        <ele>211.63</ele>
        <time>2009-10-11T14:31:56Z</time>
      </trkpt>
      <trkpt lat="44.30375" lon="0.87484">
        <ele>212.59</ele>
        <time>2009-10-11T14:32:10Z</time>
      </trkpt>
      <trkpt lat="44.30383" lon="0.87475">
        <ele>213.07</ele>
        <time>2009-10-11T14:32:17Z</time>
      </trkpt>
      <trkpt lat="44.30391" lon="0.87465">
        <ele>214.51</ele>
        <time>2009-10-11T14:32:24Z</time>
      </trkpt>
      <trkpt lat="44.30407" lon="0.87443">
        <ele>214.99</ele>
        <time>2009-10-11T14:32:40Z</time>
      </trkpt>
      <trkpt lat="44.30429" lon="0.8741">
        <ele>214.99</ele>
        <time>2009-10-11T14:33:02Z</time>
      </trkpt>
      <trkpt lat="44.3045" lon="0.8738">
        <ele>215.47</ele>
        <time>2009-10-11T14:33:23Z</time>
      </trkpt>
      <trkpt lat="44.30454" lon="0.87374">
        <ele>215.47</ele>
        <time>2009-10-11T14:33:27Z</time>
      </trkpt>
      <trkpt lat="44.30471" lon="0.87349">
        <ele>215.47</ele>
        <time>2009-10-11T14:33:44Z</time>
      </trkpt>
      <trkpt lat="44.30488" lon="0.87326">
        <ele>215.47</ele>
        <time>2009-10-11T14:33:59Z</time>
      </trkpt>
      <trkpt lat="44.30514" lon="0.87298">
        <ele>215.47</ele>
        <time>2009-10-11T14:34:20Z</time>
      </trkpt>
      <trkpt lat="44.30534" lon="0.87274">
        <ele>214.99</ele>
        <time>2009-10-11T14:34:37Z</time>
      </trkpt>
      <trkpt lat="44.30549" lon="0.87246">
        <ele>214.51</ele>
        <time>2009-10-11T14:34:54Z</time>
      </trkpt>
      <trkpt lat="44.30565" lon="0.87218">
        <ele>213.55</ele>
        <time>2009-10-11T14:35:11Z</time>
      </trkpt>
      <trkpt lat="44.30581" lon="0.87189">
        <ele>212.59</ele>
        <time>2009-10-11T14:35:28Z</time>
      </trkpt>
      <trkpt lat="44.30597" lon="0.87163">
        <ele>213.07</ele>
        <time>2009-10-11T14:35:44Z</time>
      </trkpt>
      <trkpt lat="44.30611" lon="0.87145">
        <ele>213.07</ele>
        <time>2009-10-11T14:35:57Z</time>
      </trkpt>
      <trkpt lat="44.30633" lon="0.87128">
        <ele>213.55</ele>
        <time>2009-10-11T14:36:15Z</time>
      </trkpt>
      <trkpt lat="44.30634" lon="0.87128">
        <ele>212.59</ele>
        <time>2009-10-11T14:36:17Z</time>
      </trkpt>
      <trkpt lat="44.30647" lon="0.87114">
        <ele>212.59</ele>
        <time>2009-10-11T14:36:30Z</time>
      </trkpt>
      <trkpt lat="44.3065" lon="0.87111">
        <ele>214.03</ele>
        <time>2009-10-11T14:36:50Z</time>
      </trkpt>
      <trkpt lat="44.30664" lon="0.87094">
        <ele>213.55</ele>
        <time>2009-10-11T14:37:04Z</time>
      </trkpt>
      <trkpt lat="44.30667" lon="0.8709">
        <ele>212.11</ele>
        <time>2009-10-11T14:37:07Z</time>
      </trkpt>
      <trkpt lat="44.30684" lon="0.87066">
        <ele>213.07</ele>
        <time>2009-10-11T14:37:25Z</time>
      </trkpt>
      <trkpt lat="44.30707" lon="0.87036">
        <ele>212.11</ele>
        <time>2009-10-11T14:37:47Z</time>
      </trkpt>
      <trkpt lat="44.30724" lon="0.87015">
        <ele>213.07</ele>
        <time>2009-10-11T14:38:03Z</time>
      </trkpt>
      <trkpt lat="44.30739" lon="0.86995">
        <ele>213.07</ele>
        <time>2009-10-11T14:38:17Z</time>
      </trkpt>
      <trkpt lat="44.30757" lon="0.86971">
        <ele>213.55</ele>
        <time>2009-10-11T14:38:34Z</time>
      </trkpt>
      <trkpt lat="44.30773" lon="0.86947">
        <ele>213.55</ele>
        <time>2009-10-11T14:38:49Z</time>
      </trkpt>
      <trkpt lat="44.30788" lon="0.86925">
        <ele>214.51</ele>
        <time>2009-10-11T14:39:05Z</time>
      </trkpt>
      <trkpt lat="44.30805" lon="0.86895">
        <ele>215.47</ele>
        <time>2009-10-11T14:39:24Z</time>
      </trkpt>
      <trkpt lat="44.3081" lon="0.86887">
        <ele>212.11</ele>
        <time>2009-10-11T14:39:29Z</time>
      </trkpt>
      <trkpt lat="44.30826" lon="0.86864">
        <ele>214.51</ele>
        <time>2009-10-11T14:39:45Z</time>
      </trkpt>
      <trkpt lat="44.30829" lon="0.86859">
        <ele>213.55</ele>
        <time>2009-10-11T14:39:48Z</time>
      </trkpt>
      <trkpt lat="44.30818" lon="0.86841">
        <ele>215.47</ele>
        <time>2009-10-11T14:40:01Z</time>
      </trkpt>
      <trkpt lat="44.308" lon="0.86824">
        <ele>214.51</ele>
        <time>2009-10-11T14:40:16Z</time>
      </trkpt>
      <trkpt lat="44.30786" lon="0.86806">
        <ele>216.43</ele>
        <time>2009-10-11T14:40:29Z</time>
      </trkpt>
      <trkpt lat="44.3078" lon="0.86798">
        <ele>215.95</ele>
        <time>2009-10-11T14:40:34Z</time>
      </trkpt>
      <trkpt lat="44.30769" lon="0.86772">
        <ele>215.95</ele>
        <time>2009-10-11T14:40:49Z</time>
      </trkpt>
      <trkpt lat="44.30759" lon="0.86743">
        <ele>214.99</ele>
        <time>2009-10-11T14:41:04Z</time>
      </trkpt>
      <trkpt lat="44.3075" lon="0.86709">
        <ele>214.99</ele>
        <time>2009-10-11T14:41:22Z</time>
      </trkpt>
      <trkpt lat="44.30748" lon="0.86692">
        <ele>214.51</ele>
        <time>2009-10-11T14:41:31Z</time>
      </trkpt>
      <trkpt lat="44.30748" lon="0.86671">
        <ele>214.51</ele>
        <time>2009-10-11T14:41:41Z</time>
      </trkpt>
      <trkpt lat="44.30745" lon="0.86643">
        <ele>214.51</ele>
        <time>2009-10-11T14:41:54Z</time>
      </trkpt>
      <trkpt lat="44.30742" lon="0.86632">
        <ele>214.03</ele>
        <time>2009-10-11T14:42:00Z</time>
      </trkpt>
      <trkpt lat="44.30743" lon="0.86619">
        <ele>214.03</ele>
        <time>2009-10-11T14:42:06Z</time>
      </trkpt>
      <trkpt lat="44.30743" lon="0.86592">
        <ele>213.55</ele>
        <time>2009-10-11T14:42:17Z</time>
      </trkpt>
      <trkpt lat="44.30746" lon="0.86573">
        <ele>213.55</ele>
        <time>2009-10-11T14:42:26Z</time>
      </trkpt>
      <trkpt lat="44.30747" lon="0.86566">
        <ele>213.07</ele>
        <time>2009-10-11T14:42:29Z</time>
      </trkpt>
      <trkpt lat="44.30754" lon="0.86541">
        <ele>212.59</ele>
        <time>2009-10-11T14:42:41Z</time>
      </trkpt>
      <trkpt lat="44.30755" lon="0.86539">
        <ele>213.55</ele>
        <time>2009-10-11T14:42:42Z</time>
      </trkpt>
      <trkpt lat="44.30754" lon="0.8653">
        <ele>213.07</ele>
        <time>2009-10-11T14:42:46Z</time>
      </trkpt>
      <trkpt lat="44.30759" lon="0.86504">
        <ele>211.63</ele>
        <time>2009-10-11T14:42:58Z</time>
      </trkpt>
      <trkpt lat="44.30762" lon="0.86477">
        <ele>211.63</ele>
        <time>2009-10-11T14:43:13Z</time>
      </trkpt>
      <trkpt lat="44.30765" lon="0.86452">
        <ele>210.67</ele>
        <time>2009-10-11T14:43:27Z</time>
      </trkpt>
      <trkpt lat="44.30768" lon="0.86422">
        <ele>210.19</ele>
        <time>2009-10-11T14:43:41Z</time>
      </trkpt>
      <trkpt lat="44.30771" lon="0.86398">
        <ele>209.7</ele>
        <time>2009-10-11T14:43:54Z</time>
      </trkpt>
      <trkpt lat="44.30772" lon="0.86387">
        <ele>210.19</ele>
        <time>2009-10-11T14:43:59Z</time>
      </trkpt>
      <trkpt lat="44.30771" lon="0.86355">
        <ele>211.15</ele>
        <time>2009-10-11T14:44:14Z</time>
      </trkpt>
      <trkpt lat="44.30771" lon="0.86342">
        <ele>209.7</ele>
        <time>2009-10-11T14:44:25Z</time>
      </trkpt>
      <trkpt lat="44.30766" lon="0.86306">
        <ele>211.15</ele>
        <time>2009-10-11T14:44:43Z</time>
      </trkpt>
      <trkpt lat="44.30761" lon="0.86278">
        <ele>208.74</ele>
        <time>2009-10-11T14:44:57Z</time>
      </trkpt>
      <trkpt lat="44.30755" lon="0.86241">
        <ele>209.7</ele>
        <time>2009-10-11T14:45:15Z</time>
      </trkpt>
      <trkpt lat="44.30748" lon="0.86202">
        <ele>210.19</ele>
        <time>2009-10-11T14:45:33Z</time>
      </trkpt>
      <trkpt lat="44.30743" lon="0.86176">
        <ele>209.7</ele>
        <time>2009-10-11T14:45:46Z</time>
      </trkpt>
      <trkpt lat="44.30739" lon="0.86152">
        <ele>209.7</ele>
        <time>2009-10-11T14:45:59Z</time>
      </trkpt>
      <trkpt lat="44.30735" lon="0.86125">
        <ele>209.7</ele>
        <time>2009-10-11T14:46:12Z</time>
      </trkpt>
      <trkpt lat="44.3073" lon="0.86098">
        <ele>209.22</ele>
        <time>2009-10-11T14:46:28Z</time>
      </trkpt>
      <trkpt lat="44.30724" lon="0.86068">
        <ele>209.22</ele>
        <time>2009-10-11T14:46:43Z</time>
      </trkpt>
      <trkpt lat="44.30718" lon="0.8604">
        <ele>209.7</ele>
        <time>2009-10-11T14:46:58Z</time>
      </trkpt>
      <trkpt lat="44.30713" lon="0.8601">
        <ele>210.67</ele>
        <time>2009-10-11T14:47:14Z</time>
      </trkpt>
      <trkpt lat="44.30701" lon="0.85973">
        <ele>209.7</ele>
        <time>2009-10-11T14:47:33Z</time>
      </trkpt>
      <trkpt lat="44.30691" lon="0.85941">
        <ele>210.19</ele>
        <time>2009-10-11T14:47:50Z</time>
      </trkpt>
      <trkpt lat="44.30687" lon="0.85928">
        <ele>210.19</ele>
        <time>2009-10-11T14:47:56Z</time>
      </trkpt>
      <trkpt lat="44.30686" lon="0.8592">
        <ele>209.22</ele>
        <time>2009-10-11T14:48:01Z</time>
      </trkpt>
      <trkpt lat="44.30686" lon="0.85895">
        <ele>207.3</ele>
        <time>2009-10-11T14:48:14Z</time>
      </trkpt>
      <trkpt lat="44.30697" lon="0.85878">
        <ele>204.9</ele>
        <time>2009-10-11T14:48:27Z</time>
      </trkpt>
      <trkpt lat="44.30716" lon="0.85858">
        <ele>204.9</ele>
        <time>2009-10-11T14:48:44Z</time>
      </trkpt>
      <trkpt lat="44.30731" lon="0.85839">
        <ele>203.94</ele>
        <time>2009-10-11T14:48:58Z</time>
      </trkpt>
      <trkpt lat="44.3075" lon="0.85821">
        <ele>202.98</ele>
        <time>2009-10-11T14:49:14Z</time>
      </trkpt>
      <trkpt lat="44.30771" lon="0.85799">
        <ele>200.57</ele>
        <time>2009-10-11T14:49:31Z</time>
      </trkpt>
      <trkpt lat="44.30788" lon="0.85776">
        <ele>200.57</ele>
        <time>2009-10-11T14:49:48Z</time>
      </trkpt>
      <trkpt lat="44.30807" lon="0.85753">
        <ele>199.61</ele>
        <time>2009-10-11T14:50:04Z</time>
      </trkpt>
      <trkpt lat="44.30808" lon="0.85752">
        <ele>199.61</ele>
        <time>2009-10-11T14:50:05Z</time>
      </trkpt>
      <trkpt lat="44.30804" lon="0.85712">
        <ele>198.65</ele>
        <time>2009-10-11T14:50:23Z</time>
      </trkpt>
      <trkpt lat="44.30796" lon="0.85684">
        <ele>198.65</ele>
        <time>2009-10-11T14:50:38Z</time>
      </trkpt>
      <trkpt lat="44.30784" lon="0.85652">
        <ele>197.69</ele>
        <time>2009-10-11T14:50:55Z</time>
      </trkpt>
      <trkpt lat="44.30773" lon="0.85623">
        <ele>196.73</ele>
        <time>2009-10-11T14:51:12Z</time>
      </trkpt>
      <trkpt lat="44.30767" lon="0.85592">
        <ele>198.65</ele>
        <time>2009-10-11T14:51:28Z</time>
      </trkpt>
      <trkpt lat="44.30765" lon="0.85586">
        <ele>197.21</ele>
        <time>2009-10-11T14:51:31Z</time>
      </trkpt>
      <trkpt lat="44.30756" lon="0.85562">
        <ele>199.61</ele>
        <time>2009-10-11T14:51:46Z</time>
      </trkpt>
      <trkpt lat="44.30752" lon="0.85555">
        <ele>201.53</ele>
        <time>2009-10-11T14:51:58Z</time>
      </trkpt>
      <trkpt lat="44.30745" lon="0.8554">
        <ele>201.53</ele>
        <time>2009-10-11T14:52:12Z</time>
      </trkpt>
      <trkpt lat="44.3073" lon="0.85515">
        <ele>203.46</ele>
        <time>2009-10-11T14:52:29Z</time>
      </trkpt>
      <trkpt lat="44.30721" lon="0.85503">
        <ele>203.46</ele>
        <time>2009-10-11T14:52:40Z</time>
      </trkpt>
      <trkpt lat="44.30719" lon="0.85494">
        <ele>203.94</ele>
        <time>2009-10-11T14:52:44Z</time>
      </trkpt>
      <trkpt lat="44.30708" lon="0.8546">
        <ele>203.46</ele>
        <time>2009-10-11T14:53:01Z</time>
      </trkpt>
      <trkpt lat="44.30704" lon="0.85445">
        <ele>203.46</ele>
        <time>2009-10-11T14:53:12Z</time>
      </trkpt>
      <trkpt lat="44.30688" lon="0.85421">
        <ele>202.49</ele>
        <time>2009-10-11T14:53:25Z</time>
      </trkpt>
      <trkpt lat="44.30681" lon="0.85406">
        <ele>200.57</ele>
        <time>2009-10-11T14:53:33Z</time>
      </trkpt>
      <trkpt lat="44.30674" lon="0.85389">
        <ele>199.61</ele>
        <time>2009-10-11T14:53:44Z</time>
      </trkpt>
      <trkpt lat="44.30663" lon="0.85361">
        <ele>198.17</ele>
        <time>2009-10-11T14:53:59Z</time>
      </trkpt>
      <trkpt lat="44.30643" lon="0.85353">
        <ele>194.8</ele>
        <time>2009-10-11T14:54:15Z</time>
      </trkpt>
      <trkpt lat="44.30617" lon="0.85342">
        <ele>192.88</ele>
        <time>2009-10-11T14:54:34Z</time>
      </trkpt>
      <trkpt lat="44.30607" lon="0.85332">
        <ele>192.4</ele>
        <time>2009-10-11T14:54:43Z</time>
      </trkpt>
      <trkpt lat="44.30597" lon="0.85317">
        <ele>189.52</ele>
        <time>2009-10-11T14:54:53Z</time>
      </trkpt>
      <trkpt lat="44.30592" lon="0.853">
        <ele>188.08</ele>
        <time>2009-10-11T14:55:04Z</time>
      </trkpt>
      <trkpt lat="44.30589" lon="0.85275">
        <ele>187.59</ele>
        <time>2009-10-11T14:55:16Z</time>
      </trkpt>
      <trkpt lat="44.30586" lon="0.85263">
        <ele>186.15</ele>
        <time>2009-10-11T14:55:24Z</time>
      </trkpt>
      <trkpt lat="44.30586" lon="0.85261">
        <ele>187.59</ele>
        <time>2009-10-11T14:55:26Z</time>
      </trkpt>
      <trkpt lat="44.30586" lon="0.85256">
        <ele>188.08</ele>
        <time>2009-10-11T14:55:29Z</time>
      </trkpt>
      <trkpt lat="44.30586" lon="0.85232">
        <ele>191.92</ele>
        <time>2009-10-11T14:55:43Z</time>
      </trkpt>
      <trkpt lat="44.30586" lon="0.85229">
        <ele>191.92</ele>
        <time>2009-10-11T14:55:45Z</time>
      </trkpt>
      <trkpt lat="44.30585" lon="0.85211">
        <ele>194.8</ele>
        <time>2009-10-11T14:55:55Z</time>
      </trkpt>
      <trkpt lat="44.30584" lon="0.85204">
        <ele>194.32</ele>
        <time>2009-10-11T14:55:59Z</time>
      </trkpt>
      <trkpt lat="44.30591" lon="0.85182">
        <ele>195.77</ele>
        <time>2009-10-11T14:56:13Z</time>
      </trkpt>
      <trkpt lat="44.30593" lon="0.85174">
        <ele>195.28</ele>
        <time>2009-10-11T14:56:17Z</time>
      </trkpt>
      <trkpt lat="44.30601" lon="0.85151">
        <ele>195.28</ele>
        <time>2009-10-11T14:56:30Z</time>
      </trkpt>
      <trkpt lat="44.30602" lon="0.85144">
        <ele>196.25</ele>
        <time>2009-10-11T14:56:34Z</time>
      </trkpt>
      <trkpt lat="44.30609" lon="0.85126">
        <ele>195.28</ele>
        <time>2009-10-11T14:56:44Z</time>
      </trkpt>
      <trkpt lat="44.30609" lon="0.85124">
        <ele>195.28</ele>
        <time>2009-10-11T14:56:48Z</time>
      </trkpt>
      <trkpt lat="44.30611" lon="0.85124">
        <ele>196.25</ele>
        <time>2009-10-11T14:56:50Z</time>
      </trkpt>
      <trkpt lat="44.30617" lon="0.85114">
        <ele>195.77</ele>
        <time>2009-10-11T14:56:54Z</time>
      </trkpt>
      <trkpt lat="44.30624" lon="0.85104">
        <ele>195.28</ele>
        <time>2009-10-11T14:56:59Z</time>
      </trkpt>
      <trkpt lat="44.30629" lon="0.85081">
        <ele>194.32</ele>
        <time>2009-10-11T14:57:10Z</time>
      </trkpt>
      <trkpt lat="44.30629" lon="0.85055">
        <ele>191.44</ele>
        <time>2009-10-11T14:57:23Z</time>
      </trkpt>
      <trkpt lat="44.30624" lon="0.85043">
        <ele>189.52</ele>
        <time>2009-10-11T14:57:39Z</time>
      </trkpt>
      <trkpt lat="44.3062" lon="0.85031">
        <ele>192.4</ele>
        <time>2009-10-11T14:57:49Z</time>
      </trkpt>
      <trkpt lat="44.30619" lon="0.85028">
        <ele>192.4</ele>
        <time>2009-10-11T14:57:52Z</time>
      </trkpt>
      <trkpt lat="44.3063" lon="0.85016">
        <ele>194.8</ele>
        <time>2009-10-11T14:57:59Z</time>
      </trkpt>
      <trkpt lat="44.30631" lon="0.85015">
        <ele>194.8</ele>
        <time>2009-10-11T14:58:00Z</time>
      </trkpt>
      <trkpt lat="44.30634" lon="0.85009">
        <ele>195.28</ele>
        <time>2009-10-11T14:58:04Z</time>
      </trkpt>
      <trkpt lat="44.30633" lon="0.84998">
        <ele>196.25</ele>
        <time>2009-10-11T14:58:11Z</time>
      </trkpt>
      <trkpt lat="44.30637" lon="0.84993">
        <ele>196.25</ele>
        <time>2009-10-11T14:58:23Z</time>
      </trkpt>
      <trkpt lat="44.30651" lon="0.84981">
        <ele>194.32</ele>
        <time>2009-10-11T14:58:35Z</time>
      </trkpt>
      <trkpt lat="44.30672" lon="0.84976">
        <ele>196.25</ele>
        <time>2009-10-11T14:58:51Z</time>
      </trkpt>
      <trkpt lat="44.30689" lon="0.84964">
        <ele>195.28</ele>
        <time>2009-10-11T14:59:05Z</time>
      </trkpt>
      <trkpt lat="44.30693" lon="0.84962">
        <ele>195.28</ele>
        <time>2009-10-11T14:59:08Z</time>
      </trkpt>
      <trkpt lat="44.30701" lon="0.84958">
        <ele>195.77</ele>
        <time>2009-10-11T14:59:13Z</time>
      </trkpt>
      <trkpt lat="44.30713" lon="0.84949">
        <ele>195.77</ele>
        <time>2009-10-11T14:59:22Z</time>
      </trkpt>
      <trkpt lat="44.30742" lon="0.84936">
        <ele>196.25</ele>
        <time>2009-10-11T14:59:41Z</time>
      </trkpt>
      <trkpt lat="44.30747" lon="0.84934">
        <ele>197.69</ele>
        <time>2009-10-11T14:59:44Z</time>
      </trkpt>
      <trkpt lat="44.30764" lon="0.84931">
        <ele>196.73</ele>
        <time>2009-10-11T14:59:58Z</time>
      </trkpt>
      <trkpt lat="44.30784" lon="0.8493">
        <ele>197.21</ele>
        <time>2009-10-11T15:00:12Z</time>
      </trkpt>
      <trkpt lat="44.30802" lon="0.84932">
        <ele>193.84</ele>
        <time>2009-10-11T15:00:24Z</time>
      </trkpt>
      <trkpt lat="44.30823" lon="0.84936">
        <ele>193.36</ele>
        <time>2009-10-11T15:00:39Z</time>
      </trkpt>
      <trkpt lat="44.30843" lon="0.84942">
        <ele>191.92</ele>
        <time>2009-10-11T15:00:53Z</time>
      </trkpt>
      <trkpt lat="44.30859" lon="0.84945">
        <ele>188.56</ele>
        <time>2009-10-11T15:01:05Z</time>
      </trkpt>
      <trkpt lat="44.30861" lon="0.84945">
        <ele>188.56</ele>
        <time>2009-10-11T15:01:06Z</time>
      </trkpt>
      <trkpt lat="44.30866" lon="0.84943">
        <ele>187.59</ele>
        <time>2009-10-11T15:01:10Z</time>
      </trkpt>
      <trkpt lat="44.30882" lon="0.84938">
        <ele>186.63</ele>
        <time>2009-10-11T15:01:21Z</time>
      </trkpt>
      <trkpt lat="44.309" lon="0.84937">
        <ele>187.11</ele>
        <time>2009-10-11T15:01:34Z</time>
      </trkpt>
      <trkpt lat="44.3092" lon="0.84936">
        <ele>188.08</ele>
        <time>2009-10-11T15:01:46Z</time>
      </trkpt>
      <trkpt lat="44.30921" lon="0.84935">
        <ele>187.59</ele>
        <time>2009-10-11T15:01:47Z</time>
      </trkpt>
      <trkpt lat="44.30928" lon="0.84918">
        <ele>188.56</ele>
        <time>2009-10-11T15:02:02Z</time>
      </trkpt>
      <trkpt lat="44.30929" lon="0.84916">
        <ele>190</ele>
        <time>2009-10-11T15:02:07Z</time>
      </trkpt>
      <trkpt lat="44.3093" lon="0.84912">
        <ele>189.04</ele>
        <time>2009-10-11T15:02:11Z</time>
      </trkpt>
      <trkpt lat="44.30932" lon="0.8491">
        <ele>189.04</ele>
        <time>2009-10-11T15:02:13Z</time>
      </trkpt>
      <trkpt lat="44.30943" lon="0.84911">
        <ele>187.11</ele>
        <time>2009-10-11T15:02:25Z</time>
      </trkpt>
      <trkpt lat="44.30949" lon="0.84914">
        <ele>185.67</ele>
        <time>2009-10-11T15:02:31Z</time>
      </trkpt>
      <trkpt lat="44.30963" lon="0.8492">
        <ele>183.27</ele>
        <time>2009-10-11T15:02:43Z</time>
      </trkpt>
      <trkpt lat="44.3098" lon="0.84927">
        <ele>179.9</ele>
        <time>2009-10-11T15:02:57Z</time>
      </trkpt>
      <trkpt lat="44.30988" lon="0.8493">
        <ele>178.46</ele>
        <time>2009-10-11T15:03:03Z</time>
      </trkpt>
      <trkpt lat="44.31" lon="0.84935">
        <ele>175.58</ele>
        <time>2009-10-11T15:03:13Z</time>
      </trkpt>
      <trkpt lat="44.31005" lon="0.84939">
        <ele>175.1</ele>
        <time>2009-10-11T15:03:17Z</time>
      </trkpt>
      <trkpt lat="44.31016" lon="0.84946">
        <ele>172.69</ele>
        <time>2009-10-11T15:03:27Z</time>
      </trkpt>
      <trkpt lat="44.31031" lon="0.8496">
        <ele>169.33</ele>
        <time>2009-10-11T15:03:41Z</time>
      </trkpt>
      <trkpt lat="44.3104" lon="0.84969">
        <ele>167.89</ele>
        <time>2009-10-11T15:03:50Z</time>
      </trkpt>
      <trkpt lat="44.31054" lon="0.84992">
        <ele>166.45</ele>
        <time>2009-10-11T15:04:05Z</time>
      </trkpt>
      <trkpt lat="44.31058" lon="0.84999">
        <ele>165</ele>
        <time>2009-10-11T15:04:10Z</time>
      </trkpt>
      <trkpt lat="44.31064" lon="0.85014">
        <ele>163.08</ele>
        <time>2009-10-11T15:04:20Z</time>
      </trkpt>
      <trkpt lat="44.31067" lon="0.85021">
        <ele>162.12</ele>
        <time>2009-10-11T15:04:25Z</time>
      </trkpt>
      <trkpt lat="44.31076" lon="0.85039">
        <ele>159.72</ele>
        <time>2009-10-11T15:04:37Z</time>
      </trkpt>
      <trkpt lat="44.31079" lon="0.85043">
        <ele>158.27</ele>
        <time>2009-10-11T15:04:40Z</time>
      </trkpt>
      <trkpt lat="44.31087" lon="0.85056">
        <ele>154.91</ele>
        <time>2009-10-11T15:04:50Z</time>
      </trkpt>
      <trkpt lat="44.3109" lon="0.85059">
        <ele>153.95</ele>
        <time>2009-10-11T15:04:53Z</time>
      </trkpt>
      <trkpt lat="44.31094" lon="0.85059">
        <ele>155.87</ele>
        <time>2009-10-11T15:04:56Z</time>
      </trkpt>
      <trkpt lat="44.31103" lon="0.85061">
        <ele>152.51</ele>
        <time>2009-10-11T15:05:03Z</time>
      </trkpt>
      <trkpt lat="44.31114" lon="0.85064">
        <ele>150.58</ele>
        <time>2009-10-11T15:05:12Z</time>
      </trkpt>
      <trkpt lat="44.31121" lon="0.85062">
        <ele>150.58</ele>
        <time>2009-10-11T15:05:18Z</time>
      </trkpt>
      <trkpt lat="44.31141" lon="0.85058">
        <ele>149.14</ele>
        <time>2009-10-11T15:05:33Z</time>
      </trkpt>
      <trkpt lat="44.31145" lon="0.85057">
        <ele>147.22</ele>
        <time>2009-10-11T15:05:36Z</time>
      </trkpt>
      <trkpt lat="44.31158" lon="0.85054">
        <ele>144.34</ele>
        <time>2009-10-11T15:05:47Z</time>
      </trkpt>
      <trkpt lat="44.31177" lon="0.85045">
        <ele>142.41</ele>
        <time>2009-10-11T15:06:00Z</time>
      </trkpt>
      <trkpt lat="44.31191" lon="0.8504">
        <ele>139.53</ele>
        <time>2009-10-11T15:06:09Z</time>
      </trkpt>
      <trkpt lat="44.31195" lon="0.85037">
        <ele>139.05</ele>
        <time>2009-10-11T15:06:13Z</time>
      </trkpt>
      <trkpt lat="44.312" lon="0.85033">
        <ele>138.09</ele>
        <time>2009-10-11T15:06:17Z</time>
      </trkpt>
      <trkpt lat="44.31214" lon="0.85026">
        <ele>136.64</ele>
        <time>2009-10-11T15:06:28Z</time>
      </trkpt>
      <trkpt lat="44.31218" lon="0.85024">
        <ele>136.16</ele>
        <time>2009-10-11T15:06:31Z</time>
      </trkpt>
      <trkpt lat="44.31222" lon="0.85023">
        <ele>134.72</ele>
        <time>2009-10-11T15:06:34Z</time>
      </trkpt>
      <trkpt lat="44.31228" lon="0.85019">
        <ele>134.72</ele>
        <time>2009-10-11T15:06:39Z</time>
      </trkpt>
      <trkpt lat="44.31241" lon="0.85009">
        <ele>133.28</ele>
        <time>2009-10-11T15:06:50Z</time>
      </trkpt>
      <trkpt lat="44.31248" lon="0.85004">
        <ele>131.84</ele>
        <time>2009-10-11T15:06:55Z</time>
      </trkpt>
      <trkpt lat="44.31272" lon="0.84987">
        <ele>131.36</ele>
        <time>2009-10-11T15:07:13Z</time>
      </trkpt>
      <trkpt lat="44.31291" lon="0.8497">
        <ele>130.4</ele>
        <time>2009-10-11T15:07:29Z</time>
      </trkpt>
      <trkpt lat="44.31307" lon="0.84953">
        <ele>129.43</ele>
        <time>2009-10-11T15:07:42Z</time>
      </trkpt>
      <trkpt lat="44.31323" lon="0.84936">
        <ele>128.47</ele>
        <time>2009-10-11T15:07:56Z</time>
      </trkpt>
      <trkpt lat="44.31336" lon="0.84921">
        <ele>127.51</ele>
        <time>2009-10-11T15:08:07Z</time>
      </trkpt>
      <trkpt lat="44.3134" lon="0.84917">
        <ele>125.11</ele>
        <time>2009-10-11T15:08:11Z</time>
      </trkpt>
      <trkpt lat="44.31344" lon="0.84911">
        <ele>126.07</ele>
        <time>2009-10-11T15:08:15Z</time>
      </trkpt>
      <trkpt lat="44.31354" lon="0.84899">
        <ele>123.67</ele>
        <time>2009-10-11T15:08:25Z</time>
      </trkpt>
      <trkpt lat="44.31374" lon="0.8488">
        <ele>122.22</ele>
        <time>2009-10-11T15:08:42Z</time>
      </trkpt>
      <trkpt lat="44.31376" lon="0.84878">
        <ele>122.22</ele>
        <time>2009-10-11T15:08:44Z</time>
      </trkpt>
      <trkpt lat="44.31384" lon="0.84873">
        <ele>120.78</ele>
        <time>2009-10-11T15:08:50Z</time>
      </trkpt>
      <trkpt lat="44.31402" lon="0.84863">
        <ele>118.38</ele>
        <time>2009-10-11T15:09:04Z</time>
      </trkpt>
      <trkpt lat="44.31418" lon="0.84854">
        <ele>115.98</ele>
        <time>2009-10-11T15:09:18Z</time>
      </trkpt>
      <trkpt lat="44.31441" lon="0.84858">
        <ele>113.57</ele>
        <time>2009-10-11T15:09:34Z</time>
      </trkpt>
      <trkpt lat="44.31454" lon="0.8486">
        <ele>112.61</ele>
        <time>2009-10-11T15:09:43Z</time>
      </trkpt>
      <trkpt lat="44.31476" lon="0.8486">
        <ele>110.69</ele>
        <time>2009-10-11T15:09:57Z</time>
      </trkpt>
      <trkpt lat="44.31489" lon="0.84851">
        <ele>111.65</ele>
        <time>2009-10-11T15:10:07Z</time>
      </trkpt>
      <trkpt lat="44.315" lon="0.8484">
        <ele>110.69</ele>
        <time>2009-10-11T15:10:16Z</time>
      </trkpt>
      <trkpt lat="44.31516" lon="0.84819">
        <ele>110.69</ele>
        <time>2009-10-11T15:10:30Z</time>
      </trkpt>
      <trkpt lat="44.31532" lon="0.84796">
        <ele>110.21</ele>
        <time>2009-10-11T15:10:46Z</time>
      </trkpt>
      <trkpt lat="44.31544" lon="0.84775">
        <ele>109.73</ele>
        <time>2009-10-11T15:11:00Z</time>
      </trkpt>
      <trkpt lat="44.31545" lon="0.84772">
        <ele>110.69</ele>
        <time>2009-10-11T15:11:02Z</time>
      </trkpt>
      <trkpt lat="44.31548" lon="0.84758">
        <ele>111.17</ele>
        <time>2009-10-11T15:11:09Z</time>
      </trkpt>
      <trkpt lat="44.31562" lon="0.84736">
        <ele>114.53</ele>
        <time>2009-10-11T15:11:25Z</time>
      </trkpt>
      <trkpt lat="44.31589" lon="0.8473">
        <ele>114.53</ele>
        <time>2009-10-11T15:11:43Z</time>
      </trkpt>
      <trkpt lat="44.31608" lon="0.84725">
        <ele>113.57</ele>
        <time>2009-10-11T15:11:57Z</time>
      </trkpt>
      <trkpt lat="44.31612" lon="0.84723">
        <ele>113.57</ele>
        <time>2009-10-11T15:12:00Z</time>
      </trkpt>
      <trkpt lat="44.31629" lon="0.84707">
        <ele>114.53</ele>
        <time>2009-10-11T15:12:16Z</time>
      </trkpt>
      <trkpt lat="44.31645" lon="0.84696">
        <ele>115.01</ele>
        <time>2009-10-11T15:12:30Z</time>
      </trkpt>
      <trkpt lat="44.3166" lon="0.84687">
        <ele>115.5</ele>
        <time>2009-10-11T15:12:45Z</time>
      </trkpt>
      <trkpt lat="44.31677" lon="0.84679">
        <ele>115.98</ele>
        <time>2009-10-11T15:12:59Z</time>
      </trkpt>
      <trkpt lat="44.3168" lon="0.84674">
        <ele>115.5</ele>
        <time>2009-10-11T15:13:02Z</time>
      </trkpt>
      <trkpt lat="44.3168" lon="0.84668">
        <ele>115.98</ele>
        <time>2009-10-11T15:13:06Z</time>
      </trkpt>
      <trkpt lat="44.31678" lon="0.84665">
        <ele>115.98</ele>
        <time>2009-10-11T15:13:08Z</time>
      </trkpt>
      <trkpt lat="44.31674" lon="0.8466">
        <ele>117.42</ele>
        <time>2009-10-11T15:13:12Z</time>
      </trkpt>
      <trkpt lat="44.31669" lon="0.84653">
        <ele>118.86</ele>
        <time>2009-10-11T15:13:17Z</time>
      </trkpt>
      <trkpt lat="44.31655" lon="0.84637">
        <ele>119.82</ele>
        <time>2009-10-11T15:13:31Z</time>
      </trkpt>
      <trkpt lat="44.31643" lon="0.8462">
        <ele>120.78</ele>
        <time>2009-10-11T15:13:46Z</time>
      </trkpt>
      <trkpt lat="44.31638" lon="0.84612">
        <ele>122.22</ele>
        <time>2009-10-11T15:14:00Z</time>
      </trkpt>
      <trkpt lat="44.31624" lon="0.84595">
        <ele>123.19</ele>
        <time>2009-10-11T15:14:19Z</time>
      </trkpt>
      <trkpt lat="44.31613" lon="0.84581">
        <ele>125.11</ele>
        <time>2009-10-11T15:14:31Z</time>
      </trkpt>
      <trkpt lat="44.31602" lon="0.84564">
        <ele>127.99</ele>
        <time>2009-10-11T15:14:46Z</time>
      </trkpt>
      <trkpt lat="44.31601" lon="0.84562">
        <ele>128.47</ele>
        <time>2009-10-11T15:14:48Z</time>
      </trkpt>
      <trkpt lat="44.31598" lon="0.84553">
        <ele>128.95</ele>
        <time>2009-10-11T15:14:54Z</time>
      </trkpt>
      <trkpt lat="44.31592" lon="0.8453">
        <ele>130.88</ele>
        <time>2009-10-11T15:15:08Z</time>
      </trkpt>
      <trkpt lat="44.31589" lon="0.8452">
        <ele>132.32</ele>
        <time>2009-10-11T15:15:14Z</time>
      </trkpt>
      <trkpt lat="44.31586" lon="0.84513">
        <ele>133.28</ele>
        <time>2009-10-11T15:15:18Z</time>
      </trkpt>
      <trkpt lat="44.31586" lon="0.84511">
        <ele>133.28</ele>
        <time>2009-10-11T15:15:19Z</time>
      </trkpt>
      <trkpt lat="44.31583" lon="0.845">
        <ele>134.72</ele>
        <time>2009-10-11T15:15:26Z</time>
      </trkpt>
      <trkpt lat="44.31583" lon="0.84491">
        <ele>135.2</ele>
        <time>2009-10-11T15:15:32Z</time>
      </trkpt>
      <trkpt lat="44.31582" lon="0.84488">
        <ele>135.68</ele>
        <time>2009-10-11T15:15:34Z</time>
      </trkpt>
      <trkpt lat="44.31581" lon="0.84485">
        <ele>136.64</ele>
        <time>2009-10-11T15:15:36Z</time>
      </trkpt>
      <trkpt lat="44.31573" lon="0.84468">
        <ele>138.09</ele>
        <time>2009-10-11T15:15:48Z</time>
      </trkpt>
      <trkpt lat="44.31573" lon="0.84465">
        <ele>138.57</ele>
        <time>2009-10-11T15:15:50Z</time>
      </trkpt>
      <trkpt lat="44.31572" lon="0.84458">
        <ele>140.01</ele>
        <time>2009-10-11T15:15:54Z</time>
      </trkpt>
      <trkpt lat="44.31569" lon="0.84439">
        <ele>141.93</ele>
        <time>2009-10-11T15:16:06Z</time>
      </trkpt>
      <trkpt lat="44.31565" lon="0.8443">
        <ele>142.89</ele>
        <time>2009-10-11T15:16:11Z</time>
      </trkpt>
      <trkpt lat="44.31562" lon="0.84427">
        <ele>143.85</ele>
        <time>2009-10-11T15:16:14Z</time>
      </trkpt>
      <trkpt lat="44.31552" lon="0.84434">
        <ele>145.3</ele>
        <time>2009-10-11T15:16:25Z</time>
      </trkpt>
      <trkpt lat="44.31552" lon="0.84442">
        <ele>145.3</ele>
        <time>2009-10-11T15:16:53Z</time>
      </trkpt>
      <trkpt lat="44.31539" lon="0.8445">
        <ele>147.22</ele>
        <time>2009-10-11T15:17:04Z</time>
      </trkpt>
      <trkpt lat="44.31533" lon="0.84461">
        <ele>149.14</ele>
        <time>2009-10-11T15:17:13Z</time>
      </trkpt>
      <trkpt lat="44.31523" lon="0.8447">
        <ele>150.1</ele>
        <time>2009-10-11T15:17:22Z</time>
      </trkpt>
      <trkpt lat="44.31519" lon="0.84475">
        <ele>151.54</ele>
        <time>2009-10-11T15:17:27Z</time>
      </trkpt>
      <trkpt lat="44.31505" lon="0.84484">
        <ele>153.47</ele>
        <time>2009-10-11T15:17:39Z</time>
      </trkpt>
      <trkpt lat="44.31503" lon="0.84485">
        <ele>154.43</ele>
        <time>2009-10-11T15:17:41Z</time>
      </trkpt>
      <trkpt lat="44.31499" lon="0.84486">
        <ele>154.91</ele>
        <time>2009-10-11T15:17:44Z</time>
      </trkpt>
      <trkpt lat="44.31489" lon="0.84489">
        <ele>156.83</ele>
        <time>2009-10-11T15:17:56Z</time>
      </trkpt>
      <trkpt lat="44.31489" lon="0.84488">
        <ele>156.35</ele>
        <time>2009-10-11T15:17:57Z</time>
      </trkpt>
      <trkpt lat="44.31486" lon="0.84484">
        <ele>157.31</ele>
        <time>2009-10-11T15:18:01Z</time>
      </trkpt>
      <trkpt lat="44.31484" lon="0.84474">
        <ele>159.24</ele>
        <time>2009-10-11T15:18:14Z</time>
      </trkpt>
      <trkpt lat="44.31485" lon="0.84474">
        <ele>157.79</ele>
        <time>2009-10-11T15:18:43Z</time>
      </trkpt>
      <trkpt lat="44.31485" lon="0.84472">
        <ele>158.75</ele>
        <time>2009-10-11T15:18:48Z</time>
      </trkpt>
      <trkpt lat="44.3149" lon="0.84465">
        <ele>159.24</ele>
        <time>2009-10-11T15:18:55Z</time>
      </trkpt>
      <trkpt lat="44.31496" lon="0.84461">
        <ele>160.68</ele>
        <time>2009-10-11T15:19:00Z</time>
      </trkpt>
      <trkpt lat="44.315" lon="0.84454">
        <ele>160.68</ele>
        <time>2009-10-11T15:19:05Z</time>
      </trkpt>
      <trkpt lat="44.31502" lon="0.84446">
        <ele>161.16</ele>
        <time>2009-10-11T15:19:10Z</time>
      </trkpt>
      <trkpt lat="44.31507" lon="0.84438">
        <ele>162.6</ele>
        <time>2009-10-11T15:19:16Z</time>
      </trkpt>
      <trkpt lat="44.31515" lon="0.8442">
        <ele>164.52</ele>
        <time>2009-10-11T15:19:30Z</time>
      </trkpt>
      <trkpt lat="44.3152" lon="0.84405">
        <ele>166.93</ele>
        <time>2009-10-11T15:19:41Z</time>
      </trkpt>
      <trkpt lat="44.31524" lon="0.84396">
        <ele>167.89</ele>
        <time>2009-10-11T15:19:47Z</time>
      </trkpt>
      <trkpt lat="44.31532" lon="0.84379">
        <ele>169.81</ele>
        <time>2009-10-11T15:20:00Z</time>
      </trkpt>
      <trkpt lat="44.31533" lon="0.84375">
        <ele>170.29</ele>
        <time>2009-10-11T15:20:03Z</time>
      </trkpt>
      <trkpt lat="44.31532" lon="0.84369">
        <ele>172.69</ele>
        <time>2009-10-11T15:20:08Z</time>
      </trkpt>
      <trkpt lat="44.31524" lon="0.84371">
        <ele>174.62</ele>
        <time>2009-10-11T15:20:14Z</time>
      </trkpt>
      <trkpt lat="44.31513" lon="0.84377">
        <ele>174.62</ele>
        <time>2009-10-11T15:20:25Z</time>
      </trkpt>
      <trkpt lat="44.3151" lon="0.84377">
        <ele>174.62</ele>
        <time>2009-10-11T15:20:28Z</time>
      </trkpt>
      <trkpt lat="44.31506" lon="0.8437">
        <ele>176.54</ele>
        <time>2009-10-11T15:20:37Z</time>
      </trkpt>
      <trkpt lat="44.31502" lon="0.84362">
        <ele>177.5</ele>
        <time>2009-10-11T15:20:44Z</time>
      </trkpt>
      <trkpt lat="44.31498" lon="0.84358">
        <ele>179.42</ele>
        <time>2009-10-11T15:20:47Z</time>
      </trkpt>
      <trkpt lat="44.31496" lon="0.84354">
        <ele>179.42</ele>
        <time>2009-10-11T15:20:49Z</time>
      </trkpt>
      <trkpt lat="44.31495" lon="0.84344">
        <ele>181.35</ele>
        <time>2009-10-11T15:20:57Z</time>
      </trkpt>
      <trkpt lat="44.31494" lon="0.84337">
        <ele>182.31</ele>
        <time>2009-10-11T15:21:01Z</time>
      </trkpt>
      <trkpt lat="44.31495" lon="0.8432">
        <ele>185.67</ele>
        <time>2009-10-11T15:21:14Z</time>
      </trkpt>
      <trkpt lat="44.31494" lon="0.84318">
        <ele>185.67</ele>
        <time>2009-10-11T15:21:15Z</time>
      </trkpt>
      <trkpt lat="44.31495" lon="0.84306">
        <ele>186.63</ele>
        <time>2009-10-11T15:21:22Z</time>
      </trkpt>
      <trkpt lat="44.31495" lon="0.84303">
        <ele>186.63</ele>
        <time>2009-10-11T15:21:24Z</time>
      </trkpt>
      <trkpt lat="44.31496" lon="0.84296">
        <ele>188.08</ele>
        <time>2009-10-11T15:21:31Z</time>
      </trkpt>
      <trkpt lat="44.3149" lon="0.84271">
        <ele>190.48</ele>
        <time>2009-10-11T15:21:44Z</time>
      </trkpt>
      <trkpt lat="44.3149" lon="0.84265">
        <ele>190</ele>
        <time>2009-10-11T15:21:48Z</time>
      </trkpt>
      <trkpt lat="44.31484" lon="0.84246">
        <ele>190.48</ele>
        <time>2009-10-11T15:21:58Z</time>
      </trkpt>
      <trkpt lat="44.31478" lon="0.84217">
        <ele>192.4</ele>
        <time>2009-10-11T15:22:15Z</time>
      </trkpt>
      <trkpt lat="44.31466" lon="0.84191">
        <ele>191.44</ele>
        <time>2009-10-11T15:22:29Z</time>
      </trkpt>
      <trkpt lat="44.31459" lon="0.84173">
        <ele>192.88</ele>
        <time>2009-10-11T15:22:41Z</time>
      </trkpt>
      <trkpt lat="44.31456" lon="0.84167">
        <ele>193.36</ele>
        <time>2009-10-11T15:22:45Z</time>
      </trkpt>
      <trkpt lat="44.31455" lon="0.84155">
        <ele>191.92</ele>
        <time>2009-10-11T15:22:52Z</time>
      </trkpt>
      <trkpt lat="44.31456" lon="0.84139">
        <ele>193.36</ele>
        <time>2009-10-11T15:23:00Z</time>
      </trkpt>
      <trkpt lat="44.31451" lon="0.84126">
        <ele>193.36</ele>
        <time>2009-10-11T15:23:09Z</time>
      </trkpt>
      <trkpt lat="44.31437" lon="0.84109">
        <ele>195.77</ele>
        <time>2009-10-11T15:23:23Z</time>
      </trkpt>
      <trkpt lat="44.31419" lon="0.84088">
        <ele>195.28</ele>
        <time>2009-10-11T15:23:40Z</time>
      </trkpt>
      <trkpt lat="44.31409" lon="0.84066">
        <ele>195.28</ele>
        <time>2009-10-11T15:23:52Z</time>
      </trkpt>
      <trkpt lat="44.31402" lon="0.84048">
        <ele>196.73</ele>
        <time>2009-10-11T15:24:05Z</time>
      </trkpt>
      <trkpt lat="44.31402" lon="0.84048">
        <ele>196.73</ele>
        <time>2009-10-11T15:24:07Z</time>
      </trkpt>
      <trkpt lat="44.31392" lon="0.84035">
        <ele>197.69</ele>
        <time>2009-10-11T15:24:19Z</time>
      </trkpt>
      <trkpt lat="44.31377" lon="0.84025">
        <ele>198.17</ele>
        <time>2009-10-11T15:24:32Z</time>
      </trkpt>
      <trkpt lat="44.31367" lon="0.84025">
        <ele>198.17</ele>
        <time>2009-10-11T15:24:40Z</time>
      </trkpt>
      <trkpt lat="44.31342" lon="0.84022">
        <ele>198.65</ele>
        <time>2009-10-11T15:24:56Z</time>
      </trkpt>
      <trkpt lat="44.31332" lon="0.84019">
        <ele>198.65</ele>
        <time>2009-10-11T15:25:05Z</time>
      </trkpt>
      <trkpt lat="44.31332" lon="0.83999">
        <ele>198.65</ele>
        <time>2009-10-11T15:25:16Z</time>
      </trkpt>
      <trkpt lat="44.31333" lon="0.83987">
        <ele>198.17</ele>
        <time>2009-10-11T15:25:22Z</time>
      </trkpt>
      <trkpt lat="44.31336" lon="0.83977">
        <ele>197.69</ele>
        <time>2009-10-11T15:25:27Z</time>
      </trkpt>
      <trkpt lat="44.31335" lon="0.83965">
        <ele>197.21</ele>
        <time>2009-10-11T15:25:33Z</time>
      </trkpt>
      <trkpt lat="44.3133" lon="0.83954">
        <ele>197.69</ele>
        <time>2009-10-11T15:25:39Z</time>
      </trkpt>
      <trkpt lat="44.31308" lon="0.83953">
        <ele>198.65</ele>
        <time>2009-10-11T15:25:53Z</time>
      </trkpt>
      <trkpt lat="44.31295" lon="0.83955">
        <ele>199.13</ele>
        <time>2009-10-11T15:26:03Z</time>
      </trkpt>
      <trkpt lat="44.31292" lon="0.83943">
        <ele>199.13</ele>
        <time>2009-10-11T15:26:10Z</time>
      </trkpt>
      <trkpt lat="44.31295" lon="0.83933">
        <ele>198.65</ele>
        <time>2009-10-11T15:26:16Z</time>
      </trkpt>
      <trkpt lat="44.31303" lon="0.83909">
        <ele>198.65</ele>
        <time>2009-10-11T15:26:30Z</time>
      </trkpt>
      <trkpt lat="44.31312" lon="0.83892">
        <ele>197.21</ele>
        <time>2009-10-11T15:26:44Z</time>
      </trkpt>
      <trkpt lat="44.31313" lon="0.8389">
        <ele>196.73</ele>
        <time>2009-10-11T15:26:45Z</time>
      </trkpt>
      <trkpt lat="44.31322" lon="0.8387">
        <ele>195.28</ele>
        <time>2009-10-11T15:26:57Z</time>
      </trkpt>
      <trkpt lat="44.31325" lon="0.83845">
        <ele>194.32</ele>
        <time>2009-10-11T15:27:09Z</time>
      </trkpt>
      <trkpt lat="44.31325" lon="0.83835">
        <ele>193.36</ele>
        <time>2009-10-11T15:27:13Z</time>
      </trkpt>
      <trkpt lat="44.31327" lon="0.8382">
        <ele>192.4</ele>
        <time>2009-10-11T15:27:20Z</time>
      </trkpt>
      <trkpt lat="44.31328" lon="0.83814">
        <ele>191.44</ele>
        <time>2009-10-11T15:27:23Z</time>
      </trkpt>
      <trkpt lat="44.31328" lon="0.83801">
        <ele>190</ele>
        <time>2009-10-11T15:27:29Z</time>
      </trkpt>
      <trkpt lat="44.31323" lon="0.83779">
        <ele>188.08</ele>
        <time>2009-10-11T15:27:41Z</time>
      </trkpt>
      <trkpt lat="44.31311" lon="0.83758">
        <ele>186.63</ele>
        <time>2009-10-11T15:27:54Z</time>
      </trkpt>
      <trkpt lat="44.31308" lon="0.83747">
        <ele>185.67</ele>
        <time>2009-10-11T15:28:00Z</time>
      </trkpt>
      <trkpt lat="44.31304" lon="0.83741">
        <ele>185.19</ele>
        <time>2009-10-11T15:28:03Z</time>
      </trkpt>
      <trkpt lat="44.31301" lon="0.83723">
        <ele>184.23</ele>
        <time>2009-10-11T15:28:12Z</time>
      </trkpt>
      <trkpt lat="44.31298" lon="0.83692">
        <ele>182.31</ele>
        <time>2009-10-11T15:28:27Z</time>
      </trkpt>
      <trkpt lat="44.31295" lon="0.83677">
        <ele>181.35</ele>
        <time>2009-10-11T15:28:37Z</time>
      </trkpt>
      <trkpt lat="44.31292" lon="0.83667">
        <ele>180.87</ele>
        <time>2009-10-11T15:28:42Z</time>
      </trkpt>
      <trkpt lat="44.31277" lon="0.83647">
        <ele>179.42</ele>
        <time>2009-10-11T15:28:56Z</time>
      </trkpt>
      <trkpt lat="44.31267" lon="0.83633">
        <ele>178.46</ele>
        <time>2009-10-11T15:29:11Z</time>
      </trkpt>
      <trkpt lat="44.31261" lon="0.83627">
        <ele>177.5</ele>
        <time>2009-10-11T15:29:16Z</time>
      </trkpt>
      <trkpt lat="44.31255" lon="0.83623">
        <ele>178.94</ele>
        <time>2009-10-11T15:29:21Z</time>
      </trkpt>
      <trkpt lat="44.31253" lon="0.83622">
        <ele>177.98</ele>
        <time>2009-10-11T15:29:23Z</time>
      </trkpt>
      <trkpt lat="44.31236" lon="0.83608">
        <ele>177.5</ele>
        <time>2009-10-11T15:29:35Z</time>
      </trkpt>
      <trkpt lat="44.31214" lon="0.83595">
        <ele>176.06</ele>
        <time>2009-10-11T15:29:49Z</time>
      </trkpt>
      <trkpt lat="44.31196" lon="0.83589">
        <ele>173.66</ele>
        <time>2009-10-11T15:30:02Z</time>
      </trkpt>
      <trkpt lat="44.31179" lon="0.83588">
        <ele>172.21</ele>
        <time>2009-10-11T15:30:15Z</time>
      </trkpt>
      <trkpt lat="44.31172" lon="0.83589">
        <ele>171.73</ele>
        <time>2009-10-11T15:30:34Z</time>
      </trkpt>
      <trkpt lat="44.31169" lon="0.83589">
        <ele>170.29</ele>
        <time>2009-10-11T15:30:37Z</time>
      </trkpt>
      <trkpt lat="44.31166" lon="0.83589">
        <ele>170.29</ele>
        <time>2009-10-11T15:30:39Z</time>
      </trkpt>
      <trkpt lat="44.31162" lon="0.8359">
        <ele>170.29</ele>
        <time>2009-10-11T15:30:42Z</time>
      </trkpt>
      <trkpt lat="44.31152" lon="0.83589">
        <ele>169.33</ele>
        <time>2009-10-11T15:30:49Z</time>
      </trkpt>
      <trkpt lat="44.31149" lon="0.8359">
        <ele>168.85</ele>
        <time>2009-10-11T15:30:52Z</time>
      </trkpt>
      <trkpt lat="44.31144" lon="0.8359">
        <ele>168.37</ele>
        <time>2009-10-11T15:30:56Z</time>
      </trkpt>
      <trkpt lat="44.3114" lon="0.8359">
        <ele>166.93</ele>
        <time>2009-10-11T15:30:58Z</time>
      </trkpt>
      <trkpt lat="44.31126" lon="0.83592">
        <ele>165.48</ele>
        <time>2009-10-11T15:31:07Z</time>
      </trkpt>
      <trkpt lat="44.31104" lon="0.836">
        <ele>164.52</ele>
        <time>2009-10-11T15:31:21Z</time>
      </trkpt>
      <trkpt lat="44.31101" lon="0.83603">
        <ele>163.08</ele>
        <time>2009-10-11T15:31:24Z</time>
      </trkpt>
      <trkpt lat="44.31086" lon="0.83618">
        <ele>161.64</ele>
        <time>2009-10-11T15:31:36Z</time>
      </trkpt>
      <trkpt lat="44.31077" lon="0.83627">
        <ele>160.2</ele>
        <time>2009-10-11T15:31:44Z</time>
      </trkpt>
      <trkpt lat="44.31075" lon="0.83629">
        <ele>160.2</ele>
        <time>2009-10-11T15:31:46Z</time>
      </trkpt>
      <trkpt lat="44.31063" lon="0.83639">
        <ele>159.24</ele>
        <time>2009-10-11T15:31:54Z</time>
      </trkpt>
      <trkpt lat="44.31055" lon="0.83653">
        <ele>156.83</ele>
        <time>2009-10-11T15:32:05Z</time>
      </trkpt>
      <trkpt lat="44.31047" lon="0.83661">
        <ele>156.35</ele>
        <time>2009-10-11T15:32:12Z</time>
      </trkpt>
      <trkpt lat="44.31039" lon="0.83656">
        <ele>154.43</ele>
        <time>2009-10-11T15:32:24Z</time>
      </trkpt>
      <trkpt lat="44.31042" lon="0.83652">
        <ele>153.95</ele>
        <time>2009-10-11T15:32:28Z</time>
      </trkpt>
      <trkpt lat="44.31048" lon="0.83646">
        <ele>152.51</ele>
        <time>2009-10-11T15:32:33Z</time>
      </trkpt>
      <trkpt lat="44.31049" lon="0.83643">
        <ele>152.51</ele>
        <time>2009-10-11T15:32:35Z</time>
      </trkpt>
      <trkpt lat="44.31051" lon="0.83636">
        <ele>151.54</ele>
        <time>2009-10-11T15:32:39Z</time>
      </trkpt>
      <trkpt lat="44.31055" lon="0.83631">
        <ele>152.03</ele>
        <time>2009-10-11T15:32:42Z</time>
      </trkpt>
      <trkpt lat="44.31064" lon="0.83613">
        <ele>150.58</ele>
        <time>2009-10-11T15:32:52Z</time>
      </trkpt>
      <trkpt lat="44.31068" lon="0.83605">
        <ele>150.1</ele>
        <time>2009-10-11T15:32:56Z</time>
      </trkpt>
      <trkpt lat="44.31071" lon="0.83599">
        <ele>150.1</ele>
        <time>2009-10-11T15:32:59Z</time>
      </trkpt>
      <trkpt lat="44.31077" lon="0.83579">
        <ele>149.14</ele>
        <time>2009-10-11T15:33:11Z</time>
      </trkpt>
      <trkpt lat="44.31084" lon="0.83564">
        <ele>147.7</ele>
        <time>2009-10-11T15:33:19Z</time>
      </trkpt>
      <trkpt lat="44.31096" lon="0.83548">
        <ele>145.78</ele>
        <time>2009-10-11T15:33:31Z</time>
      </trkpt>
      <trkpt lat="44.31101" lon="0.83539">
        <ele>145.3</ele>
        <time>2009-10-11T15:33:37Z</time>
      </trkpt>
      <trkpt lat="44.31105" lon="0.83527">
        <ele>144.82</ele>
        <time>2009-10-11T15:33:44Z</time>
      </trkpt>
      <trkpt lat="44.3111" lon="0.83516">
        <ele>143.85</ele>
        <time>2009-10-11T15:33:50Z</time>
      </trkpt>
      <trkpt lat="44.31115" lon="0.83505">
        <ele>143.37</ele>
        <time>2009-10-11T15:33:56Z</time>
      </trkpt>
      <trkpt lat="44.31123" lon="0.83494">
        <ele>142.89</ele>
        <time>2009-10-11T15:34:03Z</time>
      </trkpt>
      <trkpt lat="44.31128" lon="0.83484">
        <ele>142.41</ele>
        <time>2009-10-11T15:34:09Z</time>
      </trkpt>
      <trkpt lat="44.31134" lon="0.83475">
        <ele>141.45</ele>
        <time>2009-10-11T15:34:15Z</time>
      </trkpt>
      <trkpt lat="44.31137" lon="0.8347">
        <ele>140.97</ele>
        <time>2009-10-11T15:34:19Z</time>
      </trkpt>
      <trkpt lat="44.31144" lon="0.83459">
        <ele>140.01</ele>
        <time>2009-10-11T15:34:27Z</time>
      </trkpt>
      <trkpt lat="44.31153" lon="0.8345">
        <ele>138.57</ele>
        <time>2009-10-11T15:34:34Z</time>
      </trkpt>
      <trkpt lat="44.31148" lon="0.83437">
        <ele>138.09</ele>
        <time>2009-10-11T15:34:41Z</time>
      </trkpt>
      <trkpt lat="44.31145" lon="0.83433">
        <ele>136.16</ele>
        <time>2009-10-11T15:34:45Z</time>
      </trkpt>
      <trkpt lat="44.31138" lon="0.83406">
        <ele>133.28</ele>
        <time>2009-10-11T15:34:59Z</time>
      </trkpt>
      <trkpt lat="44.31138" lon="0.834">
        <ele>131.84</ele>
        <time>2009-10-11T15:35:03Z</time>
      </trkpt>
      <trkpt lat="44.31134" lon="0.83372">
        <ele>128.95</ele>
        <time>2009-10-11T15:35:19Z</time>
      </trkpt>
      <trkpt lat="44.31133" lon="0.83358">
        <ele>127.03</ele>
        <time>2009-10-11T15:35:26Z</time>
      </trkpt>
      <trkpt lat="44.31133" lon="0.83337">
        <ele>124.63</ele>
        <time>2009-10-11T15:35:37Z</time>
      </trkpt>
      <trkpt lat="44.3114" lon="0.8331">
        <ele>121.26</ele>
        <time>2009-10-11T15:35:52Z</time>
      </trkpt>
      <trkpt lat="44.31143" lon="0.83295">
        <ele>118.38</ele>
        <time>2009-10-11T15:36:01Z</time>
      </trkpt>
      <trkpt lat="44.31146" lon="0.83286">
        <ele>118.38</ele>
        <time>2009-10-11T15:36:06Z</time>
      </trkpt>
      <trkpt lat="44.31148" lon="0.83261">
        <ele>114.05</ele>
        <time>2009-10-11T15:36:19Z</time>
      </trkpt>
      <trkpt lat="44.31147" lon="0.83245">
        <ele>112.13</ele>
        <time>2009-10-11T15:36:28Z</time>
      </trkpt>
      <trkpt lat="44.31149" lon="0.83232">
        <ele>111.65</ele>
        <time>2009-10-11T15:36:39Z</time>
      </trkpt>
      <trkpt lat="44.3115" lon="0.83226">
        <ele>110.69</ele>
        <time>2009-10-11T15:36:49Z</time>
      </trkpt>
      <trkpt lat="44.31154" lon="0.83218">
        <ele>110.69</ele>
        <time>2009-10-11T15:37:03Z</time>
      </trkpt>
      <trkpt lat="44.31153" lon="0.83218">
        <ele>110.69</ele>
        <time>2009-10-11T15:37:36Z</time>
      </trkpt>
      <trkpt lat="44.31148" lon="0.83204">
        <ele>110.69</ele>
        <time>2009-10-11T15:37:44Z</time>
      </trkpt>
      <trkpt lat="44.31148" lon="0.83172">
        <ele>109.25</ele>
        <time>2009-10-11T15:37:59Z</time>
      </trkpt>
      <trkpt lat="44.31145" lon="0.83156">
        <ele>110.21</ele>
        <time>2009-10-11T15:38:08Z</time>
      </trkpt>
      <trkpt lat="44.31146" lon="0.83152">
        <ele>110.21</ele>
        <time>2009-10-11T15:38:10Z</time>
      </trkpt>
      <trkpt lat="44.31144" lon="0.83138">
        <ele>111.17</ele>
        <time>2009-10-11T15:38:17Z</time>
      </trkpt>
      <trkpt lat="44.31145" lon="0.83131">
        <ele>112.13</ele>
        <time>2009-10-11T15:38:21Z</time>
      </trkpt>
      <trkpt lat="44.31152" lon="0.8311">
        <ele>113.09</ele>
        <time>2009-10-11T15:38:34Z</time>
      </trkpt>
      <trkpt lat="44.31153" lon="0.83103">
        <ele>113.09</ele>
        <time>2009-10-11T15:38:38Z</time>
      </trkpt>
      <trkpt lat="44.31158" lon="0.83097">
        <ele>114.53</ele>
        <time>2009-10-11T15:38:42Z</time>
      </trkpt>
      <trkpt lat="44.31164" lon="0.8309">
        <ele>115.5</ele>
        <time>2009-10-11T15:38:48Z</time>
      </trkpt>
      <trkpt lat="44.31172" lon="0.83074">
        <ele>118.38</ele>
        <time>2009-10-11T15:38:58Z</time>
      </trkpt>
      <trkpt lat="44.31174" lon="0.83068">
        <ele>119.82</ele>
        <time>2009-10-11T15:39:02Z</time>
      </trkpt>
      <trkpt lat="44.31176" lon="0.83063">
        <ele>119.82</ele>
        <time>2009-10-11T15:39:05Z</time>
      </trkpt>
      <trkpt lat="44.31181" lon="0.83049">
        <ele>122.71</ele>
        <time>2009-10-11T15:39:14Z</time>
      </trkpt>
      <trkpt lat="44.31185" lon="0.83043">
        <ele>123.67</ele>
        <time>2009-10-11T15:39:19Z</time>
      </trkpt>
      <trkpt lat="44.31188" lon="0.83029">
        <ele>126.07</ele>
        <time>2009-10-11T15:39:30Z</time>
      </trkpt>
      <trkpt lat="44.31188" lon="0.83027">
        <ele>126.07</ele>
        <time>2009-10-11T15:39:31Z</time>
      </trkpt>
      <trkpt lat="44.31189" lon="0.83022">
        <ele>127.03</ele>
        <time>2009-10-11T15:39:34Z</time>
      </trkpt>
      <trkpt lat="44.31188" lon="0.83015">
        <ele>127.99</ele>
        <time>2009-10-11T15:39:37Z</time>
      </trkpt>
      <trkpt lat="44.31199" lon="0.82998">
        <ele>129.43</ele>
        <time>2009-10-11T15:39:52Z</time>
      </trkpt>
      <trkpt lat="44.31201" lon="0.82981">
        <ele>131.36</ele>
        <time>2009-10-11T15:40:04Z</time>
      </trkpt>
      <trkpt lat="44.31202" lon="0.82975">
        <ele>131.84</ele>
        <time>2009-10-11T15:40:09Z</time>
      </trkpt>
      <trkpt lat="44.31205" lon="0.82954">
        <ele>133.28</ele>
        <time>2009-10-11T15:40:21Z</time>
      </trkpt>
      <trkpt lat="44.31207" lon="0.82934">
        <ele>137.13</ele>
        <time>2009-10-11T15:40:35Z</time>
      </trkpt>
      <trkpt lat="44.31206" lon="0.82932">
        <ele>137.61</ele>
        <time>2009-10-11T15:40:36Z</time>
      </trkpt>
      <trkpt lat="44.31209" lon="0.82916">
        <ele>140.01</ele>
        <time>2009-10-11T15:40:49Z</time>
      </trkpt>
      <trkpt lat="44.31213" lon="0.829">
        <ele>142.41</ele>
        <time>2009-10-11T15:41:01Z</time>
      </trkpt>
      <trkpt lat="44.31214" lon="0.82888">
        <ele>143.85</ele>
        <time>2009-10-11T15:41:11Z</time>
      </trkpt>
      <trkpt lat="44.31216" lon="0.82877">
        <ele>147.22</ele>
        <time>2009-10-11T15:41:20Z</time>
      </trkpt>
      <trkpt lat="44.3122" lon="0.82863">
        <ele>149.14</ele>
        <time>2009-10-11T15:41:31Z</time>
      </trkpt>
      <trkpt lat="44.31221" lon="0.82861">
        <ele>149.62</ele>
        <time>2009-10-11T15:41:33Z</time>
      </trkpt>
      <trkpt lat="44.31223" lon="0.82855">
        <ele>151.06</ele>
        <time>2009-10-11T15:41:38Z</time>
      </trkpt>
      <trkpt lat="44.31223" lon="0.82841">
        <ele>152.99</ele>
        <time>2009-10-11T15:41:48Z</time>
      </trkpt>
      <trkpt lat="44.31223" lon="0.82839">
        <ele>153.47</ele>
        <time>2009-10-11T15:41:50Z</time>
      </trkpt>
      <trkpt lat="44.31223" lon="0.82836">
        <ele>154.91</ele>
        <time>2009-10-11T15:41:53Z</time>
      </trkpt>
      <trkpt lat="44.31218" lon="0.82819">
        <ele>157.31</ele>
        <time>2009-10-11T15:42:06Z</time>
      </trkpt>
      <trkpt lat="44.31215" lon="0.828">
        <ele>160.68</ele>
        <time>2009-10-11T15:42:21Z</time>
      </trkpt>
      <trkpt lat="44.31215" lon="0.82795">
        <ele>161.64</ele>
        <time>2009-10-11T15:42:25Z</time>
      </trkpt>
      <trkpt lat="44.31214" lon="0.82785">
        <ele>162.6</ele>
        <time>2009-10-11T15:42:34Z</time>
      </trkpt>
      <trkpt lat="44.31212" lon="0.82778">
        <ele>165</ele>
        <time>2009-10-11T15:42:39Z</time>
      </trkpt>
      <trkpt lat="44.31208" lon="0.82767">
        <ele>167.41</ele>
        <time>2009-10-11T15:42:49Z</time>
      </trkpt>
      <trkpt lat="44.31208" lon="0.82766">
        <ele>167.41</ele>
        <time>2009-10-11T15:42:50Z</time>
      </trkpt>
      <trkpt lat="44.31201" lon="0.8275">
        <ele>168.37</ele>
        <time>2009-10-11T15:43:02Z</time>
      </trkpt>
      <trkpt lat="44.31196" lon="0.82729">
        <ele>170.77</ele>
        <time>2009-10-11T15:43:18Z</time>
      </trkpt>
      <trkpt lat="44.31192" lon="0.82713">
        <ele>172.69</ele>
        <time>2009-10-11T15:43:29Z</time>
      </trkpt>
      <trkpt lat="44.31186" lon="0.82697">
        <ele>173.66</ele>
        <time>2009-10-11T15:43:40Z</time>
      </trkpt>
      <trkpt lat="44.31182" lon="0.82682">
        <ele>176.06</ele>
        <time>2009-10-11T15:43:53Z</time>
      </trkpt>
      <trkpt lat="44.31178" lon="0.82667">
        <ele>177.5</ele>
        <time>2009-10-11T15:44:07Z</time>
      </trkpt>
      <trkpt lat="44.31173" lon="0.82655">
        <ele>177.5</ele>
        <time>2009-10-11T15:44:16Z</time>
      </trkpt>
      <trkpt lat="44.3118" lon="0.8264">
        <ele>181.35</ele>
        <time>2009-10-11T15:44:30Z</time>
      </trkpt>
      <trkpt lat="44.31188" lon="0.8263">
        <ele>183.75</ele>
        <time>2009-10-11T15:44:41Z</time>
      </trkpt>
      <trkpt lat="44.31188" lon="0.82618">
        <ele>186.15</ele>
        <time>2009-10-11T15:44:55Z</time>
      </trkpt>
      <trkpt lat="44.31186" lon="0.82607">
        <ele>188.56</ele>
        <time>2009-10-11T15:45:04Z</time>
      </trkpt>
      <trkpt lat="44.31186" lon="0.82603">
        <ele>189.04</ele>
        <time>2009-10-11T15:45:07Z</time>
      </trkpt>
      <trkpt lat="44.31189" lon="0.82591">
        <ele>188.56</ele>
        <time>2009-10-11T15:45:17Z</time>
      </trkpt>
      <trkpt lat="44.3119" lon="0.82582">
        <ele>189.52</ele>
        <time>2009-10-11T15:45:25Z</time>
      </trkpt>
      <trkpt lat="44.3119" lon="0.82576">
        <ele>190.48</ele>
        <time>2009-10-11T15:45:32Z</time>
      </trkpt>
      <trkpt lat="44.31184" lon="0.82572">
        <ele>190.48</ele>
        <time>2009-10-11T15:45:37Z</time>
      </trkpt>
      <trkpt lat="44.31175" lon="0.82571">
        <ele>190.96</ele>
        <time>2009-10-11T15:45:44Z</time>
      </trkpt>
      <trkpt lat="44.31169" lon="0.82569">
        <ele>190.96</ele>
        <time>2009-10-11T15:45:49Z</time>
      </trkpt>
      <trkpt lat="44.31156" lon="0.82565">
        <ele>191.92</ele>
        <time>2009-10-11T15:45:59Z</time>
      </trkpt>
      <trkpt lat="44.31137" lon="0.82569">
        <ele>193.36</ele>
        <time>2009-10-11T15:46:14Z</time>
      </trkpt>
      <trkpt lat="44.31135" lon="0.82569">
        <ele>193.36</ele>
        <time>2009-10-11T15:46:17Z</time>
      </trkpt>
      <trkpt lat="44.31133" lon="0.82568">
        <ele>194.32</ele>
        <time>2009-10-11T15:46:19Z</time>
      </trkpt>
      <trkpt lat="44.31123" lon="0.82573">
        <ele>194.32</ele>
        <time>2009-10-11T15:46:27Z</time>
      </trkpt>
      <trkpt lat="44.31121" lon="0.82575">
        <ele>196.25</ele>
        <time>2009-10-11T15:46:30Z</time>
      </trkpt>
      <trkpt lat="44.31118" lon="0.82575">
        <ele>195.28</ele>
        <time>2009-10-11T15:46:33Z</time>
      </trkpt>
      <trkpt lat="44.31114" lon="0.82575">
        <ele>197.21</ele>
        <time>2009-10-11T15:46:36Z</time>
      </trkpt>
      <trkpt lat="44.31111" lon="0.82575">
        <ele>197.69</ele>
        <time>2009-10-11T15:46:41Z</time>
      </trkpt>
      <trkpt lat="44.31107" lon="0.82565">
        <ele>200.09</ele>
        <time>2009-10-11T15:46:55Z</time>
      </trkpt>
      <trkpt lat="44.31102" lon="0.82556">
        <ele>201.53</ele>
        <time>2009-10-11T15:47:02Z</time>
      </trkpt>
      <trkpt lat="44.31091" lon="0.82541">
        <ele>201.53</ele>
        <time>2009-10-11T15:47:13Z</time>
      </trkpt>
      <trkpt lat="44.3109" lon="0.8254">
        <ele>201.05</ele>
        <time>2009-10-11T15:47:14Z</time>
      </trkpt>
      <trkpt lat="44.31088" lon="0.82539">
        <ele>202.49</ele>
        <time>2009-10-11T15:47:17Z</time>
      </trkpt>
      <trkpt lat="44.31077" lon="0.82532">
        <ele>203.46</ele>
        <time>2009-10-11T15:47:30Z</time>
      </trkpt>
      <trkpt lat="44.31073" lon="0.82529">
        <ele>202.98</ele>
        <time>2009-10-11T15:47:33Z</time>
      </trkpt>
      <trkpt lat="44.31068" lon="0.82526">
        <ele>203.46</ele>
        <time>2009-10-11T15:47:37Z</time>
      </trkpt>
      <trkpt lat="44.31066" lon="0.82526">
        <ele>203.46</ele>
        <time>2009-10-11T15:47:41Z</time>
      </trkpt>
      <trkpt lat="44.31068" lon="0.82508">
        <ele>203.46</ele>
        <time>2009-10-11T15:47:54Z</time>
      </trkpt>
      <trkpt lat="44.31069" lon="0.82503">
        <ele>203.94</ele>
        <time>2009-10-11T15:47:57Z</time>
      </trkpt>
      <trkpt lat="44.31072" lon="0.82494">
        <ele>203.94</ele>
        <time>2009-10-11T15:48:03Z</time>
      </trkpt>
      <trkpt lat="44.31072" lon="0.82491">
        <ele>203.46</ele>
        <time>2009-10-11T15:48:05Z</time>
      </trkpt>
      <trkpt lat="44.31071" lon="0.82479">
        <ele>202.98</ele>
        <time>2009-10-11T15:48:14Z</time>
      </trkpt>
      <trkpt lat="44.31065" lon="0.82472">
        <ele>202.49</ele>
        <time>2009-10-11T15:48:26Z</time>
      </trkpt>
      <trkpt lat="44.31052" lon="0.82459">
        <ele>202.49</ele>
        <time>2009-10-11T15:48:40Z</time>
      </trkpt>
      <trkpt lat="44.31041" lon="0.82452">
        <ele>202.49</ele>
        <time>2009-10-11T15:48:51Z</time>
      </trkpt>
      <trkpt lat="44.31038" lon="0.82451">
        <ele>202.01</ele>
        <time>2009-10-11T15:48:53Z</time>
      </trkpt>
      <trkpt lat="44.31023" lon="0.8247">
        <ele>203.46</ele>
        <time>2009-10-11T15:49:10Z</time>
      </trkpt>
      <trkpt lat="44.3101" lon="0.82489">
        <ele>204.42</ele>
        <time>2009-10-11T15:49:24Z</time>
      </trkpt>
      <trkpt lat="44.31003" lon="0.82499">
        <ele>204.42</ele>
        <time>2009-10-11T15:49:32Z</time>
      </trkpt>
      <trkpt lat="44.30994" lon="0.82501">
        <ele>205.38</ele>
        <time>2009-10-11T15:49:39Z</time>
      </trkpt>
      <trkpt lat="44.3099" lon="0.82502">
        <ele>205.38</ele>
        <time>2009-10-11T15:49:43Z</time>
      </trkpt>
      <trkpt lat="44.30976" lon="0.82504">
        <ele>205.86</ele>
        <time>2009-10-11T15:49:54Z</time>
      </trkpt>
      <trkpt lat="44.30965" lon="0.82503">
        <ele>204.9</ele>
        <time>2009-10-11T15:50:06Z</time>
      </trkpt>
      <trkpt lat="44.30965" lon="0.82503">
        <ele>206.34</ele>
        <time>2009-10-11T15:50:31Z</time>
      </trkpt>
      <trkpt lat="44.30963" lon="0.825">
        <ele>205.86</ele>
        <time>2009-10-11T15:50:40Z</time>
      </trkpt>
      <trkpt lat="44.30948" lon="0.82491">
        <ele>205.38</ele>
        <time>2009-10-11T15:50:54Z</time>
      </trkpt>
      <trkpt lat="44.30931" lon="0.82485">
        <ele>204.9</ele>
        <time>2009-10-11T15:51:11Z</time>
      </trkpt>
    </trkseg>
  </trk>
</gpx>